<?xml version="1.0" encoding="UTF-8" standalone="no" ?>
<gpx xmlns="http://www.topografix.com/GPX/1/1" xmlns:xsi="http://www.w3.org/2001/XMLSchema-instance" xsi:schemaLocation="http://www.topografix.com/GPX/1/1 http://www.topografix.com/GPX/1/1/gpx.xsd" version="1.1" creator="VisuGPX - https://www.visugpx.com">
  <metadata>
    <name>RSPG La Piarre circuit des cols</name>
    <desc><![CDATA[Au départ de la Piarre parking sur la route du col de Carabes prendre le sentier qui monte vers les crêtes puis parcourir une boucle qui passe par les 3 cols pour revenir vers le parking ]]></desc>
  </metadata>
  <trk>
    <name><![CDATA[La Piarre 03 DEC 2015 09:45]]></name>
    <trkseg>
      <trkpt lat="44.48523" lon="5.65831">
        <ele>895.12</ele>
        <time>2015-12-03T08:45:13Z</time>
      </trkpt>
      <trkpt lat="44.48523" lon="5.65831">
        <ele>898.01</ele>
        <time>2015-12-03T08:45:14Z</time>
      </trkpt>
      <trkpt lat="44.48523" lon="5.65831">
        <ele>898.01</ele>
        <time>2015-12-03T08:45:15Z</time>
      </trkpt>
      <trkpt lat="44.48523" lon="5.65832">
        <ele>903.78</ele>
        <time>2015-12-03T08:45:17Z</time>
      </trkpt>
      <trkpt lat="44.48524" lon="5.65832">
        <ele>909.54</ele>
        <time>2015-12-03T08:45:19Z</time>
      </trkpt>
      <trkpt lat="44.48524" lon="5.65833">
        <ele>914.35</ele>
        <time>2015-12-03T08:45:21Z</time>
      </trkpt>
      <trkpt lat="44.48524" lon="5.65833">
        <ele>919.16</ele>
        <time>2015-12-03T08:45:23Z</time>
      </trkpt>
      <trkpt lat="44.48524" lon="5.65833">
        <ele>923.48</ele>
        <time>2015-12-03T08:45:25Z</time>
      </trkpt>
      <trkpt lat="44.48524" lon="5.65832">
        <ele>927.81</ele>
        <time>2015-12-03T08:45:27Z</time>
      </trkpt>
      <trkpt lat="44.48524" lon="5.65832">
        <ele>931.65</ele>
        <time>2015-12-03T08:45:29Z</time>
      </trkpt>
      <trkpt lat="44.48523" lon="5.65832">
        <ele>935.5</ele>
        <time>2015-12-03T08:45:31Z</time>
      </trkpt>
      <trkpt lat="44.48523" lon="5.65832">
        <ele>938.38</ele>
        <time>2015-12-03T08:45:33Z</time>
      </trkpt>
      <trkpt lat="44.48524" lon="5.65833">
        <ele>941.75</ele>
        <time>2015-12-03T08:45:34Z</time>
      </trkpt>
      <trkpt lat="44.48524" lon="5.65832">
        <ele>945.11</ele>
        <time>2015-12-03T08:45:37Z</time>
      </trkpt>
      <trkpt lat="44.48524" lon="5.65833">
        <ele>948</ele>
        <time>2015-12-03T08:45:39Z</time>
      </trkpt>
      <trkpt lat="44.48524" lon="5.65834">
        <ele>952.32</ele>
        <time>2015-12-03T08:45:42Z</time>
      </trkpt>
      <trkpt lat="44.48523" lon="5.65836">
        <ele>955.69</ele>
        <time>2015-12-03T08:45:45Z</time>
      </trkpt>
      <trkpt lat="44.48523" lon="5.65836">
        <ele>959.05</ele>
        <time>2015-12-03T08:45:48Z</time>
      </trkpt>
      <trkpt lat="44.48523" lon="5.65835">
        <ele>962.42</ele>
        <time>2015-12-03T08:45:51Z</time>
      </trkpt>
      <trkpt lat="44.48523" lon="5.65836">
        <ele>965.78</ele>
        <time>2015-12-03T08:45:55Z</time>
      </trkpt>
      <trkpt lat="44.4852" lon="5.65835">
        <ele>969.15</ele>
        <time>2015-12-03T08:45:59Z</time>
      </trkpt>
      <trkpt lat="44.48517" lon="5.65837">
        <ele>972.51</ele>
        <time>2015-12-03T08:46:04Z</time>
      </trkpt>
      <trkpt lat="44.48513" lon="5.6584">
        <ele>975.39</ele>
        <time>2015-12-03T08:46:09Z</time>
      </trkpt>
      <trkpt lat="44.48505" lon="5.65846">
        <ele>978.76</ele>
        <time>2015-12-03T08:46:18Z</time>
      </trkpt>
      <trkpt lat="44.48503" lon="5.65847">
        <ele>980.2</ele>
        <time>2015-12-03T08:46:20Z</time>
      </trkpt>
      <trkpt lat="44.48492" lon="5.65858">
        <ele>983.09</ele>
        <time>2015-12-03T08:46:35Z</time>
      </trkpt>
      <trkpt lat="44.48477" lon="5.65868">
        <ele>985.01</ele>
        <time>2015-12-03T08:46:53Z</time>
      </trkpt>
      <trkpt lat="44.48463" lon="5.65874">
        <ele>984.53</ele>
        <time>2015-12-03T08:47:08Z</time>
      </trkpt>
      <trkpt lat="44.48451" lon="5.65879">
        <ele>983.09</ele>
        <time>2015-12-03T08:47:23Z</time>
      </trkpt>
      <trkpt lat="44.48444" lon="5.65884">
        <ele>982.6</ele>
        <time>2015-12-03T08:47:37Z</time>
      </trkpt>
      <trkpt lat="44.48444" lon="5.65884">
        <ele>982.6</ele>
        <time>2015-12-03T08:47:59Z</time>
      </trkpt>
      <trkpt lat="44.48443" lon="5.65884">
        <ele>984.53</ele>
        <time>2015-12-03T08:48:20Z</time>
      </trkpt>
      <trkpt lat="44.48443" lon="5.65883">
        <ele>982.6</ele>
        <time>2015-12-03T08:48:38Z</time>
      </trkpt>
      <trkpt lat="44.48442" lon="5.65885">
        <ele>983.09</ele>
        <time>2015-12-03T08:48:54Z</time>
      </trkpt>
      <trkpt lat="44.48443" lon="5.65886">
        <ele>982.6</ele>
        <time>2015-12-03T08:49:05Z</time>
      </trkpt>
      <trkpt lat="44.48441" lon="5.65887">
        <ele>982.6</ele>
        <time>2015-12-03T08:49:19Z</time>
      </trkpt>
      <trkpt lat="44.48448" lon="5.65889">
        <ele>982.12</ele>
        <time>2015-12-03T08:49:33Z</time>
      </trkpt>
      <trkpt lat="44.48458" lon="5.65886">
        <ele>982.12</ele>
        <time>2015-12-03T08:49:47Z</time>
      </trkpt>
      <trkpt lat="44.48465" lon="5.65882">
        <ele>982.6</ele>
        <time>2015-12-03T08:50:03Z</time>
      </trkpt>
      <trkpt lat="44.48465" lon="5.65882">
        <ele>982.6</ele>
        <time>2015-12-03T08:50:20Z</time>
      </trkpt>
      <trkpt lat="44.48464" lon="5.65883">
        <ele>983.09</ele>
        <time>2015-12-03T08:50:42Z</time>
      </trkpt>
      <trkpt lat="44.48465" lon="5.65882">
        <ele>983.09</ele>
        <time>2015-12-03T08:50:59Z</time>
      </trkpt>
      <trkpt lat="44.48472" lon="5.65882">
        <ele>983.57</ele>
        <time>2015-12-03T08:51:12Z</time>
      </trkpt>
      <trkpt lat="44.48478" lon="5.65884">
        <ele>985.01</ele>
        <time>2015-12-03T08:51:21Z</time>
      </trkpt>
      <trkpt lat="44.48489" lon="5.65891">
        <ele>986.45</ele>
        <time>2015-12-03T08:51:34Z</time>
      </trkpt>
      <trkpt lat="44.48496" lon="5.65896">
        <ele>988.85</ele>
        <time>2015-12-03T08:51:47Z</time>
      </trkpt>
      <trkpt lat="44.48503" lon="5.65899">
        <ele>991.26</ele>
        <time>2015-12-03T08:51:59Z</time>
      </trkpt>
      <trkpt lat="44.48512" lon="5.65909">
        <ele>993.66</ele>
        <time>2015-12-03T08:52:15Z</time>
      </trkpt>
      <trkpt lat="44.48521" lon="5.65912">
        <ele>995.58</ele>
        <time>2015-12-03T08:52:30Z</time>
      </trkpt>
      <trkpt lat="44.48527" lon="5.65914">
        <ele>997.99</ele>
        <time>2015-12-03T08:52:42Z</time>
      </trkpt>
      <trkpt lat="44.48535" lon="5.65921">
        <ele>1000.39</ele>
        <time>2015-12-03T08:52:57Z</time>
      </trkpt>
      <trkpt lat="44.48538" lon="5.65925">
        <ele>1001.35</ele>
        <time>2015-12-03T08:53:02Z</time>
      </trkpt>
      <trkpt lat="44.48543" lon="5.65932">
        <ele>1002.79</ele>
        <time>2015-12-03T08:53:12Z</time>
      </trkpt>
      <trkpt lat="44.48553" lon="5.65942">
        <ele>1004.72</ele>
        <time>2015-12-03T08:53:27Z</time>
      </trkpt>
      <trkpt lat="44.48562" lon="5.65948">
        <ele>1006.16</ele>
        <time>2015-12-03T08:53:40Z</time>
      </trkpt>
      <trkpt lat="44.48571" lon="5.65956">
        <ele>1007.6</ele>
        <time>2015-12-03T08:53:53Z</time>
      </trkpt>
      <trkpt lat="44.48575" lon="5.65966">
        <ele>1009.52</ele>
        <time>2015-12-03T08:54:06Z</time>
      </trkpt>
      <trkpt lat="44.48577" lon="5.65976">
        <ele>1011.93</ele>
        <time>2015-12-03T08:54:20Z</time>
      </trkpt>
      <trkpt lat="44.48579" lon="5.6599">
        <ele>1015.29</ele>
        <time>2015-12-03T08:54:37Z</time>
      </trkpt>
      <trkpt lat="44.48583" lon="5.66">
        <ele>1017.21</ele>
        <time>2015-12-03T08:54:49Z</time>
      </trkpt>
      <trkpt lat="44.48588" lon="5.66011">
        <ele>1017.69</ele>
        <time>2015-12-03T08:55:01Z</time>
      </trkpt>
      <trkpt lat="44.48588" lon="5.6602">
        <ele>1018.65</ele>
        <time>2015-12-03T08:55:09Z</time>
      </trkpt>
      <trkpt lat="44.48592" lon="5.66037">
        <ele>1020.1</ele>
        <time>2015-12-03T08:55:24Z</time>
      </trkpt>
      <trkpt lat="44.48605" lon="5.66047">
        <ele>1021.54</ele>
        <time>2015-12-03T08:55:41Z</time>
      </trkpt>
      <trkpt lat="44.4861" lon="5.66052">
        <ele>1022.98</ele>
        <time>2015-12-03T08:55:54Z</time>
      </trkpt>
      <trkpt lat="44.48611" lon="5.66059">
        <ele>1024.9</ele>
        <time>2015-12-03T08:56:05Z</time>
      </trkpt>
      <trkpt lat="44.4861" lon="5.66065">
        <ele>1026.34</ele>
        <time>2015-12-03T08:56:15Z</time>
      </trkpt>
      <trkpt lat="44.48605" lon="5.66072">
        <ele>1028.75</ele>
        <time>2015-12-03T08:56:30Z</time>
      </trkpt>
      <trkpt lat="44.48601" lon="5.66077">
        <ele>1030.67</ele>
        <time>2015-12-03T08:56:42Z</time>
      </trkpt>
      <trkpt lat="44.48596" lon="5.66081">
        <ele>1032.11</ele>
        <time>2015-12-03T08:56:53Z</time>
      </trkpt>
      <trkpt lat="44.48596" lon="5.66079">
        <ele>1031.63</ele>
        <time>2015-12-03T08:57:07Z</time>
      </trkpt>
      <trkpt lat="44.48596" lon="5.66081">
        <ele>1031.63</ele>
        <time>2015-12-03T08:57:25Z</time>
      </trkpt>
      <trkpt lat="44.48594" lon="5.66081">
        <ele>1031.63</ele>
        <time>2015-12-03T08:57:42Z</time>
      </trkpt>
      <trkpt lat="44.48595" lon="5.66079">
        <ele>1031.63</ele>
        <time>2015-12-03T08:58:01Z</time>
      </trkpt>
      <trkpt lat="44.48597" lon="5.6608">
        <ele>1031.63</ele>
        <time>2015-12-03T08:58:32Z</time>
      </trkpt>
      <trkpt lat="44.48595" lon="5.6608">
        <ele>1031.63</ele>
        <time>2015-12-03T08:59:03Z</time>
      </trkpt>
      <trkpt lat="44.48595" lon="5.6608">
        <ele>1031.63</ele>
        <time>2015-12-03T08:59:28Z</time>
      </trkpt>
      <trkpt lat="44.48596" lon="5.6608">
        <ele>1031.63</ele>
        <time>2015-12-03T08:59:48Z</time>
      </trkpt>
      <trkpt lat="44.48595" lon="5.66082">
        <ele>1031.15</ele>
        <time>2015-12-03T09:00:06Z</time>
      </trkpt>
      <trkpt lat="44.48591" lon="5.66084">
        <ele>1031.63</ele>
        <time>2015-12-03T09:00:22Z</time>
      </trkpt>
      <trkpt lat="44.48588" lon="5.66085">
        <ele>1031.63</ele>
        <time>2015-12-03T09:00:25Z</time>
      </trkpt>
      <trkpt lat="44.48576" lon="5.66091">
        <ele>1032.59</ele>
        <time>2015-12-03T09:00:39Z</time>
      </trkpt>
      <trkpt lat="44.48563" lon="5.66096">
        <ele>1034.04</ele>
        <time>2015-12-03T09:00:53Z</time>
      </trkpt>
      <trkpt lat="44.48561" lon="5.66098">
        <ele>1034.04</ele>
        <time>2015-12-03T09:00:55Z</time>
      </trkpt>
      <trkpt lat="44.48558" lon="5.661">
        <ele>1034.52</ele>
        <time>2015-12-03T09:00:59Z</time>
      </trkpt>
      <trkpt lat="44.48544" lon="5.66104">
        <ele>1035.48</ele>
        <time>2015-12-03T09:01:14Z</time>
      </trkpt>
      <trkpt lat="44.4853" lon="5.66109">
        <ele>1036.92</ele>
        <time>2015-12-03T09:01:29Z</time>
      </trkpt>
      <trkpt lat="44.48515" lon="5.66113">
        <ele>1037.88</ele>
        <time>2015-12-03T09:01:44Z</time>
      </trkpt>
      <trkpt lat="44.48509" lon="5.66118">
        <ele>1038.84</ele>
        <time>2015-12-03T09:01:51Z</time>
      </trkpt>
      <trkpt lat="44.48505" lon="5.66133">
        <ele>1039.32</ele>
        <time>2015-12-03T09:02:02Z</time>
      </trkpt>
      <trkpt lat="44.48515" lon="5.66145">
        <ele>1040.28</ele>
        <time>2015-12-03T09:02:16Z</time>
      </trkpt>
      <trkpt lat="44.48517" lon="5.66145">
        <ele>1040.28</ele>
        <time>2015-12-03T09:02:18Z</time>
      </trkpt>
      <trkpt lat="44.48531" lon="5.66153">
        <ele>1041.73</ele>
        <time>2015-12-03T09:02:33Z</time>
      </trkpt>
      <trkpt lat="44.48547" lon="5.6616">
        <ele>1042.69</ele>
        <time>2015-12-03T09:02:49Z</time>
      </trkpt>
      <trkpt lat="44.48563" lon="5.66167">
        <ele>1044.61</ele>
        <time>2015-12-03T09:03:05Z</time>
      </trkpt>
      <trkpt lat="44.48564" lon="5.66167">
        <ele>1044.61</ele>
        <time>2015-12-03T09:03:06Z</time>
      </trkpt>
      <trkpt lat="44.48577" lon="5.66165">
        <ele>1046.05</ele>
        <time>2015-12-03T09:03:22Z</time>
      </trkpt>
      <trkpt lat="44.48591" lon="5.66162">
        <ele>1047.01</ele>
        <time>2015-12-03T09:03:37Z</time>
      </trkpt>
      <trkpt lat="44.48594" lon="5.66161">
        <ele>1047.49</ele>
        <time>2015-12-03T09:03:40Z</time>
      </trkpt>
      <trkpt lat="44.48597" lon="5.66162">
        <ele>1047.49</ele>
        <time>2015-12-03T09:03:44Z</time>
      </trkpt>
      <trkpt lat="44.48607" lon="5.66166">
        <ele>1048.94</ele>
        <time>2015-12-03T09:03:58Z</time>
      </trkpt>
      <trkpt lat="44.48609" lon="5.66166">
        <ele>1048.94</ele>
        <time>2015-12-03T09:04:00Z</time>
      </trkpt>
      <trkpt lat="44.48612" lon="5.66169">
        <ele>1049.42</ele>
        <time>2015-12-03T09:04:05Z</time>
      </trkpt>
      <trkpt lat="44.48614" lon="5.6617">
        <ele>1049.42</ele>
        <time>2015-12-03T09:04:07Z</time>
      </trkpt>
      <trkpt lat="44.4863" lon="5.66178">
        <ele>1050.86</ele>
        <time>2015-12-03T09:04:24Z</time>
      </trkpt>
      <trkpt lat="44.48642" lon="5.66181">
        <ele>1051.82</ele>
        <time>2015-12-03T09:04:38Z</time>
      </trkpt>
      <trkpt lat="44.48647" lon="5.66181">
        <ele>1052.3</ele>
        <time>2015-12-03T09:04:51Z</time>
      </trkpt>
      <trkpt lat="44.48647" lon="5.66181">
        <ele>1052.78</ele>
        <time>2015-12-03T09:05:02Z</time>
      </trkpt>
      <trkpt lat="44.48651" lon="5.66182">
        <ele>1052.78</ele>
        <time>2015-12-03T09:05:17Z</time>
      </trkpt>
      <trkpt lat="44.48655" lon="5.66182">
        <ele>1053.26</ele>
        <time>2015-12-03T09:05:32Z</time>
      </trkpt>
      <trkpt lat="44.48657" lon="5.66186">
        <ele>1053.26</ele>
        <time>2015-12-03T09:05:46Z</time>
      </trkpt>
      <trkpt lat="44.48655" lon="5.66191">
        <ele>1054.22</ele>
        <time>2015-12-03T09:06:01Z</time>
      </trkpt>
      <trkpt lat="44.48651" lon="5.66198">
        <ele>1056.63</ele>
        <time>2015-12-03T09:06:12Z</time>
      </trkpt>
      <trkpt lat="44.48645" lon="5.66207">
        <ele>1059.03</ele>
        <time>2015-12-03T09:06:24Z</time>
      </trkpt>
      <trkpt lat="44.48641" lon="5.66218">
        <ele>1060.47</ele>
        <time>2015-12-03T09:06:37Z</time>
      </trkpt>
      <trkpt lat="44.48644" lon="5.66224">
        <ele>1061.91</ele>
        <time>2015-12-03T09:06:49Z</time>
      </trkpt>
      <trkpt lat="44.48645" lon="5.66225">
        <ele>1063.36</ele>
        <time>2015-12-03T09:07:00Z</time>
      </trkpt>
      <trkpt lat="44.4865" lon="5.66227">
        <ele>1064.32</ele>
        <time>2015-12-03T09:07:13Z</time>
      </trkpt>
      <trkpt lat="44.48652" lon="5.66228">
        <ele>1065.76</ele>
        <time>2015-12-03T09:07:24Z</time>
      </trkpt>
      <trkpt lat="44.48657" lon="5.66231">
        <ele>1067.68</ele>
        <time>2015-12-03T09:07:38Z</time>
      </trkpt>
      <trkpt lat="44.4866" lon="5.66232">
        <ele>1068.64</ele>
        <time>2015-12-03T09:07:53Z</time>
      </trkpt>
      <trkpt lat="44.48664" lon="5.66232">
        <ele>1069.6</ele>
        <time>2015-12-03T09:08:05Z</time>
      </trkpt>
      <trkpt lat="44.48668" lon="5.66235">
        <ele>1072.01</ele>
        <time>2015-12-03T09:08:18Z</time>
      </trkpt>
      <trkpt lat="44.48673" lon="5.66241">
        <ele>1074.89</ele>
        <time>2015-12-03T09:08:34Z</time>
      </trkpt>
      <trkpt lat="44.48678" lon="5.66244">
        <ele>1077.29</ele>
        <time>2015-12-03T09:08:48Z</time>
      </trkpt>
      <trkpt lat="44.48681" lon="5.66248">
        <ele>1079.22</ele>
        <time>2015-12-03T09:09:01Z</time>
      </trkpt>
      <trkpt lat="44.48685" lon="5.66253">
        <ele>1081.14</ele>
        <time>2015-12-03T09:09:14Z</time>
      </trkpt>
      <trkpt lat="44.48691" lon="5.66256">
        <ele>1083.54</ele>
        <time>2015-12-03T09:09:28Z</time>
      </trkpt>
      <trkpt lat="44.48696" lon="5.66259">
        <ele>1085.95</ele>
        <time>2015-12-03T09:09:42Z</time>
      </trkpt>
      <trkpt lat="44.48701" lon="5.66263">
        <ele>1087.39</ele>
        <time>2015-12-03T09:09:54Z</time>
      </trkpt>
      <trkpt lat="44.48705" lon="5.66272">
        <ele>1090.27</ele>
        <time>2015-12-03T09:10:09Z</time>
      </trkpt>
      <trkpt lat="44.48706" lon="5.6628">
        <ele>1092.68</ele>
        <time>2015-12-03T09:10:23Z</time>
      </trkpt>
      <trkpt lat="44.48706" lon="5.66284">
        <ele>1093.64</ele>
        <time>2015-12-03T09:10:34Z</time>
      </trkpt>
      <trkpt lat="44.48707" lon="5.6629">
        <ele>1095.08</ele>
        <time>2015-12-03T09:10:46Z</time>
      </trkpt>
      <trkpt lat="44.4871" lon="5.66294">
        <ele>1096.52</ele>
        <time>2015-12-03T09:10:57Z</time>
      </trkpt>
      <trkpt lat="44.48713" lon="5.66299">
        <ele>1098.92</ele>
        <time>2015-12-03T09:11:11Z</time>
      </trkpt>
      <trkpt lat="44.48716" lon="5.66303">
        <ele>1100.37</ele>
        <time>2015-12-03T09:11:22Z</time>
      </trkpt>
      <trkpt lat="44.4872" lon="5.66308">
        <ele>1102.29</ele>
        <time>2015-12-03T09:11:35Z</time>
      </trkpt>
      <trkpt lat="44.48724" lon="5.66313">
        <ele>1104.69</ele>
        <time>2015-12-03T09:11:50Z</time>
      </trkpt>
      <trkpt lat="44.4873" lon="5.66319">
        <ele>1107.1</ele>
        <time>2015-12-03T09:12:05Z</time>
      </trkpt>
      <trkpt lat="44.48735" lon="5.66322">
        <ele>1109.02</ele>
        <time>2015-12-03T09:12:17Z</time>
      </trkpt>
      <trkpt lat="44.4874" lon="5.66326">
        <ele>1111.42</ele>
        <time>2015-12-03T09:12:29Z</time>
      </trkpt>
      <trkpt lat="44.48748" lon="5.6633">
        <ele>1113.82</ele>
        <time>2015-12-03T09:12:45Z</time>
      </trkpt>
      <trkpt lat="44.48754" lon="5.66331">
        <ele>1115.27</ele>
        <time>2015-12-03T09:12:56Z</time>
      </trkpt>
      <trkpt lat="44.48762" lon="5.66331">
        <ele>1118.15</ele>
        <time>2015-12-03T09:13:10Z</time>
      </trkpt>
      <trkpt lat="44.48772" lon="5.66334">
        <ele>1120.55</ele>
        <time>2015-12-03T09:13:25Z</time>
      </trkpt>
      <trkpt lat="44.4878" lon="5.66337">
        <ele>1123.44</ele>
        <time>2015-12-03T09:13:40Z</time>
      </trkpt>
      <trkpt lat="44.48787" lon="5.6634">
        <ele>1125.84</ele>
        <time>2015-12-03T09:13:53Z</time>
      </trkpt>
      <trkpt lat="44.48794" lon="5.66344">
        <ele>1127.76</ele>
        <time>2015-12-03T09:14:06Z</time>
      </trkpt>
      <trkpt lat="44.48798" lon="5.66347">
        <ele>1129.69</ele>
        <time>2015-12-03T09:14:18Z</time>
      </trkpt>
      <trkpt lat="44.48802" lon="5.66352">
        <ele>1132.09</ele>
        <time>2015-12-03T09:14:33Z</time>
      </trkpt>
      <trkpt lat="44.4881" lon="5.66356">
        <ele>1134.49</ele>
        <time>2015-12-03T09:14:47Z</time>
      </trkpt>
      <trkpt lat="44.48821" lon="5.6636">
        <ele>1137.38</ele>
        <time>2015-12-03T09:15:04Z</time>
      </trkpt>
      <trkpt lat="44.48831" lon="5.66366">
        <ele>1139.78</ele>
        <time>2015-12-03T09:15:20Z</time>
      </trkpt>
      <trkpt lat="44.48841" lon="5.66368">
        <ele>1141.7</ele>
        <time>2015-12-03T09:15:33Z</time>
      </trkpt>
      <trkpt lat="44.48851" lon="5.66375">
        <ele>1143.14</ele>
        <time>2015-12-03T09:15:46Z</time>
      </trkpt>
      <trkpt lat="44.48859" lon="5.66387">
        <ele>1144.59</ele>
        <time>2015-12-03T09:16:01Z</time>
      </trkpt>
      <trkpt lat="44.48868" lon="5.66395">
        <ele>1146.03</ele>
        <time>2015-12-03T09:16:15Z</time>
      </trkpt>
      <trkpt lat="44.48868" lon="5.66396">
        <ele>1144.59</ele>
        <time>2015-12-03T09:16:27Z</time>
      </trkpt>
      <trkpt lat="44.48868" lon="5.66399">
        <ele>1144.59</ele>
        <time>2015-12-03T09:17:00Z</time>
      </trkpt>
      <trkpt lat="44.48867" lon="5.66399">
        <ele>1144.59</ele>
        <time>2015-12-03T09:17:29Z</time>
      </trkpt>
      <trkpt lat="44.48868" lon="5.66397">
        <ele>1145.07</ele>
        <time>2015-12-03T09:17:49Z</time>
      </trkpt>
      <trkpt lat="44.48867" lon="5.66394">
        <ele>1144.59</ele>
        <time>2015-12-03T09:18:03Z</time>
      </trkpt>
      <trkpt lat="44.48866" lon="5.66394">
        <ele>1144.59</ele>
        <time>2015-12-03T09:18:28Z</time>
      </trkpt>
      <trkpt lat="44.48869" lon="5.66396">
        <ele>1146.03</ele>
        <time>2015-12-03T09:18:38Z</time>
      </trkpt>
      <trkpt lat="44.4887" lon="5.66394">
        <ele>1146.03</ele>
        <time>2015-12-03T09:19:09Z</time>
      </trkpt>
      <trkpt lat="44.48871" lon="5.66395">
        <ele>1145.55</ele>
        <time>2015-12-03T09:19:23Z</time>
      </trkpt>
      <trkpt lat="44.48883" lon="5.66405">
        <ele>1146.99</ele>
        <time>2015-12-03T09:19:37Z</time>
      </trkpt>
      <trkpt lat="44.48893" lon="5.66412">
        <ele>1148.43</ele>
        <time>2015-12-03T09:19:51Z</time>
      </trkpt>
      <trkpt lat="44.48902" lon="5.66415">
        <ele>1150.35</ele>
        <time>2015-12-03T09:20:06Z</time>
      </trkpt>
      <trkpt lat="44.4891" lon="5.6642">
        <ele>1152.28</ele>
        <time>2015-12-03T09:20:18Z</time>
      </trkpt>
      <trkpt lat="44.48919" lon="5.6643">
        <ele>1154.68</ele>
        <time>2015-12-03T09:20:35Z</time>
      </trkpt>
      <trkpt lat="44.48926" lon="5.66435">
        <ele>1156.6</ele>
        <time>2015-12-03T09:20:49Z</time>
      </trkpt>
      <trkpt lat="44.48933" lon="5.66442">
        <ele>1159.01</ele>
        <time>2015-12-03T09:21:02Z</time>
      </trkpt>
      <trkpt lat="44.48943" lon="5.66445">
        <ele>1160.93</ele>
        <time>2015-12-03T09:21:16Z</time>
      </trkpt>
      <trkpt lat="44.48955" lon="5.66457">
        <ele>1161.41</ele>
        <time>2015-12-03T09:21:32Z</time>
      </trkpt>
      <trkpt lat="44.48964" lon="5.66456">
        <ele>1162.37</ele>
        <time>2015-12-03T09:21:43Z</time>
      </trkpt>
      <trkpt lat="44.48979" lon="5.66453">
        <ele>1163.33</ele>
        <time>2015-12-03T09:22:00Z</time>
      </trkpt>
      <trkpt lat="44.48994" lon="5.6645">
        <ele>1163.81</ele>
        <time>2015-12-03T09:22:15Z</time>
      </trkpt>
      <trkpt lat="44.49006" lon="5.66447">
        <ele>1164.77</ele>
        <time>2015-12-03T09:22:27Z</time>
      </trkpt>
      <trkpt lat="44.49018" lon="5.66443">
        <ele>1165.26</ele>
        <time>2015-12-03T09:22:41Z</time>
      </trkpt>
      <trkpt lat="44.4902" lon="5.66442">
        <ele>1165.26</ele>
        <time>2015-12-03T09:22:44Z</time>
      </trkpt>
      <trkpt lat="44.49025" lon="5.66438">
        <ele>1165.74</ele>
        <time>2015-12-03T09:22:50Z</time>
      </trkpt>
      <trkpt lat="44.49027" lon="5.66437">
        <ele>1165.74</ele>
        <time>2015-12-03T09:22:52Z</time>
      </trkpt>
      <trkpt lat="44.49029" lon="5.66436">
        <ele>1165.74</ele>
        <time>2015-12-03T09:22:54Z</time>
      </trkpt>
      <trkpt lat="44.49031" lon="5.66435">
        <ele>1166.22</ele>
        <time>2015-12-03T09:22:56Z</time>
      </trkpt>
      <trkpt lat="44.49045" lon="5.66423">
        <ele>1167.18</ele>
        <time>2015-12-03T09:23:14Z</time>
      </trkpt>
      <trkpt lat="44.49061" lon="5.66414">
        <ele>1168.14</ele>
        <time>2015-12-03T09:23:32Z</time>
      </trkpt>
      <trkpt lat="44.49076" lon="5.66407">
        <ele>1168.62</ele>
        <time>2015-12-03T09:23:48Z</time>
      </trkpt>
      <trkpt lat="44.49083" lon="5.66401">
        <ele>1169.58</ele>
        <time>2015-12-03T09:23:57Z</time>
      </trkpt>
      <trkpt lat="44.49089" lon="5.66393">
        <ele>1170.06</ele>
        <time>2015-12-03T09:24:05Z</time>
      </trkpt>
      <trkpt lat="44.49099" lon="5.66375">
        <ele>1170.54</ele>
        <time>2015-12-03T09:24:21Z</time>
      </trkpt>
      <trkpt lat="44.49105" lon="5.66367">
        <ele>1171.02</ele>
        <time>2015-12-03T09:24:29Z</time>
      </trkpt>
      <trkpt lat="44.49107" lon="5.66366">
        <ele>1171.02</ele>
        <time>2015-12-03T09:24:31Z</time>
      </trkpt>
      <trkpt lat="44.49111" lon="5.66361">
        <ele>1171.5</ele>
        <time>2015-12-03T09:24:36Z</time>
      </trkpt>
      <trkpt lat="44.49125" lon="5.6635">
        <ele>1172.47</ele>
        <time>2015-12-03T09:24:51Z</time>
      </trkpt>
      <trkpt lat="44.49138" lon="5.66344">
        <ele>1173.43</ele>
        <time>2015-12-03T09:25:06Z</time>
      </trkpt>
      <trkpt lat="44.49144" lon="5.66342">
        <ele>1173.91</ele>
        <time>2015-12-03T09:25:12Z</time>
      </trkpt>
      <trkpt lat="44.49153" lon="5.66344">
        <ele>1174.87</ele>
        <time>2015-12-03T09:25:20Z</time>
      </trkpt>
      <trkpt lat="44.4916" lon="5.66349">
        <ele>1175.35</ele>
        <time>2015-12-03T09:25:27Z</time>
      </trkpt>
      <trkpt lat="44.49172" lon="5.66353">
        <ele>1175.83</ele>
        <time>2015-12-03T09:25:38Z</time>
      </trkpt>
      <trkpt lat="44.49179" lon="5.66351">
        <ele>1176.31</ele>
        <time>2015-12-03T09:25:45Z</time>
      </trkpt>
      <trkpt lat="44.49188" lon="5.66345">
        <ele>1177.27</ele>
        <time>2015-12-03T09:25:54Z</time>
      </trkpt>
      <trkpt lat="44.49194" lon="5.6634">
        <ele>1177.75</ele>
        <time>2015-12-03T09:26:01Z</time>
      </trkpt>
      <trkpt lat="44.49199" lon="5.66336">
        <ele>1178.23</ele>
        <time>2015-12-03T09:26:07Z</time>
      </trkpt>
      <trkpt lat="44.49204" lon="5.66333">
        <ele>1178.23</ele>
        <time>2015-12-03T09:26:12Z</time>
      </trkpt>
      <trkpt lat="44.49211" lon="5.6633">
        <ele>1179.19</ele>
        <time>2015-12-03T09:26:20Z</time>
      </trkpt>
      <trkpt lat="44.49213" lon="5.66329">
        <ele>1179.19</ele>
        <time>2015-12-03T09:26:22Z</time>
      </trkpt>
      <trkpt lat="44.49229" lon="5.66326">
        <ele>1180.64</ele>
        <time>2015-12-03T09:26:38Z</time>
      </trkpt>
      <trkpt lat="44.4923" lon="5.66325">
        <ele>1180.64</ele>
        <time>2015-12-03T09:26:39Z</time>
      </trkpt>
      <trkpt lat="44.49233" lon="5.66326">
        <ele>1180.64</ele>
        <time>2015-12-03T09:26:41Z</time>
      </trkpt>
      <trkpt lat="44.49238" lon="5.66326">
        <ele>1181.12</ele>
        <time>2015-12-03T09:26:46Z</time>
      </trkpt>
      <trkpt lat="44.4924" lon="5.66325">
        <ele>1181.12</ele>
        <time>2015-12-03T09:26:48Z</time>
      </trkpt>
      <trkpt lat="44.49243" lon="5.66326">
        <ele>1181.12</ele>
        <time>2015-12-03T09:26:50Z</time>
      </trkpt>
      <trkpt lat="44.49257" lon="5.66325">
        <ele>1181.6</ele>
        <time>2015-12-03T09:27:05Z</time>
      </trkpt>
      <trkpt lat="44.49266" lon="5.66327">
        <ele>1182.56</ele>
        <time>2015-12-03T09:27:20Z</time>
      </trkpt>
      <trkpt lat="44.49267" lon="5.66329">
        <ele>1182.56</ele>
        <time>2015-12-03T09:27:25Z</time>
      </trkpt>
      <trkpt lat="44.49269" lon="5.66339">
        <ele>1184.48</ele>
        <time>2015-12-03T09:27:37Z</time>
      </trkpt>
      <trkpt lat="44.4927" lon="5.66347">
        <ele>1186.4</ele>
        <time>2015-12-03T09:27:49Z</time>
      </trkpt>
      <trkpt lat="44.49273" lon="5.66349">
        <ele>1188.33</ele>
        <time>2015-12-03T09:28:02Z</time>
      </trkpt>
      <trkpt lat="44.49277" lon="5.66351">
        <ele>1190.73</ele>
        <time>2015-12-03T09:28:15Z</time>
      </trkpt>
      <trkpt lat="44.49278" lon="5.66349">
        <ele>1191.21</ele>
        <time>2015-12-03T09:28:32Z</time>
      </trkpt>
      <trkpt lat="44.4928" lon="5.66355">
        <ele>1193.13</ele>
        <time>2015-12-03T09:28:49Z</time>
      </trkpt>
      <trkpt lat="44.49278" lon="5.66355">
        <ele>1193.61</ele>
        <time>2015-12-03T09:29:11Z</time>
      </trkpt>
      <trkpt lat="44.4928" lon="5.66362">
        <ele>1195.54</ele>
        <time>2015-12-03T09:29:27Z</time>
      </trkpt>
      <trkpt lat="44.49285" lon="5.66363">
        <ele>1197.94</ele>
        <time>2015-12-03T09:29:43Z</time>
      </trkpt>
      <trkpt lat="44.49286" lon="5.66366">
        <ele>1197.94</ele>
        <time>2015-12-03T09:30:04Z</time>
      </trkpt>
      <trkpt lat="44.49284" lon="5.66363">
        <ele>1197.94</ele>
        <time>2015-12-03T09:30:29Z</time>
      </trkpt>
      <trkpt lat="44.49285" lon="5.66365">
        <ele>1198.42</ele>
        <time>2015-12-03T09:30:47Z</time>
      </trkpt>
      <trkpt lat="44.49289" lon="5.66367">
        <ele>1199.86</ele>
        <time>2015-12-03T09:31:01Z</time>
      </trkpt>
      <trkpt lat="44.49289" lon="5.66366">
        <ele>1200.34</ele>
        <time>2015-12-03T09:31:14Z</time>
      </trkpt>
      <trkpt lat="44.49291" lon="5.6637">
        <ele>1201.3</ele>
        <time>2015-12-03T09:31:32Z</time>
      </trkpt>
      <trkpt lat="44.4929" lon="5.66371">
        <ele>1201.79</ele>
        <time>2015-12-03T09:31:45Z</time>
      </trkpt>
      <trkpt lat="44.49285" lon="5.66365">
        <ele>1201.79</ele>
        <time>2015-12-03T09:32:16Z</time>
      </trkpt>
      <trkpt lat="44.49287" lon="5.66365">
        <ele>1201.79</ele>
        <time>2015-12-03T09:32:46Z</time>
      </trkpt>
      <trkpt lat="44.49288" lon="5.66366">
        <ele>1201.79</ele>
        <time>2015-12-03T09:33:15Z</time>
      </trkpt>
      <trkpt lat="44.49291" lon="5.66369">
        <ele>1202.27</ele>
        <time>2015-12-03T09:33:36Z</time>
      </trkpt>
      <trkpt lat="44.49291" lon="5.66366">
        <ele>1202.75</ele>
        <time>2015-12-03T09:34:03Z</time>
      </trkpt>
      <trkpt lat="44.49296" lon="5.66378">
        <ele>1204.67</ele>
        <time>2015-12-03T09:34:20Z</time>
      </trkpt>
      <trkpt lat="44.49298" lon="5.66382">
        <ele>1207.55</ele>
        <time>2015-12-03T09:34:35Z</time>
      </trkpt>
      <trkpt lat="44.49299" lon="5.66385">
        <ele>1208.03</ele>
        <time>2015-12-03T09:34:51Z</time>
      </trkpt>
      <trkpt lat="44.49303" lon="5.66387">
        <ele>1211.4</ele>
        <time>2015-12-03T09:35:05Z</time>
      </trkpt>
      <trkpt lat="44.49306" lon="5.66391">
        <ele>1213.32</ele>
        <time>2015-12-03T09:35:21Z</time>
      </trkpt>
      <trkpt lat="44.4931" lon="5.66399">
        <ele>1216.21</ele>
        <time>2015-12-03T09:35:36Z</time>
      </trkpt>
      <trkpt lat="44.4931" lon="5.66409">
        <ele>1219.09</ele>
        <time>2015-12-03T09:35:53Z</time>
      </trkpt>
      <trkpt lat="44.49307" lon="5.66417">
        <ele>1220.53</ele>
        <time>2015-12-03T09:36:07Z</time>
      </trkpt>
      <trkpt lat="44.49305" lon="5.66428">
        <ele>1222.45</ele>
        <time>2015-12-03T09:36:27Z</time>
      </trkpt>
      <trkpt lat="44.49301" lon="5.66439">
        <ele>1224.86</ele>
        <time>2015-12-03T09:36:45Z</time>
      </trkpt>
      <trkpt lat="44.49298" lon="5.6645">
        <ele>1227.74</ele>
        <time>2015-12-03T09:37:06Z</time>
      </trkpt>
      <trkpt lat="44.49298" lon="5.66458">
        <ele>1230.14</ele>
        <time>2015-12-03T09:37:23Z</time>
      </trkpt>
      <trkpt lat="44.49298" lon="5.66467">
        <ele>1233.03</ele>
        <time>2015-12-03T09:37:39Z</time>
      </trkpt>
      <trkpt lat="44.49297" lon="5.66477">
        <ele>1235.91</ele>
        <time>2015-12-03T09:37:57Z</time>
      </trkpt>
      <trkpt lat="44.49295" lon="5.66484">
        <ele>1237.83</ele>
        <time>2015-12-03T09:38:11Z</time>
      </trkpt>
      <trkpt lat="44.49286" lon="5.66496">
        <ele>1238.8</ele>
        <time>2015-12-03T09:38:26Z</time>
      </trkpt>
      <trkpt lat="44.49283" lon="5.66507">
        <ele>1240.24</ele>
        <time>2015-12-03T09:38:43Z</time>
      </trkpt>
      <trkpt lat="44.49287" lon="5.66511">
        <ele>1241.68</ele>
        <time>2015-12-03T09:38:58Z</time>
      </trkpt>
      <trkpt lat="44.49297" lon="5.66513">
        <ele>1243.12</ele>
        <time>2015-12-03T09:39:14Z</time>
      </trkpt>
      <trkpt lat="44.49305" lon="5.66513">
        <ele>1244.56</ele>
        <time>2015-12-03T09:39:23Z</time>
      </trkpt>
      <trkpt lat="44.49307" lon="5.66514">
        <ele>1244.56</ele>
        <time>2015-12-03T09:39:25Z</time>
      </trkpt>
      <trkpt lat="44.49316" lon="5.66517">
        <ele>1245.53</ele>
        <time>2015-12-03T09:39:36Z</time>
      </trkpt>
      <trkpt lat="44.49318" lon="5.66518">
        <ele>1245.53</ele>
        <time>2015-12-03T09:39:38Z</time>
      </trkpt>
      <trkpt lat="44.49325" lon="5.66522">
        <ele>1246.49</ele>
        <time>2015-12-03T09:39:45Z</time>
      </trkpt>
      <trkpt lat="44.4934" lon="5.6653">
        <ele>1246.97</ele>
        <time>2015-12-03T09:40:00Z</time>
      </trkpt>
      <trkpt lat="44.49354" lon="5.66536">
        <ele>1247.93</ele>
        <time>2015-12-03T09:40:15Z</time>
      </trkpt>
      <trkpt lat="44.49363" lon="5.66539">
        <ele>1248.89</ele>
        <time>2015-12-03T09:40:24Z</time>
      </trkpt>
      <trkpt lat="44.49365" lon="5.66538">
        <ele>1248.89</ele>
        <time>2015-12-03T09:40:26Z</time>
      </trkpt>
      <trkpt lat="44.49379" lon="5.66546">
        <ele>1249.85</ele>
        <time>2015-12-03T09:40:42Z</time>
      </trkpt>
      <trkpt lat="44.49392" lon="5.6655">
        <ele>1251.29</ele>
        <time>2015-12-03T09:40:55Z</time>
      </trkpt>
      <trkpt lat="44.49393" lon="5.6655">
        <ele>1251.29</ele>
        <time>2015-12-03T09:40:56Z</time>
      </trkpt>
      <trkpt lat="44.49407" lon="5.66554">
        <ele>1252.25</ele>
        <time>2015-12-03T09:41:11Z</time>
      </trkpt>
      <trkpt lat="44.49408" lon="5.66554">
        <ele>1252.25</ele>
        <time>2015-12-03T09:41:14Z</time>
      </trkpt>
      <trkpt lat="44.4941" lon="5.66554">
        <ele>1252.74</ele>
        <time>2015-12-03T09:41:16Z</time>
      </trkpt>
      <trkpt lat="44.4942" lon="5.66553">
        <ele>1253.7</ele>
        <time>2015-12-03T09:41:28Z</time>
      </trkpt>
      <trkpt lat="44.49428" lon="5.66554">
        <ele>1254.66</ele>
        <time>2015-12-03T09:41:37Z</time>
      </trkpt>
      <trkpt lat="44.4944" lon="5.66553">
        <ele>1255.62</ele>
        <time>2015-12-03T09:41:51Z</time>
      </trkpt>
      <trkpt lat="44.49443" lon="5.66554">
        <ele>1255.62</ele>
        <time>2015-12-03T09:41:54Z</time>
      </trkpt>
      <trkpt lat="44.49457" lon="5.66556">
        <ele>1256.58</ele>
        <time>2015-12-03T09:42:09Z</time>
      </trkpt>
      <trkpt lat="44.49462" lon="5.66557">
        <ele>1257.06</ele>
        <time>2015-12-03T09:42:15Z</time>
      </trkpt>
      <trkpt lat="44.49464" lon="5.66558">
        <ele>1257.06</ele>
        <time>2015-12-03T09:42:17Z</time>
      </trkpt>
      <trkpt lat="44.49476" lon="5.66559">
        <ele>1258.02</ele>
        <time>2015-12-03T09:42:31Z</time>
      </trkpt>
      <trkpt lat="44.49489" lon="5.6656">
        <ele>1258.98</ele>
        <time>2015-12-03T09:42:48Z</time>
      </trkpt>
      <trkpt lat="44.495" lon="5.66562">
        <ele>1259.94</ele>
        <time>2015-12-03T09:43:01Z</time>
      </trkpt>
      <trkpt lat="44.49512" lon="5.66569">
        <ele>1260.91</ele>
        <time>2015-12-03T09:43:16Z</time>
      </trkpt>
      <trkpt lat="44.49518" lon="5.66574">
        <ele>1261.39</ele>
        <time>2015-12-03T09:43:30Z</time>
      </trkpt>
      <trkpt lat="44.49518" lon="5.66576">
        <ele>1261.39</ele>
        <time>2015-12-03T09:43:49Z</time>
      </trkpt>
      <trkpt lat="44.49518" lon="5.66577">
        <ele>1261.39</ele>
        <time>2015-12-03T09:44:16Z</time>
      </trkpt>
      <trkpt lat="44.49517" lon="5.66575">
        <ele>1261.39</ele>
        <time>2015-12-03T09:44:43Z</time>
      </trkpt>
      <trkpt lat="44.49519" lon="5.66576">
        <ele>1261.39</ele>
        <time>2015-12-03T09:44:56Z</time>
      </trkpt>
      <trkpt lat="44.49518" lon="5.66575">
        <ele>1261.39</ele>
        <time>2015-12-03T09:45:21Z</time>
      </trkpt>
      <trkpt lat="44.49519" lon="5.66573">
        <ele>1261.39</ele>
        <time>2015-12-03T09:45:46Z</time>
      </trkpt>
      <trkpt lat="44.4952" lon="5.66575">
        <ele>1261.39</ele>
        <time>2015-12-03T09:46:08Z</time>
      </trkpt>
      <trkpt lat="44.49521" lon="5.66578">
        <ele>1261.39</ele>
        <time>2015-12-03T09:46:24Z</time>
      </trkpt>
      <trkpt lat="44.49529" lon="5.66588">
        <ele>1262.83</ele>
        <time>2015-12-03T09:46:37Z</time>
      </trkpt>
      <trkpt lat="44.49536" lon="5.66601">
        <ele>1264.27</ele>
        <time>2015-12-03T09:46:51Z</time>
      </trkpt>
      <trkpt lat="44.49544" lon="5.66614">
        <ele>1265.71</ele>
        <time>2015-12-03T09:47:06Z</time>
      </trkpt>
      <trkpt lat="44.49551" lon="5.66624">
        <ele>1267.16</ele>
        <time>2015-12-03T09:47:23Z</time>
      </trkpt>
      <trkpt lat="44.49556" lon="5.66636">
        <ele>1268.6</ele>
        <time>2015-12-03T09:47:37Z</time>
      </trkpt>
      <trkpt lat="44.49563" lon="5.66645">
        <ele>1270.04</ele>
        <time>2015-12-03T09:47:50Z</time>
      </trkpt>
      <trkpt lat="44.49569" lon="5.66657">
        <ele>1271.48</ele>
        <time>2015-12-03T09:48:05Z</time>
      </trkpt>
      <trkpt lat="44.49576" lon="5.66668">
        <ele>1272.44</ele>
        <time>2015-12-03T09:48:19Z</time>
      </trkpt>
      <trkpt lat="44.49583" lon="5.66673">
        <ele>1273.4</ele>
        <time>2015-12-03T09:48:32Z</time>
      </trkpt>
      <trkpt lat="44.49584" lon="5.66673">
        <ele>1273.4</ele>
        <time>2015-12-03T09:48:34Z</time>
      </trkpt>
      <trkpt lat="44.4959" lon="5.66673">
        <ele>1273.88</ele>
        <time>2015-12-03T09:48:41Z</time>
      </trkpt>
      <trkpt lat="44.49594" lon="5.6667">
        <ele>1274.36</ele>
        <time>2015-12-03T09:48:46Z</time>
      </trkpt>
      <trkpt lat="44.49603" lon="5.66664">
        <ele>1275.33</ele>
        <time>2015-12-03T09:48:58Z</time>
      </trkpt>
      <trkpt lat="44.49604" lon="5.66662">
        <ele>1276.29</ele>
        <time>2015-12-03T09:49:00Z</time>
      </trkpt>
      <trkpt lat="44.49608" lon="5.6666">
        <ele>1275.33</ele>
        <time>2015-12-03T09:49:05Z</time>
      </trkpt>
      <trkpt lat="44.49622" lon="5.66647">
        <ele>1276.29</ele>
        <time>2015-12-03T09:49:21Z</time>
      </trkpt>
      <trkpt lat="44.49632" lon="5.66634">
        <ele>1276.77</ele>
        <time>2015-12-03T09:49:34Z</time>
      </trkpt>
      <trkpt lat="44.49641" lon="5.66621">
        <ele>1277.73</ele>
        <time>2015-12-03T09:49:48Z</time>
      </trkpt>
      <trkpt lat="44.49652" lon="5.66612">
        <ele>1278.21</ele>
        <time>2015-12-03T09:50:03Z</time>
      </trkpt>
      <trkpt lat="44.49662" lon="5.66605">
        <ele>1278.69</ele>
        <time>2015-12-03T09:50:17Z</time>
      </trkpt>
      <trkpt lat="44.49668" lon="5.66599">
        <ele>1279.17</ele>
        <time>2015-12-03T09:50:26Z</time>
      </trkpt>
      <trkpt lat="44.49679" lon="5.6659">
        <ele>1280.13</ele>
        <time>2015-12-03T09:50:40Z</time>
      </trkpt>
      <trkpt lat="44.49687" lon="5.66581">
        <ele>1281.09</ele>
        <time>2015-12-03T09:50:53Z</time>
      </trkpt>
      <trkpt lat="44.49695" lon="5.66577">
        <ele>1281.57</ele>
        <time>2015-12-03T09:51:04Z</time>
      </trkpt>
      <trkpt lat="44.49703" lon="5.66568">
        <ele>1282.54</ele>
        <time>2015-12-03T09:51:16Z</time>
      </trkpt>
      <trkpt lat="44.49713" lon="5.66562">
        <ele>1283.02</ele>
        <time>2015-12-03T09:51:29Z</time>
      </trkpt>
      <trkpt lat="44.49719" lon="5.66561">
        <ele>1283.5</ele>
        <time>2015-12-03T09:51:36Z</time>
      </trkpt>
      <trkpt lat="44.49729" lon="5.66556">
        <ele>1284.94</ele>
        <time>2015-12-03T09:51:49Z</time>
      </trkpt>
      <trkpt lat="44.49737" lon="5.66549">
        <ele>1286.38</ele>
        <time>2015-12-03T09:52:03Z</time>
      </trkpt>
      <trkpt lat="44.49745" lon="5.66544">
        <ele>1286.86</ele>
        <time>2015-12-03T09:52:12Z</time>
      </trkpt>
      <trkpt lat="44.49752" lon="5.6654">
        <ele>1287.82</ele>
        <time>2015-12-03T09:52:23Z</time>
      </trkpt>
      <trkpt lat="44.4976" lon="5.66534">
        <ele>1289.27</ele>
        <time>2015-12-03T09:52:36Z</time>
      </trkpt>
      <trkpt lat="44.49768" lon="5.6653">
        <ele>1290.23</ele>
        <time>2015-12-03T09:52:49Z</time>
      </trkpt>
      <trkpt lat="44.49774" lon="5.66535">
        <ele>1291.67</ele>
        <time>2015-12-03T09:53:04Z</time>
      </trkpt>
      <trkpt lat="44.49773" lon="5.66538">
        <ele>1291.67</ele>
        <time>2015-12-03T09:53:19Z</time>
      </trkpt>
      <trkpt lat="44.49772" lon="5.6654">
        <ele>1291.67</ele>
        <time>2015-12-03T09:53:35Z</time>
      </trkpt>
      <trkpt lat="44.49772" lon="5.66539">
        <ele>1291.67</ele>
        <time>2015-12-03T09:53:53Z</time>
      </trkpt>
      <trkpt lat="44.4977" lon="5.66541">
        <ele>1291.67</ele>
        <time>2015-12-03T09:54:08Z</time>
      </trkpt>
      <trkpt lat="44.49767" lon="5.6655">
        <ele>1292.63</ele>
        <time>2015-12-03T09:54:15Z</time>
      </trkpt>
      <trkpt lat="44.49753" lon="5.66567">
        <ele>1293.11</ele>
        <time>2015-12-03T09:54:33Z</time>
      </trkpt>
      <trkpt lat="44.49741" lon="5.66577">
        <ele>1293.59</ele>
        <time>2015-12-03T09:54:48Z</time>
      </trkpt>
      <trkpt lat="44.49737" lon="5.6658">
        <ele>1293.59</ele>
        <time>2015-12-03T09:54:53Z</time>
      </trkpt>
      <trkpt lat="44.49735" lon="5.66582">
        <ele>1293.59</ele>
        <time>2015-12-03T09:54:56Z</time>
      </trkpt>
      <trkpt lat="44.49728" lon="5.66592">
        <ele>1294.07</ele>
        <time>2015-12-03T09:55:06Z</time>
      </trkpt>
      <trkpt lat="44.49725" lon="5.66598">
        <ele>1294.07</ele>
        <time>2015-12-03T09:55:11Z</time>
      </trkpt>
      <trkpt lat="44.49723" lon="5.666">
        <ele>1294.07</ele>
        <time>2015-12-03T09:55:13Z</time>
      </trkpt>
      <trkpt lat="44.49719" lon="5.66602">
        <ele>1294.07</ele>
        <time>2015-12-03T09:55:17Z</time>
      </trkpt>
      <trkpt lat="44.49717" lon="5.66605">
        <ele>1294.55</ele>
        <time>2015-12-03T09:55:20Z</time>
      </trkpt>
      <trkpt lat="44.49713" lon="5.66609">
        <ele>1294.55</ele>
        <time>2015-12-03T09:55:25Z</time>
      </trkpt>
      <trkpt lat="44.49708" lon="5.66618">
        <ele>1295.03</ele>
        <time>2015-12-03T09:55:33Z</time>
      </trkpt>
      <trkpt lat="44.49703" lon="5.66623">
        <ele>1295.03</ele>
        <time>2015-12-03T09:55:39Z</time>
      </trkpt>
      <trkpt lat="44.497" lon="5.66627">
        <ele>1295.51</ele>
        <time>2015-12-03T09:55:43Z</time>
      </trkpt>
      <trkpt lat="44.49698" lon="5.6663">
        <ele>1295.51</ele>
        <time>2015-12-03T09:55:46Z</time>
      </trkpt>
      <trkpt lat="44.49686" lon="5.66644">
        <ele>1296.48</ele>
        <time>2015-12-03T09:56:03Z</time>
      </trkpt>
      <trkpt lat="44.49678" lon="5.66657">
        <ele>1297.44</ele>
        <time>2015-12-03T09:56:19Z</time>
      </trkpt>
      <trkpt lat="44.49673" lon="5.66668">
        <ele>1298.88</ele>
        <time>2015-12-03T09:56:32Z</time>
      </trkpt>
      <trkpt lat="44.49663" lon="5.66685">
        <ele>1299.84</ele>
        <time>2015-12-03T09:56:50Z</time>
      </trkpt>
      <trkpt lat="44.49657" lon="5.66698">
        <ele>1302.72</ele>
        <time>2015-12-03T09:57:04Z</time>
      </trkpt>
      <trkpt lat="44.49656" lon="5.66701">
        <ele>1301.76</ele>
        <time>2015-12-03T09:57:08Z</time>
      </trkpt>
      <trkpt lat="44.49652" lon="5.66712">
        <ele>1302.72</ele>
        <time>2015-12-03T09:57:20Z</time>
      </trkpt>
      <trkpt lat="44.4965" lon="5.66726">
        <ele>1303.69</ele>
        <time>2015-12-03T09:57:34Z</time>
      </trkpt>
      <trkpt lat="44.49645" lon="5.66738">
        <ele>1304.65</ele>
        <time>2015-12-03T09:57:48Z</time>
      </trkpt>
      <trkpt lat="44.49637" lon="5.66746">
        <ele>1305.61</ele>
        <time>2015-12-03T09:58:01Z</time>
      </trkpt>
      <trkpt lat="44.49628" lon="5.66756">
        <ele>1306.57</ele>
        <time>2015-12-03T09:58:14Z</time>
      </trkpt>
      <trkpt lat="44.49622" lon="5.66765">
        <ele>1307.05</ele>
        <time>2015-12-03T09:58:27Z</time>
      </trkpt>
      <trkpt lat="44.49614" lon="5.66774">
        <ele>1308.49</ele>
        <time>2015-12-03T09:58:43Z</time>
      </trkpt>
      <trkpt lat="44.49604" lon="5.6678">
        <ele>1309.45</ele>
        <time>2015-12-03T09:58:57Z</time>
      </trkpt>
      <trkpt lat="44.49593" lon="5.66782">
        <ele>1310.41</ele>
        <time>2015-12-03T09:59:11Z</time>
      </trkpt>
      <trkpt lat="44.49592" lon="5.66782">
        <ele>1310.41</ele>
        <time>2015-12-03T09:59:12Z</time>
      </trkpt>
      <trkpt lat="44.49576" lon="5.6678">
        <ele>1311.86</ele>
        <time>2015-12-03T09:59:29Z</time>
      </trkpt>
      <trkpt lat="44.49573" lon="5.6678">
        <ele>1311.86</ele>
        <time>2015-12-03T09:59:43Z</time>
      </trkpt>
      <trkpt lat="44.49571" lon="5.66776">
        <ele>1311.86</ele>
        <time>2015-12-03T10:00:02Z</time>
      </trkpt>
      <trkpt lat="44.4957" lon="5.66778">
        <ele>1312.34</ele>
        <time>2015-12-03T10:00:21Z</time>
      </trkpt>
      <trkpt lat="44.49571" lon="5.66778">
        <ele>1312.34</ele>
        <time>2015-12-03T10:00:45Z</time>
      </trkpt>
      <trkpt lat="44.49572" lon="5.66778">
        <ele>1312.34</ele>
        <time>2015-12-03T10:01:03Z</time>
      </trkpt>
      <trkpt lat="44.49572" lon="5.66775">
        <ele>1312.82</ele>
        <time>2015-12-03T10:01:29Z</time>
      </trkpt>
      <trkpt lat="44.49571" lon="5.66777">
        <ele>1312.34</ele>
        <time>2015-12-03T10:01:48Z</time>
      </trkpt>
      <trkpt lat="44.4957" lon="5.66773">
        <ele>1312.82</ele>
        <time>2015-12-03T10:02:06Z</time>
      </trkpt>
      <trkpt lat="44.49565" lon="5.66778">
        <ele>1313.3</ele>
        <time>2015-12-03T10:02:21Z</time>
      </trkpt>
      <trkpt lat="44.49563" lon="5.6678">
        <ele>1313.78</ele>
        <time>2015-12-03T10:02:38Z</time>
      </trkpt>
      <trkpt lat="44.49563" lon="5.66785">
        <ele>1313.78</ele>
        <time>2015-12-03T10:02:55Z</time>
      </trkpt>
      <trkpt lat="44.4956" lon="5.66784">
        <ele>1314.26</ele>
        <time>2015-12-03T10:03:09Z</time>
      </trkpt>
      <trkpt lat="44.49562" lon="5.66787">
        <ele>1316.18</ele>
        <time>2015-12-03T10:03:23Z</time>
      </trkpt>
      <trkpt lat="44.49562" lon="5.66794">
        <ele>1318.59</ele>
        <time>2015-12-03T10:03:41Z</time>
      </trkpt>
      <trkpt lat="44.49563" lon="5.66795">
        <ele>1320.99</ele>
        <time>2015-12-03T10:03:55Z</time>
      </trkpt>
      <trkpt lat="44.49564" lon="5.66797">
        <ele>1321.95</ele>
        <time>2015-12-03T10:04:08Z</time>
      </trkpt>
      <trkpt lat="44.49565" lon="5.66804">
        <ele>1323.87</ele>
        <time>2015-12-03T10:04:23Z</time>
      </trkpt>
      <trkpt lat="44.49569" lon="5.66807">
        <ele>1325.8</ele>
        <time>2015-12-03T10:04:35Z</time>
      </trkpt>
      <trkpt lat="44.49578" lon="5.66811">
        <ele>1326.28</ele>
        <time>2015-12-03T10:04:48Z</time>
      </trkpt>
      <trkpt lat="44.49587" lon="5.66816">
        <ele>1326.76</ele>
        <time>2015-12-03T10:04:57Z</time>
      </trkpt>
      <trkpt lat="44.49596" lon="5.66823">
        <ele>1328.2</ele>
        <time>2015-12-03T10:05:11Z</time>
      </trkpt>
      <trkpt lat="44.49606" lon="5.66827">
        <ele>1330.12</ele>
        <time>2015-12-03T10:05:26Z</time>
      </trkpt>
      <trkpt lat="44.49613" lon="5.6683">
        <ele>1332.52</ele>
        <time>2015-12-03T10:05:42Z</time>
      </trkpt>
      <trkpt lat="44.49621" lon="5.66833">
        <ele>1334.45</ele>
        <time>2015-12-03T10:05:56Z</time>
      </trkpt>
      <trkpt lat="44.49627" lon="5.66835">
        <ele>1336.85</ele>
        <time>2015-12-03T10:06:10Z</time>
      </trkpt>
      <trkpt lat="44.49632" lon="5.66838">
        <ele>1339.25</ele>
        <time>2015-12-03T10:06:28Z</time>
      </trkpt>
      <trkpt lat="44.4964" lon="5.6684">
        <ele>1340.7</ele>
        <time>2015-12-03T10:06:43Z</time>
      </trkpt>
      <trkpt lat="44.49647" lon="5.66843">
        <ele>1342.62</ele>
        <time>2015-12-03T10:06:59Z</time>
      </trkpt>
      <trkpt lat="44.49654" lon="5.66842">
        <ele>1344.54</ele>
        <time>2015-12-03T10:07:11Z</time>
      </trkpt>
      <trkpt lat="44.49663" lon="5.66838">
        <ele>1345.02</ele>
        <time>2015-12-03T10:07:24Z</time>
      </trkpt>
      <trkpt lat="44.49672" lon="5.66835">
        <ele>1346.46</ele>
        <time>2015-12-03T10:07:37Z</time>
      </trkpt>
      <trkpt lat="44.49676" lon="5.66834">
        <ele>1346.46</ele>
        <time>2015-12-03T10:07:41Z</time>
      </trkpt>
      <trkpt lat="44.49687" lon="5.66833">
        <ele>1348.39</ele>
        <time>2015-12-03T10:07:55Z</time>
      </trkpt>
      <trkpt lat="44.49694" lon="5.66834">
        <ele>1350.31</ele>
        <time>2015-12-03T10:08:07Z</time>
      </trkpt>
      <trkpt lat="44.49703" lon="5.66833">
        <ele>1352.23</ele>
        <time>2015-12-03T10:08:20Z</time>
      </trkpt>
      <trkpt lat="44.49712" lon="5.6683">
        <ele>1351.27</ele>
        <time>2015-12-03T10:08:34Z</time>
      </trkpt>
      <trkpt lat="44.49722" lon="5.66824">
        <ele>1349.35</ele>
        <time>2015-12-03T10:08:48Z</time>
      </trkpt>
      <trkpt lat="44.49731" lon="5.66816">
        <ele>1346.46</ele>
        <time>2015-12-03T10:09:02Z</time>
      </trkpt>
      <trkpt lat="44.49739" lon="5.6681">
        <ele>1345.98</ele>
        <time>2015-12-03T10:09:17Z</time>
      </trkpt>
      <trkpt lat="44.49745" lon="5.6681">
        <ele>1346.46</ele>
        <time>2015-12-03T10:09:31Z</time>
      </trkpt>
      <trkpt lat="44.49747" lon="5.66809">
        <ele>1347.91</ele>
        <time>2015-12-03T10:09:48Z</time>
      </trkpt>
      <trkpt lat="44.49754" lon="5.66813">
        <ele>1349.83</ele>
        <time>2015-12-03T10:10:02Z</time>
      </trkpt>
      <trkpt lat="44.49757" lon="5.66808">
        <ele>1349.35</ele>
        <time>2015-12-03T10:10:17Z</time>
      </trkpt>
      <trkpt lat="44.4976" lon="5.66801">
        <ele>1346.94</ele>
        <time>2015-12-03T10:10:33Z</time>
      </trkpt>
      <trkpt lat="44.49766" lon="5.66795">
        <ele>1345.98</ele>
        <time>2015-12-03T10:10:45Z</time>
      </trkpt>
      <trkpt lat="44.49768" lon="5.66787">
        <ele>1343.58</ele>
        <time>2015-12-03T10:10:56Z</time>
      </trkpt>
      <trkpt lat="44.49769" lon="5.66777">
        <ele>1342.62</ele>
        <time>2015-12-03T10:11:08Z</time>
      </trkpt>
      <trkpt lat="44.49771" lon="5.66766">
        <ele>1341.18</ele>
        <time>2015-12-03T10:11:23Z</time>
      </trkpt>
      <trkpt lat="44.49773" lon="5.66765">
        <ele>1340.22</ele>
        <time>2015-12-03T10:11:37Z</time>
      </trkpt>
      <trkpt lat="44.49773" lon="5.66766">
        <ele>1340.22</ele>
        <time>2015-12-03T10:11:59Z</time>
      </trkpt>
      <trkpt lat="44.49774" lon="5.66756">
        <ele>1339.25</ele>
        <time>2015-12-03T10:12:21Z</time>
      </trkpt>
      <trkpt lat="44.4978" lon="5.66751">
        <ele>1340.22</ele>
        <time>2015-12-03T10:12:33Z</time>
      </trkpt>
      <trkpt lat="44.49781" lon="5.66747">
        <ele>1340.7</ele>
        <time>2015-12-03T10:12:43Z</time>
      </trkpt>
      <trkpt lat="44.49789" lon="5.66736">
        <ele>1342.62</ele>
        <time>2015-12-03T10:12:55Z</time>
      </trkpt>
      <trkpt lat="44.49793" lon="5.66729">
        <ele>1342.14</ele>
        <time>2015-12-03T10:13:08Z</time>
      </trkpt>
      <trkpt lat="44.498" lon="5.66722">
        <ele>1343.1</ele>
        <time>2015-12-03T10:13:23Z</time>
      </trkpt>
      <trkpt lat="44.49805" lon="5.66709">
        <ele>1343.58</ele>
        <time>2015-12-03T10:13:36Z</time>
      </trkpt>
      <trkpt lat="44.49808" lon="5.66699">
        <ele>1344.06</ele>
        <time>2015-12-03T10:13:49Z</time>
      </trkpt>
      <trkpt lat="44.49811" lon="5.66693">
        <ele>1344.06</ele>
        <time>2015-12-03T10:14:13Z</time>
      </trkpt>
      <trkpt lat="44.49813" lon="5.66691">
        <ele>1344.54</ele>
        <time>2015-12-03T10:14:30Z</time>
      </trkpt>
      <trkpt lat="44.4982" lon="5.6669">
        <ele>1346.94</ele>
        <time>2015-12-03T10:14:44Z</time>
      </trkpt>
      <trkpt lat="44.49825" lon="5.66689">
        <ele>1349.35</ele>
        <time>2015-12-03T10:14:58Z</time>
      </trkpt>
      <trkpt lat="44.4983" lon="5.66686">
        <ele>1353.19</ele>
        <time>2015-12-03T10:15:12Z</time>
      </trkpt>
      <trkpt lat="44.49833" lon="5.66688">
        <ele>1353.19</ele>
        <time>2015-12-03T10:15:27Z</time>
      </trkpt>
      <trkpt lat="44.49833" lon="5.6669">
        <ele>1354.15</ele>
        <time>2015-12-03T10:15:44Z</time>
      </trkpt>
      <trkpt lat="44.49831" lon="5.66692">
        <ele>1354.63</ele>
        <time>2015-12-03T10:16:04Z</time>
      </trkpt>
      <trkpt lat="44.49832" lon="5.66691">
        <ele>1355.12</ele>
        <time>2015-12-03T10:16:17Z</time>
      </trkpt>
      <trkpt lat="44.49832" lon="5.66695">
        <ele>1355.6</ele>
        <time>2015-12-03T10:16:30Z</time>
      </trkpt>
      <trkpt lat="44.49832" lon="5.66696">
        <ele>1356.56</ele>
        <time>2015-12-03T10:16:46Z</time>
      </trkpt>
      <trkpt lat="44.49832" lon="5.667">
        <ele>1356.56</ele>
        <time>2015-12-03T10:17:05Z</time>
      </trkpt>
      <trkpt lat="44.49832" lon="5.66701">
        <ele>1357.52</ele>
        <time>2015-12-03T10:17:22Z</time>
      </trkpt>
      <trkpt lat="44.49835" lon="5.66701">
        <ele>1358.48</ele>
        <time>2015-12-03T10:17:40Z</time>
      </trkpt>
      <trkpt lat="44.49834" lon="5.66699">
        <ele>1359.92</ele>
        <time>2015-12-03T10:17:56Z</time>
      </trkpt>
      <trkpt lat="44.49839" lon="5.667">
        <ele>1361.84</ele>
        <time>2015-12-03T10:18:11Z</time>
      </trkpt>
      <trkpt lat="44.49842" lon="5.66703">
        <ele>1362.81</ele>
        <time>2015-12-03T10:18:26Z</time>
      </trkpt>
      <trkpt lat="44.49845" lon="5.66701">
        <ele>1364.73</ele>
        <time>2015-12-03T10:18:42Z</time>
      </trkpt>
      <trkpt lat="44.4985" lon="5.66696">
        <ele>1365.21</ele>
        <time>2015-12-03T10:18:52Z</time>
      </trkpt>
      <trkpt lat="44.49857" lon="5.66692">
        <ele>1366.17</ele>
        <time>2015-12-03T10:19:05Z</time>
      </trkpt>
      <trkpt lat="44.49864" lon="5.66692">
        <ele>1368.57</ele>
        <time>2015-12-03T10:19:19Z</time>
      </trkpt>
      <trkpt lat="44.49872" lon="5.66692">
        <ele>1371.94</ele>
        <time>2015-12-03T10:19:35Z</time>
      </trkpt>
      <trkpt lat="44.4988" lon="5.66689">
        <ele>1373.38</ele>
        <time>2015-12-03T10:19:47Z</time>
      </trkpt>
      <trkpt lat="44.49888" lon="5.66684">
        <ele>1374.82</ele>
        <time>2015-12-03T10:20:01Z</time>
      </trkpt>
      <trkpt lat="44.49896" lon="5.66684">
        <ele>1377.71</ele>
        <time>2015-12-03T10:20:13Z</time>
      </trkpt>
      <trkpt lat="44.49902" lon="5.66682">
        <ele>1379.63</ele>
        <time>2015-12-03T10:20:25Z</time>
      </trkpt>
      <trkpt lat="44.4991" lon="5.66681">
        <ele>1382.03</ele>
        <time>2015-12-03T10:20:39Z</time>
      </trkpt>
      <trkpt lat="44.49917" lon="5.66673">
        <ele>1382.03</ele>
        <time>2015-12-03T10:20:50Z</time>
      </trkpt>
      <trkpt lat="44.49928" lon="5.66667">
        <ele>1383.47</ele>
        <time>2015-12-03T10:21:05Z</time>
      </trkpt>
      <trkpt lat="44.49937" lon="5.66663">
        <ele>1384.92</ele>
        <time>2015-12-03T10:21:20Z</time>
      </trkpt>
      <trkpt lat="44.49942" lon="5.66663">
        <ele>1387.8</ele>
        <time>2015-12-03T10:21:34Z</time>
      </trkpt>
      <trkpt lat="44.49944" lon="5.66659">
        <ele>1386.84</ele>
        <time>2015-12-03T10:21:49Z</time>
      </trkpt>
      <trkpt lat="44.49943" lon="5.66658">
        <ele>1386.36</ele>
        <time>2015-12-03T10:22:05Z</time>
      </trkpt>
      <trkpt lat="44.49942" lon="5.66658">
        <ele>1385.88</ele>
        <time>2015-12-03T10:22:29Z</time>
      </trkpt>
      <trkpt lat="44.49948" lon="5.6666">
        <ele>1386.36</ele>
        <time>2015-12-03T10:22:50Z</time>
      </trkpt>
      <trkpt lat="44.49946" lon="5.66656">
        <ele>1387.32</ele>
        <time>2015-12-03T10:23:15Z</time>
      </trkpt>
      <trkpt lat="44.49947" lon="5.66658">
        <ele>1387.8</ele>
        <time>2015-12-03T10:23:25Z</time>
      </trkpt>
      <trkpt lat="44.49953" lon="5.6666">
        <ele>1389.24</ele>
        <time>2015-12-03T10:23:33Z</time>
      </trkpt>
      <trkpt lat="44.49958" lon="5.66658">
        <ele>1389.72</ele>
        <time>2015-12-03T10:23:40Z</time>
      </trkpt>
      <trkpt lat="44.49967" lon="5.66658">
        <ele>1391.17</ele>
        <time>2015-12-03T10:23:54Z</time>
      </trkpt>
      <trkpt lat="44.49976" lon="5.66653">
        <ele>1391.65</ele>
        <time>2015-12-03T10:24:07Z</time>
      </trkpt>
      <trkpt lat="44.49983" lon="5.66643">
        <ele>1392.61</ele>
        <time>2015-12-03T10:24:21Z</time>
      </trkpt>
      <trkpt lat="44.49989" lon="5.66638">
        <ele>1393.57</ele>
        <time>2015-12-03T10:24:33Z</time>
      </trkpt>
      <trkpt lat="44.49997" lon="5.66633">
        <ele>1395.01</ele>
        <time>2015-12-03T10:24:45Z</time>
      </trkpt>
      <trkpt lat="44.50003" lon="5.66629">
        <ele>1395.49</ele>
        <time>2015-12-03T10:24:58Z</time>
      </trkpt>
      <trkpt lat="44.50009" lon="5.66628">
        <ele>1396.93</ele>
        <time>2015-12-03T10:25:12Z</time>
      </trkpt>
      <trkpt lat="44.50019" lon="5.66625">
        <ele>1398.86</ele>
        <time>2015-12-03T10:25:27Z</time>
      </trkpt>
      <trkpt lat="44.50028" lon="5.66619">
        <ele>1400.3</ele>
        <time>2015-12-03T10:25:40Z</time>
      </trkpt>
      <trkpt lat="44.50033" lon="5.66618">
        <ele>1401.74</ele>
        <time>2015-12-03T10:25:54Z</time>
      </trkpt>
      <trkpt lat="44.50038" lon="5.66615">
        <ele>1402.7</ele>
        <time>2015-12-03T10:26:05Z</time>
      </trkpt>
      <trkpt lat="44.50048" lon="5.66609">
        <ele>1404.62</ele>
        <time>2015-12-03T10:26:20Z</time>
      </trkpt>
      <trkpt lat="44.50057" lon="5.66605">
        <ele>1406.07</ele>
        <time>2015-12-03T10:26:33Z</time>
      </trkpt>
      <trkpt lat="44.50065" lon="5.666">
        <ele>1407.03</ele>
        <time>2015-12-03T10:26:47Z</time>
      </trkpt>
      <trkpt lat="44.50069" lon="5.66599">
        <ele>1407.03</ele>
        <time>2015-12-03T10:27:04Z</time>
      </trkpt>
      <trkpt lat="44.50072" lon="5.666">
        <ele>1407.03</ele>
        <time>2015-12-03T10:27:20Z</time>
      </trkpt>
      <trkpt lat="44.50075" lon="5.66604">
        <ele>1407.99</ele>
        <time>2015-12-03T10:27:32Z</time>
      </trkpt>
      <trkpt lat="44.50074" lon="5.66603">
        <ele>1408.47</ele>
        <time>2015-12-03T10:27:48Z</time>
      </trkpt>
      <trkpt lat="44.50076" lon="5.66602">
        <ele>1409.43</ele>
        <time>2015-12-03T10:28:04Z</time>
      </trkpt>
      <trkpt lat="44.50077" lon="5.66605">
        <ele>1410.39</ele>
        <time>2015-12-03T10:28:19Z</time>
      </trkpt>
      <trkpt lat="44.50081" lon="5.66603">
        <ele>1411.35</ele>
        <time>2015-12-03T10:28:34Z</time>
      </trkpt>
      <trkpt lat="44.50083" lon="5.66603">
        <ele>1411.35</ele>
        <time>2015-12-03T10:28:55Z</time>
      </trkpt>
      <trkpt lat="44.50084" lon="5.66602">
        <ele>1410.39</ele>
        <time>2015-12-03T10:29:14Z</time>
      </trkpt>
      <trkpt lat="44.50088" lon="5.66604">
        <ele>1411.35</ele>
        <time>2015-12-03T10:29:26Z</time>
      </trkpt>
      <trkpt lat="44.50087" lon="5.66607">
        <ele>1412.31</ele>
        <time>2015-12-03T10:29:43Z</time>
      </trkpt>
      <trkpt lat="44.50086" lon="5.6661">
        <ele>1414.72</ele>
        <time>2015-12-03T10:29:58Z</time>
      </trkpt>
      <trkpt lat="44.50086" lon="5.66612">
        <ele>1414.24</ele>
        <time>2015-12-03T10:30:20Z</time>
      </trkpt>
      <trkpt lat="44.50086" lon="5.66611">
        <ele>1414.24</ele>
        <time>2015-12-03T10:30:43Z</time>
      </trkpt>
      <trkpt lat="44.50086" lon="5.66613">
        <ele>1414.24</ele>
        <time>2015-12-03T10:31:02Z</time>
      </trkpt>
      <trkpt lat="44.50085" lon="5.66613">
        <ele>1413.76</ele>
        <time>2015-12-03T10:31:16Z</time>
      </trkpt>
      <trkpt lat="44.50085" lon="5.66614">
        <ele>1413.76</ele>
        <time>2015-12-03T10:31:31Z</time>
      </trkpt>
      <trkpt lat="44.50086" lon="5.66614">
        <ele>1414.24</ele>
        <time>2015-12-03T10:31:44Z</time>
      </trkpt>
      <trkpt lat="44.50087" lon="5.66614">
        <ele>1413.76</ele>
        <time>2015-12-03T10:32:11Z</time>
      </trkpt>
      <trkpt lat="44.50086" lon="5.66614">
        <ele>1414.24</ele>
        <time>2015-12-03T10:32:25Z</time>
      </trkpt>
      <trkpt lat="44.50087" lon="5.66611">
        <ele>1414.24</ele>
        <time>2015-12-03T10:32:48Z</time>
      </trkpt>
      <trkpt lat="44.50086" lon="5.6661">
        <ele>1414.24</ele>
        <time>2015-12-03T10:33:11Z</time>
      </trkpt>
      <trkpt lat="44.50087" lon="5.66607">
        <ele>1414.24</ele>
        <time>2015-12-03T10:33:29Z</time>
      </trkpt>
      <trkpt lat="44.50089" lon="5.66604">
        <ele>1412.31</ele>
        <time>2015-12-03T10:33:45Z</time>
      </trkpt>
      <trkpt lat="44.50088" lon="5.66604">
        <ele>1411.83</ele>
        <time>2015-12-03T10:34:00Z</time>
      </trkpt>
      <trkpt lat="44.50085" lon="5.66602">
        <ele>1410.87</ele>
        <time>2015-12-03T10:34:15Z</time>
      </trkpt>
      <trkpt lat="44.50079" lon="5.66608">
        <ele>1410.87</ele>
        <time>2015-12-03T10:34:29Z</time>
      </trkpt>
      <trkpt lat="44.50075" lon="5.66607">
        <ele>1410.39</ele>
        <time>2015-12-03T10:34:43Z</time>
      </trkpt>
      <trkpt lat="44.50074" lon="5.66603">
        <ele>1409.91</ele>
        <time>2015-12-03T10:34:59Z</time>
      </trkpt>
      <trkpt lat="44.50075" lon="5.66601">
        <ele>1409.91</ele>
        <time>2015-12-03T10:35:22Z</time>
      </trkpt>
      <trkpt lat="44.50075" lon="5.66602">
        <ele>1409.91</ele>
        <time>2015-12-03T10:35:36Z</time>
      </trkpt>
      <trkpt lat="44.50075" lon="5.66601">
        <ele>1409.43</ele>
        <time>2015-12-03T10:35:53Z</time>
      </trkpt>
      <trkpt lat="44.50074" lon="5.66603">
        <ele>1409.91</ele>
        <time>2015-12-03T10:36:19Z</time>
      </trkpt>
      <trkpt lat="44.50076" lon="5.66599">
        <ele>1409.91</ele>
        <time>2015-12-03T10:36:41Z</time>
      </trkpt>
      <trkpt lat="44.50078" lon="5.66599">
        <ele>1409.91</ele>
        <time>2015-12-03T10:37:11Z</time>
      </trkpt>
      <trkpt lat="44.50076" lon="5.66598">
        <ele>1409.91</ele>
        <time>2015-12-03T10:37:42Z</time>
      </trkpt>
      <trkpt lat="44.50077" lon="5.66599">
        <ele>1409.91</ele>
        <time>2015-12-03T10:38:06Z</time>
      </trkpt>
      <trkpt lat="44.50075" lon="5.66598">
        <ele>1409.91</ele>
        <time>2015-12-03T10:38:22Z</time>
      </trkpt>
      <trkpt lat="44.50074" lon="5.66596">
        <ele>1409.91</ele>
        <time>2015-12-03T10:38:49Z</time>
      </trkpt>
      <trkpt lat="44.50074" lon="5.66597">
        <ele>1409.43</ele>
        <time>2015-12-03T10:39:25Z</time>
      </trkpt>
      <trkpt lat="44.50075" lon="5.66595">
        <ele>1408.47</ele>
        <time>2015-12-03T10:39:42Z</time>
      </trkpt>
      <trkpt lat="44.50075" lon="5.66589">
        <ele>1406.55</ele>
        <time>2015-12-03T10:39:56Z</time>
      </trkpt>
      <trkpt lat="44.50082" lon="5.66589">
        <ele>1406.55</ele>
        <time>2015-12-03T10:40:11Z</time>
      </trkpt>
      <trkpt lat="44.5009" lon="5.66587">
        <ele>1406.55</ele>
        <time>2015-12-03T10:40:29Z</time>
      </trkpt>
      <trkpt lat="44.50095" lon="5.66579">
        <ele>1405.1</ele>
        <time>2015-12-03T10:40:49Z</time>
      </trkpt>
      <trkpt lat="44.50104" lon="5.66573">
        <ele>1405.58</ele>
        <time>2015-12-03T10:41:05Z</time>
      </trkpt>
      <trkpt lat="44.50113" lon="5.66563">
        <ele>1406.07</ele>
        <time>2015-12-03T10:41:20Z</time>
      </trkpt>
      <trkpt lat="44.5012" lon="5.66551">
        <ele>1406.07</ele>
        <time>2015-12-03T10:41:34Z</time>
      </trkpt>
      <trkpt lat="44.50129" lon="5.66547">
        <ele>1407.03</ele>
        <time>2015-12-03T10:41:49Z</time>
      </trkpt>
      <trkpt lat="44.50134" lon="5.66544">
        <ele>1407.51</ele>
        <time>2015-12-03T10:42:05Z</time>
      </trkpt>
      <trkpt lat="44.50139" lon="5.66535">
        <ele>1408.95</ele>
        <time>2015-12-03T10:42:20Z</time>
      </trkpt>
      <trkpt lat="44.50139" lon="5.66534">
        <ele>1408.95</ele>
        <time>2015-12-03T10:42:22Z</time>
      </trkpt>
      <trkpt lat="44.50146" lon="5.66525">
        <ele>1409.43</ele>
        <time>2015-12-03T10:42:37Z</time>
      </trkpt>
      <trkpt lat="44.50152" lon="5.66519">
        <ele>1410.87</ele>
        <time>2015-12-03T10:42:52Z</time>
      </trkpt>
      <trkpt lat="44.50159" lon="5.66511">
        <ele>1412.79</ele>
        <time>2015-12-03T10:43:08Z</time>
      </trkpt>
      <trkpt lat="44.50161" lon="5.66507">
        <ele>1413.28</ele>
        <time>2015-12-03T10:43:24Z</time>
      </trkpt>
      <trkpt lat="44.50167" lon="5.66505">
        <ele>1414.24</ele>
        <time>2015-12-03T10:43:38Z</time>
      </trkpt>
      <trkpt lat="44.50175" lon="5.66496">
        <ele>1416.16</ele>
        <time>2015-12-03T10:43:53Z</time>
      </trkpt>
      <trkpt lat="44.50183" lon="5.66492">
        <ele>1418.08</ele>
        <time>2015-12-03T10:44:06Z</time>
      </trkpt>
      <trkpt lat="44.50189" lon="5.66487">
        <ele>1419.04</ele>
        <time>2015-12-03T10:44:19Z</time>
      </trkpt>
      <trkpt lat="44.50195" lon="5.66475">
        <ele>1420.49</ele>
        <time>2015-12-03T10:44:36Z</time>
      </trkpt>
      <trkpt lat="44.50195" lon="5.66476">
        <ele>1420.49</ele>
        <time>2015-12-03T10:44:56Z</time>
      </trkpt>
      <trkpt lat="44.50195" lon="5.66476">
        <ele>1420</ele>
        <time>2015-12-03T10:45:27Z</time>
      </trkpt>
      <trkpt lat="44.50193" lon="5.66474">
        <ele>1419.52</ele>
        <time>2015-12-03T10:45:52Z</time>
      </trkpt>
      <trkpt lat="44.50185" lon="5.66463">
        <ele>1420.49</ele>
        <time>2015-12-03T10:46:10Z</time>
      </trkpt>
      <trkpt lat="44.50184" lon="5.66461">
        <ele>1420</ele>
        <time>2015-12-03T10:46:13Z</time>
      </trkpt>
      <trkpt lat="44.50182" lon="5.66445">
        <ele>1418.08</ele>
        <time>2015-12-03T10:46:28Z</time>
      </trkpt>
      <trkpt lat="44.50178" lon="5.66437">
        <ele>1416.64</ele>
        <time>2015-12-03T10:46:40Z</time>
      </trkpt>
      <trkpt lat="44.50175" lon="5.66433">
        <ele>1415.68</ele>
        <time>2015-12-03T10:46:44Z</time>
      </trkpt>
      <trkpt lat="44.50172" lon="5.6642">
        <ele>1413.28</ele>
        <time>2015-12-03T10:46:54Z</time>
      </trkpt>
      <trkpt lat="44.5017" lon="5.66414">
        <ele>1412.31</ele>
        <time>2015-12-03T10:46:59Z</time>
      </trkpt>
      <trkpt lat="44.50168" lon="5.66395">
        <ele>1408.95</ele>
        <time>2015-12-03T10:47:14Z</time>
      </trkpt>
      <trkpt lat="44.50167" lon="5.66388">
        <ele>1408.47</ele>
        <time>2015-12-03T10:47:22Z</time>
      </trkpt>
      <trkpt lat="44.50163" lon="5.66368">
        <ele>1406.55</ele>
        <time>2015-12-03T10:47:36Z</time>
      </trkpt>
      <trkpt lat="44.50164" lon="5.66366">
        <ele>1406.55</ele>
        <time>2015-12-03T10:47:38Z</time>
      </trkpt>
      <trkpt lat="44.50158" lon="5.66345">
        <ele>1407.51</ele>
        <time>2015-12-03T10:47:53Z</time>
      </trkpt>
      <trkpt lat="44.50152" lon="5.6633">
        <ele>1409.91</ele>
        <time>2015-12-03T10:48:07Z</time>
      </trkpt>
      <trkpt lat="44.50149" lon="5.6632">
        <ele>1412.31</ele>
        <time>2015-12-03T10:48:21Z</time>
      </trkpt>
      <trkpt lat="44.50147" lon="5.66312">
        <ele>1414.72</ele>
        <time>2015-12-03T10:48:34Z</time>
      </trkpt>
      <trkpt lat="44.50143" lon="5.66305">
        <ele>1417.6</ele>
        <time>2015-12-03T10:48:49Z</time>
      </trkpt>
      <trkpt lat="44.50138" lon="5.66296">
        <ele>1420.49</ele>
        <time>2015-12-03T10:49:04Z</time>
      </trkpt>
      <trkpt lat="44.50135" lon="5.66283">
        <ele>1422.89</ele>
        <time>2015-12-03T10:49:18Z</time>
      </trkpt>
      <trkpt lat="44.50139" lon="5.66266">
        <ele>1422.89</ele>
        <time>2015-12-03T10:49:32Z</time>
      </trkpt>
      <trkpt lat="44.50141" lon="5.66259">
        <ele>1423.37</ele>
        <time>2015-12-03T10:49:37Z</time>
      </trkpt>
      <trkpt lat="44.50147" lon="5.66247">
        <ele>1424.33</ele>
        <time>2015-12-03T10:49:49Z</time>
      </trkpt>
      <trkpt lat="44.50155" lon="5.66236">
        <ele>1424.33</ele>
        <time>2015-12-03T10:50:01Z</time>
      </trkpt>
      <trkpt lat="44.50167" lon="5.66223">
        <ele>1425.29</ele>
        <time>2015-12-03T10:50:15Z</time>
      </trkpt>
      <trkpt lat="44.50173" lon="5.66208">
        <ele>1425.29</ele>
        <time>2015-12-03T10:50:28Z</time>
      </trkpt>
      <trkpt lat="44.50174" lon="5.66206">
        <ele>1425.29</ele>
        <time>2015-12-03T10:50:30Z</time>
      </trkpt>
      <trkpt lat="44.50177" lon="5.66201">
        <ele>1425.29</ele>
        <time>2015-12-03T10:50:34Z</time>
      </trkpt>
      <trkpt lat="44.50187" lon="5.66189">
        <ele>1422.89</ele>
        <time>2015-12-03T10:50:48Z</time>
      </trkpt>
      <trkpt lat="44.50194" lon="5.66173">
        <ele>1421.45</ele>
        <time>2015-12-03T10:51:03Z</time>
      </trkpt>
      <trkpt lat="44.502" lon="5.66151">
        <ele>1420.49</ele>
        <time>2015-12-03T10:51:19Z</time>
      </trkpt>
      <trkpt lat="44.50202" lon="5.66144">
        <ele>1420.97</ele>
        <time>2015-12-03T10:51:24Z</time>
      </trkpt>
      <trkpt lat="44.50205" lon="5.6613">
        <ele>1420</ele>
        <time>2015-12-03T10:51:34Z</time>
      </trkpt>
      <trkpt lat="44.50206" lon="5.66118">
        <ele>1420</ele>
        <time>2015-12-03T10:51:42Z</time>
      </trkpt>
      <trkpt lat="44.50213" lon="5.66101">
        <ele>1418.56</ele>
        <time>2015-12-03T10:51:58Z</time>
      </trkpt>
      <trkpt lat="44.50217" lon="5.66077">
        <ele>1417.12</ele>
        <time>2015-12-03T10:52:15Z</time>
      </trkpt>
      <trkpt lat="44.50222" lon="5.66057">
        <ele>1416.16</ele>
        <time>2015-12-03T10:52:29Z</time>
      </trkpt>
      <trkpt lat="44.50223" lon="5.6604">
        <ele>1414.24</ele>
        <time>2015-12-03T10:52:44Z</time>
      </trkpt>
      <trkpt lat="44.50223" lon="5.66025">
        <ele>1411.83</ele>
        <time>2015-12-03T10:52:57Z</time>
      </trkpt>
      <trkpt lat="44.50224" lon="5.66013">
        <ele>1409.43</ele>
        <time>2015-12-03T10:53:08Z</time>
      </trkpt>
      <trkpt lat="44.50225" lon="5.65997">
        <ele>1406.55</ele>
        <time>2015-12-03T10:53:24Z</time>
      </trkpt>
      <trkpt lat="44.50226" lon="5.65986">
        <ele>1405.58</ele>
        <time>2015-12-03T10:53:33Z</time>
      </trkpt>
      <trkpt lat="44.5023" lon="5.65962">
        <ele>1405.1</ele>
        <time>2015-12-03T10:53:50Z</time>
      </trkpt>
      <trkpt lat="44.50233" lon="5.65942">
        <ele>1406.07</ele>
        <time>2015-12-03T10:54:06Z</time>
      </trkpt>
      <trkpt lat="44.50235" lon="5.65927">
        <ele>1407.99</ele>
        <time>2015-12-03T10:54:19Z</time>
      </trkpt>
      <trkpt lat="44.50233" lon="5.6591">
        <ele>1407.99</ele>
        <time>2015-12-03T10:54:33Z</time>
      </trkpt>
      <trkpt lat="44.5023" lon="5.65891">
        <ele>1407.03</ele>
        <time>2015-12-03T10:54:47Z</time>
      </trkpt>
      <trkpt lat="44.50231" lon="5.65868">
        <ele>1405.58</ele>
        <time>2015-12-03T10:55:03Z</time>
      </trkpt>
      <trkpt lat="44.50232" lon="5.65844">
        <ele>1404.62</ele>
        <time>2015-12-03T10:55:19Z</time>
      </trkpt>
      <trkpt lat="44.50235" lon="5.65824">
        <ele>1403.66</ele>
        <time>2015-12-03T10:55:33Z</time>
      </trkpt>
      <trkpt lat="44.50234" lon="5.6582">
        <ele>1403.18</ele>
        <time>2015-12-03T10:55:35Z</time>
      </trkpt>
      <trkpt lat="44.50235" lon="5.65816">
        <ele>1402.7</ele>
        <time>2015-12-03T10:55:38Z</time>
      </trkpt>
      <trkpt lat="44.50233" lon="5.658">
        <ele>1400.3</ele>
        <time>2015-12-03T10:55:53Z</time>
      </trkpt>
      <trkpt lat="44.50232" lon="5.65785">
        <ele>1396.93</ele>
        <time>2015-12-03T10:56:07Z</time>
      </trkpt>
      <trkpt lat="44.50234" lon="5.65779">
        <ele>1396.45</ele>
        <time>2015-12-03T10:56:12Z</time>
      </trkpt>
      <trkpt lat="44.5024" lon="5.65768">
        <ele>1394.05</ele>
        <time>2015-12-03T10:56:28Z</time>
      </trkpt>
      <trkpt lat="44.50238" lon="5.65759">
        <ele>1392.61</ele>
        <time>2015-12-03T10:56:40Z</time>
      </trkpt>
      <trkpt lat="44.50238" lon="5.65755">
        <ele>1392.13</ele>
        <time>2015-12-03T10:56:45Z</time>
      </trkpt>
      <trkpt lat="44.50235" lon="5.65739">
        <ele>1388.76</ele>
        <time>2015-12-03T10:56:59Z</time>
      </trkpt>
      <trkpt lat="44.50234" lon="5.65728">
        <ele>1385.88</ele>
        <time>2015-12-03T10:57:10Z</time>
      </trkpt>
      <trkpt lat="44.50233" lon="5.6571">
        <ele>1382.99</ele>
        <time>2015-12-03T10:57:25Z</time>
      </trkpt>
      <trkpt lat="44.50232" lon="5.65688">
        <ele>1380.59</ele>
        <time>2015-12-03T10:57:41Z</time>
      </trkpt>
      <trkpt lat="44.50226" lon="5.65681">
        <ele>1380.11</ele>
        <time>2015-12-03T10:57:55Z</time>
      </trkpt>
      <trkpt lat="44.50223" lon="5.65675">
        <ele>1376.75</ele>
        <time>2015-12-03T10:58:05Z</time>
      </trkpt>
      <trkpt lat="44.50219" lon="5.65671">
        <ele>1375.78</ele>
        <time>2015-12-03T10:58:23Z</time>
      </trkpt>
      <trkpt lat="44.50216" lon="5.65666">
        <ele>1372.42</ele>
        <time>2015-12-03T10:58:32Z</time>
      </trkpt>
      <trkpt lat="44.50214" lon="5.65661">
        <ele>1369.54</ele>
        <time>2015-12-03T10:58:42Z</time>
      </trkpt>
      <trkpt lat="44.5021" lon="5.65654">
        <ele>1367.13</ele>
        <time>2015-12-03T10:58:55Z</time>
      </trkpt>
      <trkpt lat="44.50207" lon="5.65646">
        <ele>1363.77</ele>
        <time>2015-12-03T10:59:07Z</time>
      </trkpt>
      <trkpt lat="44.50202" lon="5.65644">
        <ele>1361.84</ele>
        <time>2015-12-03T10:59:20Z</time>
      </trkpt>
      <trkpt lat="44.50198" lon="5.65636">
        <ele>1358.96</ele>
        <time>2015-12-03T10:59:32Z</time>
      </trkpt>
      <trkpt lat="44.50196" lon="5.65625">
        <ele>1356.56</ele>
        <time>2015-12-03T10:59:47Z</time>
      </trkpt>
      <trkpt lat="44.5019" lon="5.65618">
        <ele>1353.19</ele>
        <time>2015-12-03T11:00:00Z</time>
      </trkpt>
      <trkpt lat="44.50188" lon="5.65612">
        <ele>1350.79</ele>
        <time>2015-12-03T11:00:14Z</time>
      </trkpt>
      <trkpt lat="44.50185" lon="5.65609">
        <ele>1348.87</ele>
        <time>2015-12-03T11:00:27Z</time>
      </trkpt>
      <trkpt lat="44.50184" lon="5.65607">
        <ele>1346.94</ele>
        <time>2015-12-03T11:00:39Z</time>
      </trkpt>
      <trkpt lat="44.50181" lon="5.656">
        <ele>1344.54</ele>
        <time>2015-12-03T11:00:51Z</time>
      </trkpt>
      <trkpt lat="44.5018" lon="5.65596">
        <ele>1342.14</ele>
        <time>2015-12-03T11:01:03Z</time>
      </trkpt>
      <trkpt lat="44.50178" lon="5.6559">
        <ele>1339.73</ele>
        <time>2015-12-03T11:01:15Z</time>
      </trkpt>
      <trkpt lat="44.50174" lon="5.65584">
        <ele>1336.85</ele>
        <time>2015-12-03T11:01:28Z</time>
      </trkpt>
      <trkpt lat="44.50172" lon="5.65579">
        <ele>1335.41</ele>
        <time>2015-12-03T11:01:42Z</time>
      </trkpt>
      <trkpt lat="44.50169" lon="5.65573">
        <ele>1332.04</ele>
        <time>2015-12-03T11:01:56Z</time>
      </trkpt>
      <trkpt lat="44.50168" lon="5.65571">
        <ele>1331.08</ele>
        <time>2015-12-03T11:02:12Z</time>
      </trkpt>
      <trkpt lat="44.50162" lon="5.65565">
        <ele>1328.2</ele>
        <time>2015-12-03T11:02:26Z</time>
      </trkpt>
      <trkpt lat="44.50158" lon="5.65562">
        <ele>1326.28</ele>
        <time>2015-12-03T11:02:39Z</time>
      </trkpt>
      <trkpt lat="44.50157" lon="5.65557">
        <ele>1323.39</ele>
        <time>2015-12-03T11:02:54Z</time>
      </trkpt>
      <trkpt lat="44.50157" lon="5.65548">
        <ele>1320.51</ele>
        <time>2015-12-03T11:03:08Z</time>
      </trkpt>
      <trkpt lat="44.50152" lon="5.65545">
        <ele>1317.62</ele>
        <time>2015-12-03T11:03:24Z</time>
      </trkpt>
      <trkpt lat="44.50148" lon="5.65538">
        <ele>1315.22</ele>
        <time>2015-12-03T11:03:38Z</time>
      </trkpt>
      <trkpt lat="44.50141" lon="5.65534">
        <ele>1312.34</ele>
        <time>2015-12-03T11:03:53Z</time>
      </trkpt>
      <trkpt lat="44.50139" lon="5.65528">
        <ele>1309.93</ele>
        <time>2015-12-03T11:04:09Z</time>
      </trkpt>
      <trkpt lat="44.50139" lon="5.65518">
        <ele>1306.57</ele>
        <time>2015-12-03T11:04:20Z</time>
      </trkpt>
      <trkpt lat="44.50136" lon="5.65514">
        <ele>1304.65</ele>
        <time>2015-12-03T11:04:32Z</time>
      </trkpt>
      <trkpt lat="44.50132" lon="5.65504">
        <ele>1300.8</ele>
        <time>2015-12-03T11:04:46Z</time>
      </trkpt>
      <trkpt lat="44.50128" lon="5.655">
        <ele>1298.88</ele>
        <time>2015-12-03T11:04:56Z</time>
      </trkpt>
      <trkpt lat="44.50121" lon="5.65495">
        <ele>1295.99</ele>
        <time>2015-12-03T11:05:10Z</time>
      </trkpt>
      <trkpt lat="44.50114" lon="5.65487">
        <ele>1292.63</ele>
        <time>2015-12-03T11:05:24Z</time>
      </trkpt>
      <trkpt lat="44.50108" lon="5.65481">
        <ele>1290.23</ele>
        <time>2015-12-03T11:05:39Z</time>
      </trkpt>
      <trkpt lat="44.50106" lon="5.65469">
        <ele>1287.82</ele>
        <time>2015-12-03T11:05:52Z</time>
      </trkpt>
      <trkpt lat="44.50099" lon="5.65465">
        <ele>1284.94</ele>
        <time>2015-12-03T11:06:04Z</time>
      </trkpt>
      <trkpt lat="44.50093" lon="5.65455">
        <ele>1282.06</ele>
        <time>2015-12-03T11:06:17Z</time>
      </trkpt>
      <trkpt lat="44.50088" lon="5.65443">
        <ele>1279.17</ele>
        <time>2015-12-03T11:06:30Z</time>
      </trkpt>
      <trkpt lat="44.50083" lon="5.65434">
        <ele>1275.81</ele>
        <time>2015-12-03T11:06:43Z</time>
      </trkpt>
      <trkpt lat="44.50074" lon="5.65419">
        <ele>1274.36</ele>
        <time>2015-12-03T11:06:57Z</time>
      </trkpt>
      <trkpt lat="44.50065" lon="5.65406">
        <ele>1272.92</ele>
        <time>2015-12-03T11:07:12Z</time>
      </trkpt>
      <trkpt lat="44.5006" lon="5.65406">
        <ele>1271.96</ele>
        <time>2015-12-03T11:07:25Z</time>
      </trkpt>
      <trkpt lat="44.50059" lon="5.65395">
        <ele>1271.48</ele>
        <time>2015-12-03T11:07:38Z</time>
      </trkpt>
      <trkpt lat="44.5006" lon="5.65394">
        <ele>1271.48</ele>
        <time>2015-12-03T11:07:51Z</time>
      </trkpt>
      <trkpt lat="44.50061" lon="5.65394">
        <ele>1271.48</ele>
        <time>2015-12-03T11:08:07Z</time>
      </trkpt>
      <trkpt lat="44.50065" lon="5.65391">
        <ele>1271</ele>
        <time>2015-12-03T11:08:22Z</time>
      </trkpt>
      <trkpt lat="44.50064" lon="5.65393">
        <ele>1271.48</ele>
        <time>2015-12-03T11:08:38Z</time>
      </trkpt>
      <trkpt lat="44.50073" lon="5.65386">
        <ele>1270.52</ele>
        <time>2015-12-03T11:08:51Z</time>
      </trkpt>
      <trkpt lat="44.50079" lon="5.65385">
        <ele>1270.04</ele>
        <time>2015-12-03T11:09:03Z</time>
      </trkpt>
      <trkpt lat="44.50091" lon="5.65378">
        <ele>1269.08</ele>
        <time>2015-12-03T11:09:18Z</time>
      </trkpt>
      <trkpt lat="44.50106" lon="5.65373">
        <ele>1267.64</ele>
        <time>2015-12-03T11:09:35Z</time>
      </trkpt>
      <trkpt lat="44.50111" lon="5.65362">
        <ele>1265.71</ele>
        <time>2015-12-03T11:09:50Z</time>
      </trkpt>
      <trkpt lat="44.50119" lon="5.65359">
        <ele>1265.23</ele>
        <time>2015-12-03T11:10:03Z</time>
      </trkpt>
      <trkpt lat="44.50124" lon="5.65358">
        <ele>1264.75</ele>
        <time>2015-12-03T11:10:10Z</time>
      </trkpt>
      <trkpt lat="44.50133" lon="5.65354">
        <ele>1263.79</ele>
        <time>2015-12-03T11:10:20Z</time>
      </trkpt>
      <trkpt lat="44.50135" lon="5.65355">
        <ele>1263.79</ele>
        <time>2015-12-03T11:10:22Z</time>
      </trkpt>
      <trkpt lat="44.50144" lon="5.65358">
        <ele>1263.79</ele>
        <time>2015-12-03T11:10:37Z</time>
      </trkpt>
      <trkpt lat="44.50144" lon="5.65358">
        <ele>1263.31</ele>
        <time>2015-12-03T11:10:54Z</time>
      </trkpt>
      <trkpt lat="44.50143" lon="5.65358">
        <ele>1262.83</ele>
        <time>2015-12-03T11:11:08Z</time>
      </trkpt>
      <trkpt lat="44.50143" lon="5.65357">
        <ele>1262.83</ele>
        <time>2015-12-03T11:11:24Z</time>
      </trkpt>
      <trkpt lat="44.50144" lon="5.65354">
        <ele>1262.35</ele>
        <time>2015-12-03T11:11:45Z</time>
      </trkpt>
      <trkpt lat="44.50141" lon="5.65359">
        <ele>1262.83</ele>
        <time>2015-12-03T11:12:11Z</time>
      </trkpt>
      <trkpt lat="44.50141" lon="5.65354">
        <ele>1262.35</ele>
        <time>2015-12-03T11:12:27Z</time>
      </trkpt>
      <trkpt lat="44.50143" lon="5.65359">
        <ele>1262.35</ele>
        <time>2015-12-03T11:12:47Z</time>
      </trkpt>
      <trkpt lat="44.50144" lon="5.6536">
        <ele>1262.35</ele>
        <time>2015-12-03T11:13:19Z</time>
      </trkpt>
      <trkpt lat="44.50144" lon="5.65358">
        <ele>1261.87</ele>
        <time>2015-12-03T11:14:01Z</time>
      </trkpt>
      <trkpt lat="44.50144" lon="5.65358">
        <ele>1261.87</ele>
        <time>2015-12-03T11:14:38Z</time>
      </trkpt>
      <trkpt lat="44.50143" lon="5.6536">
        <ele>1261.87</ele>
        <time>2015-12-03T11:15:12Z</time>
      </trkpt>
      <trkpt lat="44.50145" lon="5.65359">
        <ele>1261.87</ele>
        <time>2015-12-03T11:15:46Z</time>
      </trkpt>
      <trkpt lat="44.50145" lon="5.65359">
        <ele>1261.87</ele>
        <time>2015-12-03T11:16:19Z</time>
      </trkpt>
      <trkpt lat="44.50145" lon="5.65358">
        <ele>1261.87</ele>
        <time>2015-12-03T11:16:58Z</time>
      </trkpt>
      <trkpt lat="44.50144" lon="5.65361">
        <ele>1261.39</ele>
        <time>2015-12-03T11:17:23Z</time>
      </trkpt>
      <trkpt lat="44.50145" lon="5.65361">
        <ele>1261.39</ele>
        <time>2015-12-03T11:17:52Z</time>
      </trkpt>
      <trkpt lat="44.50146" lon="5.6536">
        <ele>1261.39</ele>
        <time>2015-12-03T11:18:28Z</time>
      </trkpt>
      <trkpt lat="44.50143" lon="5.65361">
        <ele>1261.39</ele>
        <time>2015-12-03T11:19:00Z</time>
      </trkpt>
      <trkpt lat="44.50143" lon="5.6536">
        <ele>1261.39</ele>
        <time>2015-12-03T11:19:30Z</time>
      </trkpt>
      <trkpt lat="44.50144" lon="5.65361">
        <ele>1261.39</ele>
        <time>2015-12-03T11:19:58Z</time>
      </trkpt>
      <trkpt lat="44.50143" lon="5.65357">
        <ele>1261.39</ele>
        <time>2015-12-03T11:20:31Z</time>
      </trkpt>
      <trkpt lat="44.50142" lon="5.6536">
        <ele>1261.39</ele>
        <time>2015-12-03T11:21:02Z</time>
      </trkpt>
      <trkpt lat="44.50142" lon="5.6536">
        <ele>1261.39</ele>
        <time>2015-12-03T11:21:23Z</time>
      </trkpt>
      <trkpt lat="44.50143" lon="5.65358">
        <ele>1260.91</ele>
        <time>2015-12-03T11:21:49Z</time>
      </trkpt>
      <trkpt lat="44.50145" lon="5.65361">
        <ele>1261.39</ele>
        <time>2015-12-03T11:22:21Z</time>
      </trkpt>
      <trkpt lat="44.50143" lon="5.65361">
        <ele>1261.39</ele>
        <time>2015-12-03T11:22:59Z</time>
      </trkpt>
      <trkpt lat="44.50144" lon="5.6536">
        <ele>1261.39</ele>
        <time>2015-12-03T11:23:24Z</time>
      </trkpt>
      <trkpt lat="44.50144" lon="5.65358">
        <ele>1261.39</ele>
        <time>2015-12-03T11:24:00Z</time>
      </trkpt>
      <trkpt lat="44.50145" lon="5.65359">
        <ele>1261.39</ele>
        <time>2015-12-03T11:24:24Z</time>
      </trkpt>
      <trkpt lat="44.50143" lon="5.6536">
        <ele>1261.39</ele>
        <time>2015-12-03T11:24:56Z</time>
      </trkpt>
      <trkpt lat="44.50144" lon="5.6536">
        <ele>1261.39</ele>
        <time>2015-12-03T11:25:25Z</time>
      </trkpt>
      <trkpt lat="44.50143" lon="5.65359">
        <ele>1261.39</ele>
        <time>2015-12-03T11:25:41Z</time>
      </trkpt>
      <trkpt lat="44.50142" lon="5.65359">
        <ele>1261.39</ele>
        <time>2015-12-03T11:26:09Z</time>
      </trkpt>
      <trkpt lat="44.50142" lon="5.6536">
        <ele>1261.39</ele>
        <time>2015-12-03T11:26:43Z</time>
      </trkpt>
      <trkpt lat="44.50143" lon="5.6536">
        <ele>1261.39</ele>
        <time>2015-12-03T11:27:07Z</time>
      </trkpt>
      <trkpt lat="44.50143" lon="5.6536">
        <ele>1261.39</ele>
        <time>2015-12-03T11:27:42Z</time>
      </trkpt>
      <trkpt lat="44.50144" lon="5.6536">
        <ele>1261.39</ele>
        <time>2015-12-03T11:28:18Z</time>
      </trkpt>
      <trkpt lat="44.50141" lon="5.65359">
        <ele>1261.87</ele>
        <time>2015-12-03T11:28:47Z</time>
      </trkpt>
      <trkpt lat="44.50142" lon="5.65359">
        <ele>1261.87</ele>
        <time>2015-12-03T11:29:16Z</time>
      </trkpt>
      <trkpt lat="44.50143" lon="5.65361">
        <ele>1261.87</ele>
        <time>2015-12-03T11:29:48Z</time>
      </trkpt>
      <trkpt lat="44.50144" lon="5.65363">
        <ele>1261.87</ele>
        <time>2015-12-03T11:30:19Z</time>
      </trkpt>
      <trkpt lat="44.50144" lon="5.65359">
        <ele>1261.87</ele>
        <time>2015-12-03T11:30:48Z</time>
      </trkpt>
      <trkpt lat="44.50142" lon="5.65362">
        <ele>1261.87</ele>
        <time>2015-12-03T11:31:19Z</time>
      </trkpt>
      <trkpt lat="44.50142" lon="5.6536">
        <ele>1261.87</ele>
        <time>2015-12-03T11:31:44Z</time>
      </trkpt>
      <trkpt lat="44.50144" lon="5.65359">
        <ele>1261.87</ele>
        <time>2015-12-03T11:32:12Z</time>
      </trkpt>
      <trkpt lat="44.50143" lon="5.6536">
        <ele>1262.35</ele>
        <time>2015-12-03T11:32:50Z</time>
      </trkpt>
      <trkpt lat="44.50143" lon="5.65361">
        <ele>1261.87</ele>
        <time>2015-12-03T11:33:22Z</time>
      </trkpt>
      <trkpt lat="44.50143" lon="5.65358">
        <ele>1261.87</ele>
        <time>2015-12-03T11:33:51Z</time>
      </trkpt>
      <trkpt lat="44.50143" lon="5.65362">
        <ele>1261.87</ele>
        <time>2015-12-03T11:34:26Z</time>
      </trkpt>
      <trkpt lat="44.50144" lon="5.65357">
        <ele>1261.87</ele>
        <time>2015-12-03T11:35:00Z</time>
      </trkpt>
      <trkpt lat="44.50144" lon="5.65359">
        <ele>1261.87</ele>
        <time>2015-12-03T11:35:36Z</time>
      </trkpt>
      <trkpt lat="44.50144" lon="5.65359">
        <ele>1261.87</ele>
        <time>2015-12-03T11:36:17Z</time>
      </trkpt>
      <trkpt lat="44.50144" lon="5.6536">
        <ele>1261.87</ele>
        <time>2015-12-03T11:36:53Z</time>
      </trkpt>
      <trkpt lat="44.50143" lon="5.65358">
        <ele>1261.87</ele>
        <time>2015-12-03T11:37:31Z</time>
      </trkpt>
      <trkpt lat="44.50143" lon="5.65359">
        <ele>1261.87</ele>
        <time>2015-12-03T11:38:02Z</time>
      </trkpt>
      <trkpt lat="44.50144" lon="5.65358">
        <ele>1262.35</ele>
        <time>2015-12-03T11:38:38Z</time>
      </trkpt>
      <trkpt lat="44.50143" lon="5.65357">
        <ele>1262.35</ele>
        <time>2015-12-03T11:39:10Z</time>
      </trkpt>
      <trkpt lat="44.50145" lon="5.65359">
        <ele>1261.87</ele>
        <time>2015-12-03T11:39:44Z</time>
      </trkpt>
      <trkpt lat="44.50145" lon="5.6536">
        <ele>1261.87</ele>
        <time>2015-12-03T11:40:07Z</time>
      </trkpt>
      <trkpt lat="44.50146" lon="5.65358">
        <ele>1261.87</ele>
        <time>2015-12-03T11:40:39Z</time>
      </trkpt>
      <trkpt lat="44.50144" lon="5.65358">
        <ele>1262.35</ele>
        <time>2015-12-03T11:41:11Z</time>
      </trkpt>
      <trkpt lat="44.50144" lon="5.65361">
        <ele>1262.35</ele>
        <time>2015-12-03T11:41:45Z</time>
      </trkpt>
      <trkpt lat="44.50144" lon="5.65359">
        <ele>1262.35</ele>
        <time>2015-12-03T11:42:08Z</time>
      </trkpt>
      <trkpt lat="44.50145" lon="5.6536">
        <ele>1262.35</ele>
        <time>2015-12-03T11:42:38Z</time>
      </trkpt>
      <trkpt lat="44.50143" lon="5.65361">
        <ele>1262.35</ele>
        <time>2015-12-03T11:43:05Z</time>
      </trkpt>
      <trkpt lat="44.50143" lon="5.6536">
        <ele>1262.35</ele>
        <time>2015-12-03T11:43:31Z</time>
      </trkpt>
      <trkpt lat="44.50145" lon="5.6536">
        <ele>1262.35</ele>
        <time>2015-12-03T11:44:01Z</time>
      </trkpt>
      <trkpt lat="44.50144" lon="5.65363">
        <ele>1262.35</ele>
        <time>2015-12-03T11:44:35Z</time>
      </trkpt>
      <trkpt lat="44.50144" lon="5.65361">
        <ele>1262.35</ele>
        <time>2015-12-03T11:45:01Z</time>
      </trkpt>
      <trkpt lat="44.50143" lon="5.65359">
        <ele>1262.35</ele>
        <time>2015-12-03T11:45:30Z</time>
      </trkpt>
      <trkpt lat="44.50144" lon="5.65361">
        <ele>1262.83</ele>
        <time>2015-12-03T11:45:59Z</time>
      </trkpt>
      <trkpt lat="44.50144" lon="5.6536">
        <ele>1262.35</ele>
        <time>2015-12-03T11:46:28Z</time>
      </trkpt>
      <trkpt lat="44.50144" lon="5.65362">
        <ele>1262.35</ele>
        <time>2015-12-03T11:47:02Z</time>
      </trkpt>
      <trkpt lat="44.50144" lon="5.65359">
        <ele>1262.35</ele>
        <time>2015-12-03T11:47:40Z</time>
      </trkpt>
      <trkpt lat="44.50143" lon="5.6536">
        <ele>1262.35</ele>
        <time>2015-12-03T11:48:07Z</time>
      </trkpt>
      <trkpt lat="44.50142" lon="5.65359">
        <ele>1262.35</ele>
        <time>2015-12-03T11:48:44Z</time>
      </trkpt>
      <trkpt lat="44.50145" lon="5.65362">
        <ele>1262.83</ele>
        <time>2015-12-03T11:49:14Z</time>
      </trkpt>
      <trkpt lat="44.50144" lon="5.6536">
        <ele>1262.83</ele>
        <time>2015-12-03T11:49:46Z</time>
      </trkpt>
      <trkpt lat="44.50146" lon="5.65361">
        <ele>1262.83</ele>
        <time>2015-12-03T11:50:28Z</time>
      </trkpt>
      <trkpt lat="44.50145" lon="5.65361">
        <ele>1262.83</ele>
        <time>2015-12-03T11:50:59Z</time>
      </trkpt>
      <trkpt lat="44.50142" lon="5.65362">
        <ele>1262.83</ele>
        <time>2015-12-03T11:51:29Z</time>
      </trkpt>
      <trkpt lat="44.50144" lon="5.65362">
        <ele>1262.83</ele>
        <time>2015-12-03T11:51:55Z</time>
      </trkpt>
      <trkpt lat="44.50144" lon="5.65363">
        <ele>1262.83</ele>
        <time>2015-12-03T11:52:27Z</time>
      </trkpt>
      <trkpt lat="44.50144" lon="5.65365">
        <ele>1263.31</ele>
        <time>2015-12-03T11:52:52Z</time>
      </trkpt>
      <trkpt lat="44.50145" lon="5.65362">
        <ele>1263.31</ele>
        <time>2015-12-03T11:53:25Z</time>
      </trkpt>
      <trkpt lat="44.50144" lon="5.65361">
        <ele>1263.31</ele>
        <time>2015-12-03T11:54:06Z</time>
      </trkpt>
      <trkpt lat="44.50143" lon="5.65361">
        <ele>1263.31</ele>
        <time>2015-12-03T11:54:38Z</time>
      </trkpt>
      <trkpt lat="44.50147" lon="5.65361">
        <ele>1263.31</ele>
        <time>2015-12-03T11:55:02Z</time>
      </trkpt>
      <trkpt lat="44.50146" lon="5.65361">
        <ele>1263.31</ele>
        <time>2015-12-03T11:55:44Z</time>
      </trkpt>
      <trkpt lat="44.50144" lon="5.65362">
        <ele>1263.31</ele>
        <time>2015-12-03T11:56:17Z</time>
      </trkpt>
      <trkpt lat="44.50145" lon="5.65361">
        <ele>1263.31</ele>
        <time>2015-12-03T11:56:41Z</time>
      </trkpt>
      <trkpt lat="44.50146" lon="5.65361">
        <ele>1263.31</ele>
        <time>2015-12-03T11:57:16Z</time>
      </trkpt>
      <trkpt lat="44.50146" lon="5.65358">
        <ele>1263.31</ele>
        <time>2015-12-03T11:57:49Z</time>
      </trkpt>
      <trkpt lat="44.50147" lon="5.65359">
        <ele>1263.31</ele>
        <time>2015-12-03T11:58:12Z</time>
      </trkpt>
      <trkpt lat="44.50146" lon="5.65357">
        <ele>1263.31</ele>
        <time>2015-12-03T11:58:41Z</time>
      </trkpt>
      <trkpt lat="44.50146" lon="5.65355">
        <ele>1263.31</ele>
        <time>2015-12-03T11:59:05Z</time>
      </trkpt>
      <trkpt lat="44.50148" lon="5.65355">
        <ele>1263.31</ele>
        <time>2015-12-03T11:59:31Z</time>
      </trkpt>
      <trkpt lat="44.50149" lon="5.65359">
        <ele>1263.31</ele>
        <time>2015-12-03T11:59:50Z</time>
      </trkpt>
      <trkpt lat="44.50149" lon="5.65361">
        <ele>1263.31</ele>
        <time>2015-12-03T12:00:18Z</time>
      </trkpt>
      <trkpt lat="44.50146" lon="5.6536">
        <ele>1262.83</ele>
        <time>2015-12-03T12:00:56Z</time>
      </trkpt>
      <trkpt lat="44.50145" lon="5.65362">
        <ele>1262.83</ele>
        <time>2015-12-03T12:01:25Z</time>
      </trkpt>
      <trkpt lat="44.50144" lon="5.65362">
        <ele>1262.83</ele>
        <time>2015-12-03T12:01:58Z</time>
      </trkpt>
      <trkpt lat="44.50146" lon="5.65359">
        <ele>1262.83</ele>
        <time>2015-12-03T12:02:31Z</time>
      </trkpt>
      <trkpt lat="44.50146" lon="5.65359">
        <ele>1262.83</ele>
        <time>2015-12-03T12:03:14Z</time>
      </trkpt>
      <trkpt lat="44.50147" lon="5.65357">
        <ele>1262.35</ele>
        <time>2015-12-03T12:03:46Z</time>
      </trkpt>
      <trkpt lat="44.50148" lon="5.65358">
        <ele>1262.35</ele>
        <time>2015-12-03T12:04:28Z</time>
      </trkpt>
      <trkpt lat="44.50145" lon="5.6536">
        <ele>1262.35</ele>
        <time>2015-12-03T12:05:02Z</time>
      </trkpt>
      <trkpt lat="44.50147" lon="5.65361">
        <ele>1261.87</ele>
        <time>2015-12-03T12:05:36Z</time>
      </trkpt>
      <trkpt lat="44.50147" lon="5.65361">
        <ele>1261.87</ele>
        <time>2015-12-03T12:06:13Z</time>
      </trkpt>
      <trkpt lat="44.50146" lon="5.65359">
        <ele>1261.87</ele>
        <time>2015-12-03T12:06:43Z</time>
      </trkpt>
      <trkpt lat="44.50146" lon="5.65359">
        <ele>1261.39</ele>
        <time>2015-12-03T12:07:22Z</time>
      </trkpt>
      <trkpt lat="44.50146" lon="5.65361">
        <ele>1261.39</ele>
        <time>2015-12-03T12:07:54Z</time>
      </trkpt>
      <trkpt lat="44.50144" lon="5.6536">
        <ele>1260.91</ele>
        <time>2015-12-03T12:08:23Z</time>
      </trkpt>
      <trkpt lat="44.50145" lon="5.65359">
        <ele>1260.91</ele>
        <time>2015-12-03T12:09:11Z</time>
      </trkpt>
      <trkpt lat="44.50146" lon="5.6536">
        <ele>1260.91</ele>
        <time>2015-12-03T12:09:47Z</time>
      </trkpt>
      <trkpt lat="44.50146" lon="5.65359">
        <ele>1260.91</ele>
        <time>2015-12-03T12:10:24Z</time>
      </trkpt>
      <trkpt lat="44.50146" lon="5.65359">
        <ele>1260.91</ele>
        <time>2015-12-03T12:11:02Z</time>
      </trkpt>
      <trkpt lat="44.50144" lon="5.65362">
        <ele>1260.43</ele>
        <time>2015-12-03T12:11:42Z</time>
      </trkpt>
      <trkpt lat="44.50146" lon="5.65362">
        <ele>1260.43</ele>
        <time>2015-12-03T12:12:14Z</time>
      </trkpt>
      <trkpt lat="44.50145" lon="5.65361">
        <ele>1260.43</ele>
        <time>2015-12-03T12:12:31Z</time>
      </trkpt>
      <trkpt lat="44.50143" lon="5.65362">
        <ele>1261.39</ele>
        <time>2015-12-03T12:12:40Z</time>
      </trkpt>
      <trkpt lat="44.50144" lon="5.65358">
        <ele>1261.87</ele>
        <time>2015-12-03T12:12:53Z</time>
      </trkpt>
      <trkpt lat="44.50143" lon="5.65359">
        <ele>1261.39</ele>
        <time>2015-12-03T12:13:14Z</time>
      </trkpt>
      <trkpt lat="44.50146" lon="5.6536">
        <ele>1261.39</ele>
        <time>2015-12-03T12:13:32Z</time>
      </trkpt>
      <trkpt lat="44.50145" lon="5.65363">
        <ele>1262.35</ele>
        <time>2015-12-03T12:13:43Z</time>
      </trkpt>
      <trkpt lat="44.50145" lon="5.65366">
        <ele>1263.31</ele>
        <time>2015-12-03T12:13:57Z</time>
      </trkpt>
      <trkpt lat="44.50139" lon="5.65369">
        <ele>1263.79</ele>
        <time>2015-12-03T12:14:11Z</time>
      </trkpt>
      <trkpt lat="44.50129" lon="5.65372">
        <ele>1264.27</ele>
        <time>2015-12-03T12:14:24Z</time>
      </trkpt>
      <trkpt lat="44.50117" lon="5.65374">
        <ele>1265.23</ele>
        <time>2015-12-03T12:14:39Z</time>
      </trkpt>
      <trkpt lat="44.50113" lon="5.65374">
        <ele>1265.71</ele>
        <time>2015-12-03T12:14:44Z</time>
      </trkpt>
      <trkpt lat="44.50111" lon="5.65375">
        <ele>1265.71</ele>
        <time>2015-12-03T12:14:46Z</time>
      </trkpt>
      <trkpt lat="44.501" lon="5.65377">
        <ele>1266.19</ele>
        <time>2015-12-03T12:14:58Z</time>
      </trkpt>
      <trkpt lat="44.50087" lon="5.65383">
        <ele>1267.16</ele>
        <time>2015-12-03T12:15:12Z</time>
      </trkpt>
      <trkpt lat="44.50074" lon="5.6539">
        <ele>1267.64</ele>
        <time>2015-12-03T12:15:27Z</time>
      </trkpt>
      <trkpt lat="44.50062" lon="5.65398">
        <ele>1268.6</ele>
        <time>2015-12-03T12:15:43Z</time>
      </trkpt>
      <trkpt lat="44.50055" lon="5.65402">
        <ele>1268.6</ele>
        <time>2015-12-03T12:15:57Z</time>
      </trkpt>
      <trkpt lat="44.50051" lon="5.654">
        <ele>1268.6</ele>
        <time>2015-12-03T12:16:10Z</time>
      </trkpt>
      <trkpt lat="44.50049" lon="5.65399">
        <ele>1268.6</ele>
        <time>2015-12-03T12:16:26Z</time>
      </trkpt>
      <trkpt lat="44.50046" lon="5.65394">
        <ele>1268.6</ele>
        <time>2015-12-03T12:16:40Z</time>
      </trkpt>
      <trkpt lat="44.50048" lon="5.65387">
        <ele>1270.04</ele>
        <time>2015-12-03T12:16:51Z</time>
      </trkpt>
      <trkpt lat="44.50048" lon="5.6538">
        <ele>1270.52</ele>
        <time>2015-12-03T12:17:02Z</time>
      </trkpt>
      <trkpt lat="44.50047" lon="5.65376">
        <ele>1271.48</ele>
        <time>2015-12-03T12:17:12Z</time>
      </trkpt>
      <trkpt lat="44.50045" lon="5.65367">
        <ele>1273.4</ele>
        <time>2015-12-03T12:17:25Z</time>
      </trkpt>
      <trkpt lat="44.50041" lon="5.65361">
        <ele>1275.33</ele>
        <time>2015-12-03T12:17:37Z</time>
      </trkpt>
      <trkpt lat="44.50036" lon="5.65355">
        <ele>1277.73</ele>
        <time>2015-12-03T12:17:51Z</time>
      </trkpt>
      <trkpt lat="44.50033" lon="5.65349">
        <ele>1278.21</ele>
        <time>2015-12-03T12:18:05Z</time>
      </trkpt>
      <trkpt lat="44.50031" lon="5.65348">
        <ele>1278.21</ele>
        <time>2015-12-03T12:18:07Z</time>
      </trkpt>
      <trkpt lat="44.5003" lon="5.65347">
        <ele>1278.21</ele>
        <time>2015-12-03T12:18:09Z</time>
      </trkpt>
      <trkpt lat="44.50025" lon="5.65322">
        <ele>1276.77</ele>
        <time>2015-12-03T12:18:27Z</time>
      </trkpt>
      <trkpt lat="44.50019" lon="5.65308">
        <ele>1278.21</ele>
        <time>2015-12-03T12:18:42Z</time>
      </trkpt>
      <trkpt lat="44.50019" lon="5.65307">
        <ele>1277.73</ele>
        <time>2015-12-03T12:18:43Z</time>
      </trkpt>
      <trkpt lat="44.50008" lon="5.65297">
        <ele>1279.65</ele>
        <time>2015-12-03T12:18:58Z</time>
      </trkpt>
      <trkpt lat="44.49998" lon="5.65292">
        <ele>1281.57</ele>
        <time>2015-12-03T12:19:13Z</time>
      </trkpt>
      <trkpt lat="44.49989" lon="5.65287">
        <ele>1283.02</ele>
        <time>2015-12-03T12:19:27Z</time>
      </trkpt>
      <trkpt lat="44.49981" lon="5.65279">
        <ele>1285.42</ele>
        <time>2015-12-03T12:19:44Z</time>
      </trkpt>
      <trkpt lat="44.49974" lon="5.65274">
        <ele>1286.86</ele>
        <time>2015-12-03T12:20:00Z</time>
      </trkpt>
      <trkpt lat="44.4997" lon="5.65266">
        <ele>1288.78</ele>
        <time>2015-12-03T12:20:14Z</time>
      </trkpt>
      <trkpt lat="44.49973" lon="5.65259">
        <ele>1290.71</ele>
        <time>2015-12-03T12:20:25Z</time>
      </trkpt>
      <trkpt lat="44.49977" lon="5.65247">
        <ele>1292.63</ele>
        <time>2015-12-03T12:20:40Z</time>
      </trkpt>
      <trkpt lat="44.4998" lon="5.6524">
        <ele>1294.07</ele>
        <time>2015-12-03T12:20:52Z</time>
      </trkpt>
      <trkpt lat="44.4998" lon="5.65234">
        <ele>1295.99</ele>
        <time>2015-12-03T12:21:09Z</time>
      </trkpt>
      <trkpt lat="44.49973" lon="5.65234">
        <ele>1297.92</ele>
        <time>2015-12-03T12:21:24Z</time>
      </trkpt>
      <trkpt lat="44.49967" lon="5.65237">
        <ele>1298.88</ele>
        <time>2015-12-03T12:21:40Z</time>
      </trkpt>
      <trkpt lat="44.49961" lon="5.65239">
        <ele>1300.32</ele>
        <time>2015-12-03T12:21:55Z</time>
      </trkpt>
      <trkpt lat="44.49956" lon="5.65239">
        <ele>1302.24</ele>
        <time>2015-12-03T12:22:05Z</time>
      </trkpt>
      <trkpt lat="44.49949" lon="5.65242">
        <ele>1304.17</ele>
        <time>2015-12-03T12:22:20Z</time>
      </trkpt>
      <trkpt lat="44.4994" lon="5.65242">
        <ele>1305.61</ele>
        <time>2015-12-03T12:22:33Z</time>
      </trkpt>
      <trkpt lat="44.49936" lon="5.65243">
        <ele>1307.05</ele>
        <time>2015-12-03T12:22:45Z</time>
      </trkpt>
      <trkpt lat="44.49932" lon="5.6524">
        <ele>1308.97</ele>
        <time>2015-12-03T12:22:58Z</time>
      </trkpt>
      <trkpt lat="44.49927" lon="5.65235">
        <ele>1310.9</ele>
        <time>2015-12-03T12:23:11Z</time>
      </trkpt>
      <trkpt lat="44.49927" lon="5.65229">
        <ele>1312.34</ele>
        <time>2015-12-03T12:23:24Z</time>
      </trkpt>
      <trkpt lat="44.49926" lon="5.65223">
        <ele>1314.74</ele>
        <time>2015-12-03T12:23:41Z</time>
      </trkpt>
      <trkpt lat="44.49923" lon="5.65221">
        <ele>1316.18</ele>
        <time>2015-12-03T12:23:54Z</time>
      </trkpt>
      <trkpt lat="44.49922" lon="5.65217">
        <ele>1317.62</ele>
        <time>2015-12-03T12:24:05Z</time>
      </trkpt>
      <trkpt lat="44.49925" lon="5.65212">
        <ele>1319.55</ele>
        <time>2015-12-03T12:24:26Z</time>
      </trkpt>
      <trkpt lat="44.49927" lon="5.65208">
        <ele>1320.99</ele>
        <time>2015-12-03T12:24:43Z</time>
      </trkpt>
      <trkpt lat="44.49928" lon="5.65202">
        <ele>1322.43</ele>
        <time>2015-12-03T12:25:00Z</time>
      </trkpt>
      <trkpt lat="44.49928" lon="5.65199">
        <ele>1323.87</ele>
        <time>2015-12-03T12:25:15Z</time>
      </trkpt>
      <trkpt lat="44.49928" lon="5.65191">
        <ele>1326.28</ele>
        <time>2015-12-03T12:25:30Z</time>
      </trkpt>
      <trkpt lat="44.49926" lon="5.65186">
        <ele>1328.2</ele>
        <time>2015-12-03T12:25:45Z</time>
      </trkpt>
      <trkpt lat="44.49923" lon="5.65179">
        <ele>1331.08</ele>
        <time>2015-12-03T12:26:01Z</time>
      </trkpt>
      <trkpt lat="44.49921" lon="5.65169">
        <ele>1333.49</ele>
        <time>2015-12-03T12:26:16Z</time>
      </trkpt>
      <trkpt lat="44.4992" lon="5.65159">
        <ele>1335.89</ele>
        <time>2015-12-03T12:26:32Z</time>
      </trkpt>
      <trkpt lat="44.49921" lon="5.65144">
        <ele>1336.85</ele>
        <time>2015-12-03T12:26:45Z</time>
      </trkpt>
      <trkpt lat="44.49916" lon="5.65131">
        <ele>1338.29</ele>
        <time>2015-12-03T12:26:57Z</time>
      </trkpt>
      <trkpt lat="44.4991" lon="5.65122">
        <ele>1338.77</ele>
        <time>2015-12-03T12:27:06Z</time>
      </trkpt>
      <trkpt lat="44.49909" lon="5.65119">
        <ele>1338.77</ele>
        <time>2015-12-03T12:27:08Z</time>
      </trkpt>
      <trkpt lat="44.49897" lon="5.65111">
        <ele>1340.7</ele>
        <time>2015-12-03T12:27:23Z</time>
      </trkpt>
      <trkpt lat="44.49888" lon="5.65113">
        <ele>1342.62</ele>
        <time>2015-12-03T12:27:40Z</time>
      </trkpt>
      <trkpt lat="44.49883" lon="5.65111">
        <ele>1344.06</ele>
        <time>2015-12-03T12:27:52Z</time>
      </trkpt>
      <trkpt lat="44.49875" lon="5.65109">
        <ele>1345.5</ele>
        <time>2015-12-03T12:28:05Z</time>
      </trkpt>
      <trkpt lat="44.49872" lon="5.65096">
        <ele>1348.39</ele>
        <time>2015-12-03T12:28:23Z</time>
      </trkpt>
      <trkpt lat="44.49873" lon="5.6509">
        <ele>1350.31</ele>
        <time>2015-12-03T12:28:36Z</time>
      </trkpt>
      <trkpt lat="44.49877" lon="5.65083">
        <ele>1352.71</ele>
        <time>2015-12-03T12:28:55Z</time>
      </trkpt>
      <trkpt lat="44.49883" lon="5.65079">
        <ele>1355.12</ele>
        <time>2015-12-03T12:29:12Z</time>
      </trkpt>
      <trkpt lat="44.49887" lon="5.65077">
        <ele>1357.04</ele>
        <time>2015-12-03T12:29:26Z</time>
      </trkpt>
      <trkpt lat="44.49891" lon="5.65074">
        <ele>1358</ele>
        <time>2015-12-03T12:29:38Z</time>
      </trkpt>
      <trkpt lat="44.49896" lon="5.6507">
        <ele>1360.4</ele>
        <time>2015-12-03T12:29:52Z</time>
      </trkpt>
      <trkpt lat="44.499" lon="5.65067">
        <ele>1362.33</ele>
        <time>2015-12-03T12:30:07Z</time>
      </trkpt>
      <trkpt lat="44.49903" lon="5.65063">
        <ele>1364.25</ele>
        <time>2015-12-03T12:30:20Z</time>
      </trkpt>
      <trkpt lat="44.49909" lon="5.65049">
        <ele>1366.65</ele>
        <time>2015-12-03T12:30:37Z</time>
      </trkpt>
      <trkpt lat="44.49913" lon="5.6504">
        <ele>1367.13</ele>
        <time>2015-12-03T12:30:47Z</time>
      </trkpt>
      <trkpt lat="44.49918" lon="5.65023">
        <ele>1366.17</ele>
        <time>2015-12-03T12:31:02Z</time>
      </trkpt>
      <trkpt lat="44.4992" lon="5.65008">
        <ele>1364.73</ele>
        <time>2015-12-03T12:31:16Z</time>
      </trkpt>
      <trkpt lat="44.49923" lon="5.64997">
        <ele>1363.77</ele>
        <time>2015-12-03T12:31:29Z</time>
      </trkpt>
      <trkpt lat="44.49927" lon="5.64987">
        <ele>1361.84</ele>
        <time>2015-12-03T12:31:42Z</time>
      </trkpt>
      <trkpt lat="44.49931" lon="5.64976">
        <ele>1360.4</ele>
        <time>2015-12-03T12:31:56Z</time>
      </trkpt>
      <trkpt lat="44.49931" lon="5.64972">
        <ele>1359.92</ele>
        <time>2015-12-03T12:32:11Z</time>
      </trkpt>
      <trkpt lat="44.49931" lon="5.64964">
        <ele>1358</ele>
        <time>2015-12-03T12:32:29Z</time>
      </trkpt>
      <trkpt lat="44.49937" lon="5.64949">
        <ele>1355.12</ele>
        <time>2015-12-03T12:32:43Z</time>
      </trkpt>
      <trkpt lat="44.4994" lon="5.64929">
        <ele>1352.71</ele>
        <time>2015-12-03T12:32:58Z</time>
      </trkpt>
      <trkpt lat="44.4994" lon="5.64917">
        <ele>1349.83</ele>
        <time>2015-12-03T12:33:09Z</time>
      </trkpt>
      <trkpt lat="44.4994" lon="5.64909">
        <ele>1349.35</ele>
        <time>2015-12-03T12:33:14Z</time>
      </trkpt>
      <trkpt lat="44.49944" lon="5.64904">
        <ele>1349.35</ele>
        <time>2015-12-03T12:33:18Z</time>
      </trkpt>
      <trkpt lat="44.49944" lon="5.64898">
        <ele>1348.87</ele>
        <time>2015-12-03T12:33:21Z</time>
      </trkpt>
      <trkpt lat="44.49952" lon="5.64881">
        <ele>1349.35</ele>
        <time>2015-12-03T12:33:35Z</time>
      </trkpt>
      <trkpt lat="44.49955" lon="5.6487">
        <ele>1350.31</ele>
        <time>2015-12-03T12:33:51Z</time>
      </trkpt>
      <trkpt lat="44.4996" lon="5.64863">
        <ele>1351.75</ele>
        <time>2015-12-03T12:34:03Z</time>
      </trkpt>
      <trkpt lat="44.49964" lon="5.64855">
        <ele>1354.63</ele>
        <time>2015-12-03T12:34:18Z</time>
      </trkpt>
      <trkpt lat="44.4997" lon="5.64851">
        <ele>1356.56</ele>
        <time>2015-12-03T12:34:31Z</time>
      </trkpt>
      <trkpt lat="44.49973" lon="5.64848">
        <ele>1359.44</ele>
        <time>2015-12-03T12:34:46Z</time>
      </trkpt>
      <trkpt lat="44.49976" lon="5.64841">
        <ele>1361.36</ele>
        <time>2015-12-03T12:35:02Z</time>
      </trkpt>
      <trkpt lat="44.49979" lon="5.64836">
        <ele>1363.29</ele>
        <time>2015-12-03T12:35:17Z</time>
      </trkpt>
      <trkpt lat="44.49982" lon="5.64833">
        <ele>1366.17</ele>
        <time>2015-12-03T12:35:31Z</time>
      </trkpt>
      <trkpt lat="44.49984" lon="5.64825">
        <ele>1368.09</ele>
        <time>2015-12-03T12:35:45Z</time>
      </trkpt>
      <trkpt lat="44.49987" lon="5.64816">
        <ele>1369.54</ele>
        <time>2015-12-03T12:35:59Z</time>
      </trkpt>
      <trkpt lat="44.49992" lon="5.64814">
        <ele>1371.94</ele>
        <time>2015-12-03T12:36:13Z</time>
      </trkpt>
      <trkpt lat="44.49992" lon="5.64802">
        <ele>1373.86</ele>
        <time>2015-12-03T12:36:28Z</time>
      </trkpt>
      <trkpt lat="44.49998" lon="5.64794">
        <ele>1376.75</ele>
        <time>2015-12-03T12:36:43Z</time>
      </trkpt>
      <trkpt lat="44.50005" lon="5.64784">
        <ele>1378.19</ele>
        <time>2015-12-03T12:36:58Z</time>
      </trkpt>
      <trkpt lat="44.50011" lon="5.64776">
        <ele>1378.19</ele>
        <time>2015-12-03T12:37:14Z</time>
      </trkpt>
      <trkpt lat="44.50013" lon="5.64775">
        <ele>1378.19</ele>
        <time>2015-12-03T12:37:35Z</time>
      </trkpt>
      <trkpt lat="44.50016" lon="5.64769">
        <ele>1378.67</ele>
        <time>2015-12-03T12:37:50Z</time>
      </trkpt>
      <trkpt lat="44.50022" lon="5.64757">
        <ele>1378.19</ele>
        <time>2015-12-03T12:38:04Z</time>
      </trkpt>
      <trkpt lat="44.50024" lon="5.64752">
        <ele>1377.23</ele>
        <time>2015-12-03T12:38:16Z</time>
      </trkpt>
      <trkpt lat="44.50027" lon="5.64745">
        <ele>1376.26</ele>
        <time>2015-12-03T12:38:26Z</time>
      </trkpt>
      <trkpt lat="44.50031" lon="5.64736">
        <ele>1373.86</ele>
        <time>2015-12-03T12:38:38Z</time>
      </trkpt>
      <trkpt lat="44.50041" lon="5.64728">
        <ele>1373.38</ele>
        <time>2015-12-03T12:38:54Z</time>
      </trkpt>
      <trkpt lat="44.50049" lon="5.64715">
        <ele>1371.94</ele>
        <time>2015-12-03T12:39:11Z</time>
      </trkpt>
      <trkpt lat="44.5005" lon="5.64703">
        <ele>1370.98</ele>
        <time>2015-12-03T12:39:25Z</time>
      </trkpt>
      <trkpt lat="44.50058" lon="5.64688">
        <ele>1370.98</ele>
        <time>2015-12-03T12:39:39Z</time>
      </trkpt>
      <trkpt lat="44.50061" lon="5.64672">
        <ele>1370.5</ele>
        <time>2015-12-03T12:39:54Z</time>
      </trkpt>
      <trkpt lat="44.50069" lon="5.64653">
        <ele>1371.46</ele>
        <time>2015-12-03T12:40:09Z</time>
      </trkpt>
      <trkpt lat="44.50077" lon="5.64641">
        <ele>1371.46</ele>
        <time>2015-12-03T12:40:24Z</time>
      </trkpt>
      <trkpt lat="44.50078" lon="5.64638">
        <ele>1370.98</ele>
        <time>2015-12-03T12:40:27Z</time>
      </trkpt>
      <trkpt lat="44.50084" lon="5.6462">
        <ele>1370.02</ele>
        <time>2015-12-03T12:40:41Z</time>
      </trkpt>
      <trkpt lat="44.50091" lon="5.64606">
        <ele>1369.54</ele>
        <time>2015-12-03T12:40:56Z</time>
      </trkpt>
      <trkpt lat="44.50096" lon="5.64596">
        <ele>1369.54</ele>
        <time>2015-12-03T12:41:06Z</time>
      </trkpt>
      <trkpt lat="44.50106" lon="5.64582">
        <ele>1371.46</ele>
        <time>2015-12-03T12:41:22Z</time>
      </trkpt>
      <trkpt lat="44.50106" lon="5.64581">
        <ele>1371.46</ele>
        <time>2015-12-03T12:41:23Z</time>
      </trkpt>
      <trkpt lat="44.50112" lon="5.6457">
        <ele>1371.94</ele>
        <time>2015-12-03T12:41:33Z</time>
      </trkpt>
      <trkpt lat="44.50121" lon="5.64556">
        <ele>1370.5</ele>
        <time>2015-12-03T12:41:50Z</time>
      </trkpt>
      <trkpt lat="44.5013" lon="5.64542">
        <ele>1369.54</ele>
        <time>2015-12-03T12:42:05Z</time>
      </trkpt>
      <trkpt lat="44.50141" lon="5.64523">
        <ele>1370.02</ele>
        <time>2015-12-03T12:42:20Z</time>
      </trkpt>
      <trkpt lat="44.50151" lon="5.64509">
        <ele>1369.05</ele>
        <time>2015-12-03T12:42:34Z</time>
      </trkpt>
      <trkpt lat="44.50161" lon="5.64499">
        <ele>1368.57</ele>
        <time>2015-12-03T12:42:47Z</time>
      </trkpt>
      <trkpt lat="44.50169" lon="5.64481">
        <ele>1368.09</ele>
        <time>2015-12-03T12:43:05Z</time>
      </trkpt>
      <trkpt lat="44.50175" lon="5.64465">
        <ele>1365.21</ele>
        <time>2015-12-03T12:43:23Z</time>
      </trkpt>
      <trkpt lat="44.50183" lon="5.64447">
        <ele>1362.81</ele>
        <time>2015-12-03T12:43:40Z</time>
      </trkpt>
      <trkpt lat="44.50191" lon="5.64431">
        <ele>1360.88</ele>
        <time>2015-12-03T12:43:54Z</time>
      </trkpt>
      <trkpt lat="44.50192" lon="5.64428">
        <ele>1360.88</ele>
        <time>2015-12-03T12:43:58Z</time>
      </trkpt>
      <trkpt lat="44.50198" lon="5.64407">
        <ele>1358.48</ele>
        <time>2015-12-03T12:44:14Z</time>
      </trkpt>
      <trkpt lat="44.50204" lon="5.64388">
        <ele>1357.04</ele>
        <time>2015-12-03T12:44:29Z</time>
      </trkpt>
      <trkpt lat="44.50209" lon="5.6437">
        <ele>1354.63</ele>
        <time>2015-12-03T12:44:46Z</time>
      </trkpt>
      <trkpt lat="44.50211" lon="5.64356">
        <ele>1352.71</ele>
        <time>2015-12-03T12:45:00Z</time>
      </trkpt>
      <trkpt lat="44.50214" lon="5.64346">
        <ele>1351.27</ele>
        <time>2015-12-03T12:45:14Z</time>
      </trkpt>
      <trkpt lat="44.50216" lon="5.64341">
        <ele>1350.31</ele>
        <time>2015-12-03T12:45:30Z</time>
      </trkpt>
      <trkpt lat="44.50216" lon="5.64337">
        <ele>1349.35</ele>
        <time>2015-12-03T12:45:46Z</time>
      </trkpt>
      <trkpt lat="44.50218" lon="5.64327">
        <ele>1346.94</ele>
        <time>2015-12-03T12:46:03Z</time>
      </trkpt>
      <trkpt lat="44.50218" lon="5.64315">
        <ele>1344.06</ele>
        <time>2015-12-03T12:46:16Z</time>
      </trkpt>
      <trkpt lat="44.50217" lon="5.64297">
        <ele>1341.66</ele>
        <time>2015-12-03T12:46:32Z</time>
      </trkpt>
      <trkpt lat="44.50217" lon="5.64279">
        <ele>1338.29</ele>
        <time>2015-12-03T12:46:46Z</time>
      </trkpt>
      <trkpt lat="44.5022" lon="5.64266">
        <ele>1335.89</ele>
        <time>2015-12-03T12:46:59Z</time>
      </trkpt>
      <trkpt lat="44.50223" lon="5.64249">
        <ele>1333.49</ele>
        <time>2015-12-03T12:47:15Z</time>
      </trkpt>
      <trkpt lat="44.50227" lon="5.64232">
        <ele>1330.6</ele>
        <time>2015-12-03T12:47:30Z</time>
      </trkpt>
      <trkpt lat="44.5023" lon="5.64214">
        <ele>1328.2</ele>
        <time>2015-12-03T12:47:45Z</time>
      </trkpt>
      <trkpt lat="44.50233" lon="5.64186">
        <ele>1328.68</ele>
        <time>2015-12-03T12:48:04Z</time>
      </trkpt>
      <trkpt lat="44.50235" lon="5.64167">
        <ele>1330.12</ele>
        <time>2015-12-03T12:48:19Z</time>
      </trkpt>
      <trkpt lat="44.50236" lon="5.6415">
        <ele>1331.08</ele>
        <time>2015-12-03T12:48:33Z</time>
      </trkpt>
      <trkpt lat="44.50233" lon="5.64135">
        <ele>1333.01</ele>
        <time>2015-12-03T12:48:45Z</time>
      </trkpt>
      <trkpt lat="44.5023" lon="5.64127">
        <ele>1333.97</ele>
        <time>2015-12-03T12:48:53Z</time>
      </trkpt>
      <trkpt lat="44.50225" lon="5.64108">
        <ele>1334.93</ele>
        <time>2015-12-03T12:49:09Z</time>
      </trkpt>
      <trkpt lat="44.50218" lon="5.64091">
        <ele>1333.49</ele>
        <time>2015-12-03T12:49:23Z</time>
      </trkpt>
      <trkpt lat="44.50212" lon="5.64075">
        <ele>1333.49</ele>
        <time>2015-12-03T12:49:40Z</time>
      </trkpt>
      <trkpt lat="44.50212" lon="5.64074">
        <ele>1328.2</ele>
        <time>2015-12-03T12:49:41Z</time>
      </trkpt>
      <trkpt lat="44.50211" lon="5.64065">
        <ele>1325.31</ele>
        <time>2015-12-03T12:49:54Z</time>
      </trkpt>
      <trkpt lat="44.5021" lon="5.64061">
        <ele>1324.35</ele>
        <time>2015-12-03T12:50:00Z</time>
      </trkpt>
      <trkpt lat="44.50206" lon="5.64052">
        <ele>1321.47</ele>
        <time>2015-12-03T12:50:13Z</time>
      </trkpt>
      <trkpt lat="44.50205" lon="5.64043">
        <ele>1318.59</ele>
        <time>2015-12-03T12:50:27Z</time>
      </trkpt>
      <trkpt lat="44.50203" lon="5.64032">
        <ele>1315.7</ele>
        <time>2015-12-03T12:50:40Z</time>
      </trkpt>
      <trkpt lat="44.50201" lon="5.64022">
        <ele>1312.34</ele>
        <time>2015-12-03T12:50:51Z</time>
      </trkpt>
      <trkpt lat="44.50192" lon="5.64012">
        <ele>1309.45</ele>
        <time>2015-12-03T12:51:05Z</time>
      </trkpt>
      <trkpt lat="44.50184" lon="5.63999">
        <ele>1307.05</ele>
        <time>2015-12-03T12:51:18Z</time>
      </trkpt>
      <trkpt lat="44.50188" lon="5.63976">
        <ele>1304.17</ele>
        <time>2015-12-03T12:51:34Z</time>
      </trkpt>
      <trkpt lat="44.50188" lon="5.63957">
        <ele>1301.76</ele>
        <time>2015-12-03T12:51:49Z</time>
      </trkpt>
      <trkpt lat="44.50193" lon="5.6394">
        <ele>1299.84</ele>
        <time>2015-12-03T12:52:05Z</time>
      </trkpt>
      <trkpt lat="44.50198" lon="5.63922">
        <ele>1298.4</ele>
        <time>2015-12-03T12:52:22Z</time>
      </trkpt>
      <trkpt lat="44.50202" lon="5.63906">
        <ele>1297.44</ele>
        <time>2015-12-03T12:52:37Z</time>
      </trkpt>
      <trkpt lat="44.50205" lon="5.63897">
        <ele>1297.44</ele>
        <time>2015-12-03T12:52:52Z</time>
      </trkpt>
      <trkpt lat="44.50205" lon="5.63895">
        <ele>1297.44</ele>
        <time>2015-12-03T12:53:07Z</time>
      </trkpt>
      <trkpt lat="44.50203" lon="5.63894">
        <ele>1296.96</ele>
        <time>2015-12-03T12:53:32Z</time>
      </trkpt>
      <trkpt lat="44.50205" lon="5.63892">
        <ele>1296.96</ele>
        <time>2015-12-03T12:54:01Z</time>
      </trkpt>
      <trkpt lat="44.50205" lon="5.63893">
        <ele>1296.96</ele>
        <time>2015-12-03T12:54:34Z</time>
      </trkpt>
      <trkpt lat="44.50202" lon="5.63893">
        <ele>1296.96</ele>
        <time>2015-12-03T12:55:03Z</time>
      </trkpt>
      <trkpt lat="44.50203" lon="5.63892">
        <ele>1296.96</ele>
        <time>2015-12-03T12:55:41Z</time>
      </trkpt>
      <trkpt lat="44.50204" lon="5.63896">
        <ele>1297.44</ele>
        <time>2015-12-03T12:56:11Z</time>
      </trkpt>
      <trkpt lat="44.50204" lon="5.63893">
        <ele>1297.44</ele>
        <time>2015-12-03T12:56:39Z</time>
      </trkpt>
      <trkpt lat="44.50203" lon="5.63893">
        <ele>1297.44</ele>
        <time>2015-12-03T12:57:09Z</time>
      </trkpt>
      <trkpt lat="44.50203" lon="5.63894">
        <ele>1297.44</ele>
        <time>2015-12-03T12:57:41Z</time>
      </trkpt>
      <trkpt lat="44.50204" lon="5.63895">
        <ele>1297.44</ele>
        <time>2015-12-03T12:58:06Z</time>
      </trkpt>
      <trkpt lat="44.50207" lon="5.63893">
        <ele>1296.96</ele>
        <time>2015-12-03T12:58:33Z</time>
      </trkpt>
      <trkpt lat="44.50203" lon="5.63894">
        <ele>1296.96</ele>
        <time>2015-12-03T12:59:04Z</time>
      </trkpt>
      <trkpt lat="44.50201" lon="5.63897">
        <ele>1297.44</ele>
        <time>2015-12-03T12:59:30Z</time>
      </trkpt>
      <trkpt lat="44.50206" lon="5.6389">
        <ele>1297.44</ele>
        <time>2015-12-03T12:59:55Z</time>
      </trkpt>
      <trkpt lat="44.50205" lon="5.63892">
        <ele>1297.44</ele>
        <time>2015-12-03T13:00:22Z</time>
      </trkpt>
      <trkpt lat="44.50204" lon="5.63892">
        <ele>1296.96</ele>
        <time>2015-12-03T13:00:46Z</time>
      </trkpt>
      <trkpt lat="44.50206" lon="5.63893">
        <ele>1296.96</ele>
        <time>2015-12-03T13:01:20Z</time>
      </trkpt>
      <trkpt lat="44.50204" lon="5.63889">
        <ele>1296.96</ele>
        <time>2015-12-03T13:01:51Z</time>
      </trkpt>
      <trkpt lat="44.502" lon="5.63898">
        <ele>1296.96</ele>
        <time>2015-12-03T13:02:23Z</time>
      </trkpt>
      <trkpt lat="44.502" lon="5.63894">
        <ele>1296.96</ele>
        <time>2015-12-03T13:02:50Z</time>
      </trkpt>
      <trkpt lat="44.50203" lon="5.63892">
        <ele>1296.96</ele>
        <time>2015-12-03T13:03:18Z</time>
      </trkpt>
      <trkpt lat="44.50203" lon="5.63895">
        <ele>1296.96</ele>
        <time>2015-12-03T13:03:48Z</time>
      </trkpt>
      <trkpt lat="44.50205" lon="5.63892">
        <ele>1296.96</ele>
        <time>2015-12-03T13:04:15Z</time>
      </trkpt>
      <trkpt lat="44.50203" lon="5.63894">
        <ele>1296.96</ele>
        <time>2015-12-03T13:04:42Z</time>
      </trkpt>
      <trkpt lat="44.50204" lon="5.63896">
        <ele>1296.96</ele>
        <time>2015-12-03T13:05:11Z</time>
      </trkpt>
      <trkpt lat="44.50204" lon="5.63898">
        <ele>1296.96</ele>
        <time>2015-12-03T13:05:45Z</time>
      </trkpt>
      <trkpt lat="44.50207" lon="5.63892">
        <ele>1296.48</ele>
        <time>2015-12-03T13:06:20Z</time>
      </trkpt>
      <trkpt lat="44.50207" lon="5.63882">
        <ele>1296.48</ele>
        <time>2015-12-03T13:06:36Z</time>
      </trkpt>
      <trkpt lat="44.50211" lon="5.63874">
        <ele>1295.99</ele>
        <time>2015-12-03T13:06:51Z</time>
      </trkpt>
      <trkpt lat="44.50217" lon="5.63862">
        <ele>1295.03</ele>
        <time>2015-12-03T13:07:08Z</time>
      </trkpt>
      <trkpt lat="44.50218" lon="5.63845">
        <ele>1294.07</ele>
        <time>2015-12-03T13:07:24Z</time>
      </trkpt>
      <trkpt lat="44.50215" lon="5.63834">
        <ele>1293.11</ele>
        <time>2015-12-03T13:07:40Z</time>
      </trkpt>
      <trkpt lat="44.50211" lon="5.63821">
        <ele>1291.19</ele>
        <time>2015-12-03T13:07:55Z</time>
      </trkpt>
      <trkpt lat="44.50212" lon="5.63804">
        <ele>1289.75</ele>
        <time>2015-12-03T13:08:10Z</time>
      </trkpt>
      <trkpt lat="44.50214" lon="5.63789">
        <ele>1289.75</ele>
        <time>2015-12-03T13:08:23Z</time>
      </trkpt>
      <trkpt lat="44.50212" lon="5.63772">
        <ele>1291.67</ele>
        <time>2015-12-03T13:08:39Z</time>
      </trkpt>
      <trkpt lat="44.50209" lon="5.63764">
        <ele>1293.11</ele>
        <time>2015-12-03T13:08:57Z</time>
      </trkpt>
      <trkpt lat="44.50206" lon="5.63757">
        <ele>1295.51</ele>
        <time>2015-12-03T13:09:14Z</time>
      </trkpt>
      <trkpt lat="44.50202" lon="5.63749">
        <ele>1297.92</ele>
        <time>2015-12-03T13:09:30Z</time>
      </trkpt>
      <trkpt lat="44.50197" lon="5.63743">
        <ele>1299.84</ele>
        <time>2015-12-03T13:09:46Z</time>
      </trkpt>
      <trkpt lat="44.50193" lon="5.63738">
        <ele>1301.76</ele>
        <time>2015-12-03T13:09:59Z</time>
      </trkpt>
      <trkpt lat="44.5019" lon="5.63728">
        <ele>1304.65</ele>
        <time>2015-12-03T13:10:16Z</time>
      </trkpt>
      <trkpt lat="44.50189" lon="5.63721">
        <ele>1306.57</ele>
        <time>2015-12-03T13:10:31Z</time>
      </trkpt>
      <trkpt lat="44.50187" lon="5.63711">
        <ele>1308.97</ele>
        <time>2015-12-03T13:10:45Z</time>
      </trkpt>
      <trkpt lat="44.50191" lon="5.63697">
        <ele>1311.38</ele>
        <time>2015-12-03T13:10:59Z</time>
      </trkpt>
      <trkpt lat="44.50195" lon="5.63684">
        <ele>1312.34</ele>
        <time>2015-12-03T13:11:13Z</time>
      </trkpt>
      <trkpt lat="44.50198" lon="5.63677">
        <ele>1312.82</ele>
        <time>2015-12-03T13:11:26Z</time>
      </trkpt>
      <trkpt lat="44.50203" lon="5.63671">
        <ele>1313.78</ele>
        <time>2015-12-03T13:11:39Z</time>
      </trkpt>
      <trkpt lat="44.50212" lon="5.63662">
        <ele>1315.22</ele>
        <time>2015-12-03T13:11:54Z</time>
      </trkpt>
      <trkpt lat="44.50215" lon="5.63644">
        <ele>1316.66</ele>
        <time>2015-12-03T13:12:08Z</time>
      </trkpt>
      <trkpt lat="44.5022" lon="5.63624">
        <ele>1317.14</ele>
        <time>2015-12-03T13:12:23Z</time>
      </trkpt>
      <trkpt lat="44.50224" lon="5.63607">
        <ele>1316.66</ele>
        <time>2015-12-03T13:12:37Z</time>
      </trkpt>
      <trkpt lat="44.5023" lon="5.63595">
        <ele>1317.62</ele>
        <time>2015-12-03T13:12:49Z</time>
      </trkpt>
      <trkpt lat="44.50238" lon="5.63578">
        <ele>1319.07</ele>
        <time>2015-12-03T13:13:04Z</time>
      </trkpt>
      <trkpt lat="44.50244" lon="5.63564">
        <ele>1319.55</ele>
        <time>2015-12-03T13:13:18Z</time>
      </trkpt>
      <trkpt lat="44.50248" lon="5.63548">
        <ele>1320.03</ele>
        <time>2015-12-03T13:13:33Z</time>
      </trkpt>
      <trkpt lat="44.50247" lon="5.63533">
        <ele>1320.51</ele>
        <time>2015-12-03T13:13:46Z</time>
      </trkpt>
      <trkpt lat="44.5025" lon="5.63514">
        <ele>1320.99</ele>
        <time>2015-12-03T13:14:01Z</time>
      </trkpt>
      <trkpt lat="44.50252" lon="5.63498">
        <ele>1321.95</ele>
        <time>2015-12-03T13:14:16Z</time>
      </trkpt>
      <trkpt lat="44.5025" lon="5.63486">
        <ele>1322.43</ele>
        <time>2015-12-03T13:14:30Z</time>
      </trkpt>
      <trkpt lat="44.50248" lon="5.63474">
        <ele>1323.87</ele>
        <time>2015-12-03T13:14:44Z</time>
      </trkpt>
      <trkpt lat="44.50245" lon="5.63469">
        <ele>1323.87</ele>
        <time>2015-12-03T13:14:56Z</time>
      </trkpt>
      <trkpt lat="44.50243" lon="5.63459">
        <ele>1324.83</ele>
        <time>2015-12-03T13:15:10Z</time>
      </trkpt>
      <trkpt lat="44.5024" lon="5.63448">
        <ele>1326.28</ele>
        <time>2015-12-03T13:15:25Z</time>
      </trkpt>
      <trkpt lat="44.50236" lon="5.63434">
        <ele>1327.24</ele>
        <time>2015-12-03T13:15:37Z</time>
      </trkpt>
      <trkpt lat="44.50235" lon="5.63419">
        <ele>1327.72</ele>
        <time>2015-12-03T13:15:50Z</time>
      </trkpt>
      <trkpt lat="44.50234" lon="5.63407">
        <ele>1328.2</ele>
        <time>2015-12-03T13:16:04Z</time>
      </trkpt>
      <trkpt lat="44.50232" lon="5.63394">
        <ele>1329.64</ele>
        <time>2015-12-03T13:16:18Z</time>
      </trkpt>
      <trkpt lat="44.50228" lon="5.63379">
        <ele>1331.08</ele>
        <time>2015-12-03T13:16:32Z</time>
      </trkpt>
      <trkpt lat="44.50224" lon="5.63365">
        <ele>1332.04</ele>
        <time>2015-12-03T13:16:47Z</time>
      </trkpt>
      <trkpt lat="44.50226" lon="5.63346">
        <ele>1332.04</ele>
        <time>2015-12-03T13:17:02Z</time>
      </trkpt>
      <trkpt lat="44.50225" lon="5.6333">
        <ele>1332.04</ele>
        <time>2015-12-03T13:17:14Z</time>
      </trkpt>
      <trkpt lat="44.50217" lon="5.63314">
        <ele>1332.52</ele>
        <time>2015-12-03T13:17:29Z</time>
      </trkpt>
      <trkpt lat="44.50207" lon="5.63302">
        <ele>1333.97</ele>
        <time>2015-12-03T13:17:44Z</time>
      </trkpt>
      <trkpt lat="44.502" lon="5.63285">
        <ele>1334.93</ele>
        <time>2015-12-03T13:17:59Z</time>
      </trkpt>
      <trkpt lat="44.50195" lon="5.63271">
        <ele>1335.41</ele>
        <time>2015-12-03T13:18:12Z</time>
      </trkpt>
      <trkpt lat="44.50194" lon="5.63268">
        <ele>1335.41</ele>
        <time>2015-12-03T13:18:14Z</time>
      </trkpt>
      <trkpt lat="44.5019" lon="5.63257">
        <ele>1335.89</ele>
        <time>2015-12-03T13:18:27Z</time>
      </trkpt>
      <trkpt lat="44.50187" lon="5.63251">
        <ele>1336.37</ele>
        <time>2015-12-03T13:18:32Z</time>
      </trkpt>
      <trkpt lat="44.50181" lon="5.63237">
        <ele>1337.33</ele>
        <time>2015-12-03T13:18:45Z</time>
      </trkpt>
      <trkpt lat="44.50179" lon="5.63219">
        <ele>1339.25</ele>
        <time>2015-12-03T13:18:59Z</time>
      </trkpt>
      <trkpt lat="44.50176" lon="5.632">
        <ele>1341.66</ele>
        <time>2015-12-03T13:19:16Z</time>
      </trkpt>
      <trkpt lat="44.50177" lon="5.63184">
        <ele>1343.58</ele>
        <time>2015-12-03T13:19:30Z</time>
      </trkpt>
      <trkpt lat="44.50177" lon="5.63183">
        <ele>1343.58</ele>
        <time>2015-12-03T13:19:31Z</time>
      </trkpt>
      <trkpt lat="44.50175" lon="5.63164">
        <ele>1343.58</ele>
        <time>2015-12-03T13:19:46Z</time>
      </trkpt>
      <trkpt lat="44.50174" lon="5.63153">
        <ele>1344.54</ele>
        <time>2015-12-03T13:19:54Z</time>
      </trkpt>
      <trkpt lat="44.50174" lon="5.63134">
        <ele>1344.54</ele>
        <time>2015-12-03T13:20:09Z</time>
      </trkpt>
      <trkpt lat="44.5017" lon="5.63116">
        <ele>1344.06</ele>
        <time>2015-12-03T13:20:23Z</time>
      </trkpt>
      <trkpt lat="44.5016" lon="5.63099">
        <ele>1342.62</ele>
        <time>2015-12-03T13:20:40Z</time>
      </trkpt>
      <trkpt lat="44.50155" lon="5.6308">
        <ele>1341.66</ele>
        <time>2015-12-03T13:20:55Z</time>
      </trkpt>
      <trkpt lat="44.50154" lon="5.63065">
        <ele>1341.66</ele>
        <time>2015-12-03T13:21:07Z</time>
      </trkpt>
      <trkpt lat="44.50154" lon="5.6306">
        <ele>1341.66</ele>
        <time>2015-12-03T13:21:10Z</time>
      </trkpt>
      <trkpt lat="44.50151" lon="5.63049">
        <ele>1342.62</ele>
        <time>2015-12-03T13:21:18Z</time>
      </trkpt>
      <trkpt lat="44.50148" lon="5.63033">
        <ele>1343.1</ele>
        <time>2015-12-03T13:21:32Z</time>
      </trkpt>
      <trkpt lat="44.50143" lon="5.63021">
        <ele>1342.62</ele>
        <time>2015-12-03T13:21:44Z</time>
      </trkpt>
      <trkpt lat="44.50137" lon="5.63009">
        <ele>1341.66</ele>
        <time>2015-12-03T13:21:58Z</time>
      </trkpt>
      <trkpt lat="44.50128" lon="5.62993">
        <ele>1341.66</ele>
        <time>2015-12-03T13:22:11Z</time>
      </trkpt>
      <trkpt lat="44.50117" lon="5.6298">
        <ele>1340.22</ele>
        <time>2015-12-03T13:22:28Z</time>
      </trkpt>
      <trkpt lat="44.50104" lon="5.62965">
        <ele>1337.81</ele>
        <time>2015-12-03T13:22:43Z</time>
      </trkpt>
      <trkpt lat="44.50095" lon="5.62951">
        <ele>1336.85</ele>
        <time>2015-12-03T13:22:56Z</time>
      </trkpt>
      <trkpt lat="44.50081" lon="5.62939">
        <ele>1335.41</ele>
        <time>2015-12-03T13:23:11Z</time>
      </trkpt>
      <trkpt lat="44.50073" lon="5.62927">
        <ele>1335.41</ele>
        <time>2015-12-03T13:23:23Z</time>
      </trkpt>
      <trkpt lat="44.50069" lon="5.62907">
        <ele>1337.81</ele>
        <time>2015-12-03T13:23:38Z</time>
      </trkpt>
      <trkpt lat="44.50066" lon="5.62892">
        <ele>1340.22</ele>
        <time>2015-12-03T13:23:53Z</time>
      </trkpt>
      <trkpt lat="44.50056" lon="5.62879">
        <ele>1341.66</ele>
        <time>2015-12-03T13:24:09Z</time>
      </trkpt>
      <trkpt lat="44.50048" lon="5.62868">
        <ele>1343.1</ele>
        <time>2015-12-03T13:24:22Z</time>
      </trkpt>
      <trkpt lat="44.50039" lon="5.62861">
        <ele>1344.54</ele>
        <time>2015-12-03T13:24:35Z</time>
      </trkpt>
      <trkpt lat="44.50029" lon="5.6285">
        <ele>1345.98</ele>
        <time>2015-12-03T13:24:48Z</time>
      </trkpt>
      <trkpt lat="44.50018" lon="5.62841">
        <ele>1345.98</ele>
        <time>2015-12-03T13:25:01Z</time>
      </trkpt>
      <trkpt lat="44.50005" lon="5.62827">
        <ele>1345.5</ele>
        <time>2015-12-03T13:25:17Z</time>
      </trkpt>
      <trkpt lat="44.4999" lon="5.6282">
        <ele>1346.46</ele>
        <time>2015-12-03T13:25:33Z</time>
      </trkpt>
      <trkpt lat="44.49978" lon="5.62809">
        <ele>1346.46</ele>
        <time>2015-12-03T13:25:47Z</time>
      </trkpt>
      <trkpt lat="44.49971" lon="5.62802">
        <ele>1346.46</ele>
        <time>2015-12-03T13:25:55Z</time>
      </trkpt>
      <trkpt lat="44.49968" lon="5.62785">
        <ele>1345.5</ele>
        <time>2015-12-03T13:26:09Z</time>
      </trkpt>
      <trkpt lat="44.49965" lon="5.6278">
        <ele>1345.02</ele>
        <time>2015-12-03T13:26:14Z</time>
      </trkpt>
      <trkpt lat="44.49949" lon="5.62763">
        <ele>1343.58</ele>
        <time>2015-12-03T13:26:33Z</time>
      </trkpt>
      <trkpt lat="44.49943" lon="5.62754">
        <ele>1343.1</ele>
        <time>2015-12-03T13:26:41Z</time>
      </trkpt>
      <trkpt lat="44.49934" lon="5.62741">
        <ele>1342.14</ele>
        <time>2015-12-03T13:26:55Z</time>
      </trkpt>
      <trkpt lat="44.49925" lon="5.62729">
        <ele>1341.66</ele>
        <time>2015-12-03T13:27:08Z</time>
      </trkpt>
      <trkpt lat="44.49914" lon="5.62711">
        <ele>1341.18</ele>
        <time>2015-12-03T13:27:25Z</time>
      </trkpt>
      <trkpt lat="44.49905" lon="5.62698">
        <ele>1340.22</ele>
        <time>2015-12-03T13:27:39Z</time>
      </trkpt>
      <trkpt lat="44.49903" lon="5.62691">
        <ele>1339.73</ele>
        <time>2015-12-03T13:27:44Z</time>
      </trkpt>
      <trkpt lat="44.49894" lon="5.62678">
        <ele>1339.25</ele>
        <time>2015-12-03T13:27:58Z</time>
      </trkpt>
      <trkpt lat="44.4988" lon="5.62669">
        <ele>1339.25</ele>
        <time>2015-12-03T13:28:14Z</time>
      </trkpt>
      <trkpt lat="44.4987" lon="5.62662">
        <ele>1339.73</ele>
        <time>2015-12-03T13:28:27Z</time>
      </trkpt>
      <trkpt lat="44.49856" lon="5.62657">
        <ele>1340.7</ele>
        <time>2015-12-03T13:28:41Z</time>
      </trkpt>
      <trkpt lat="44.49847" lon="5.62653">
        <ele>1341.18</ele>
        <time>2015-12-03T13:28:51Z</time>
      </trkpt>
      <trkpt lat="44.49837" lon="5.62648">
        <ele>1341.66</ele>
        <time>2015-12-03T13:29:01Z</time>
      </trkpt>
      <trkpt lat="44.49825" lon="5.6264">
        <ele>1343.1</ele>
        <time>2015-12-03T13:29:17Z</time>
      </trkpt>
      <trkpt lat="44.49809" lon="5.62636">
        <ele>1344.54</ele>
        <time>2015-12-03T13:29:33Z</time>
      </trkpt>
      <trkpt lat="44.49807" lon="5.62636">
        <ele>1344.54</ele>
        <time>2015-12-03T13:29:35Z</time>
      </trkpt>
      <trkpt lat="44.49792" lon="5.62631">
        <ele>1345.02</ele>
        <time>2015-12-03T13:29:51Z</time>
      </trkpt>
      <trkpt lat="44.49778" lon="5.62623">
        <ele>1345.02</ele>
        <time>2015-12-03T13:30:05Z</time>
      </trkpt>
      <trkpt lat="44.49766" lon="5.62623">
        <ele>1345.5</ele>
        <time>2015-12-03T13:30:19Z</time>
      </trkpt>
      <trkpt lat="44.49753" lon="5.62622">
        <ele>1346.46</ele>
        <time>2015-12-03T13:30:34Z</time>
      </trkpt>
      <trkpt lat="44.49741" lon="5.62626">
        <ele>1347.43</ele>
        <time>2015-12-03T13:30:48Z</time>
      </trkpt>
      <trkpt lat="44.49727" lon="5.62625">
        <ele>1348.39</ele>
        <time>2015-12-03T13:31:03Z</time>
      </trkpt>
      <trkpt lat="44.4972" lon="5.62627">
        <ele>1348.87</ele>
        <time>2015-12-03T13:31:10Z</time>
      </trkpt>
      <trkpt lat="44.49707" lon="5.62619">
        <ele>1348.87</ele>
        <time>2015-12-03T13:31:24Z</time>
      </trkpt>
      <trkpt lat="44.49694" lon="5.62612">
        <ele>1348.39</ele>
        <time>2015-12-03T13:31:38Z</time>
      </trkpt>
      <trkpt lat="44.4968" lon="5.62601">
        <ele>1347.43</ele>
        <time>2015-12-03T13:31:54Z</time>
      </trkpt>
      <trkpt lat="44.49669" lon="5.62594">
        <ele>1346.94</ele>
        <time>2015-12-03T13:32:06Z</time>
      </trkpt>
      <trkpt lat="44.49653" lon="5.62583">
        <ele>1347.43</ele>
        <time>2015-12-03T13:32:23Z</time>
      </trkpt>
      <trkpt lat="44.49637" lon="5.62574">
        <ele>1347.91</ele>
        <time>2015-12-03T13:32:40Z</time>
      </trkpt>
      <trkpt lat="44.49623" lon="5.62574">
        <ele>1348.39</ele>
        <time>2015-12-03T13:32:55Z</time>
      </trkpt>
      <trkpt lat="44.49611" lon="5.62566">
        <ele>1349.35</ele>
        <time>2015-12-03T13:33:09Z</time>
      </trkpt>
      <trkpt lat="44.49599" lon="5.62552">
        <ele>1349.83</ele>
        <time>2015-12-03T13:33:24Z</time>
      </trkpt>
      <trkpt lat="44.49588" lon="5.62545">
        <ele>1351.27</ele>
        <time>2015-12-03T13:33:40Z</time>
      </trkpt>
      <trkpt lat="44.49578" lon="5.6254">
        <ele>1351.75</ele>
        <time>2015-12-03T13:33:52Z</time>
      </trkpt>
      <trkpt lat="44.49566" lon="5.62533">
        <ele>1351.75</ele>
        <time>2015-12-03T13:34:06Z</time>
      </trkpt>
      <trkpt lat="44.49551" lon="5.62529">
        <ele>1351.75</ele>
        <time>2015-12-03T13:34:21Z</time>
      </trkpt>
      <trkpt lat="44.49537" lon="5.62525">
        <ele>1351.75</ele>
        <time>2015-12-03T13:34:37Z</time>
      </trkpt>
      <trkpt lat="44.49526" lon="5.62521">
        <ele>1350.31</ele>
        <time>2015-12-03T13:34:51Z</time>
      </trkpt>
      <trkpt lat="44.49513" lon="5.62518">
        <ele>1352.23</ele>
        <time>2015-12-03T13:35:06Z</time>
      </trkpt>
      <trkpt lat="44.49498" lon="5.62512">
        <ele>1353.67</ele>
        <time>2015-12-03T13:35:21Z</time>
      </trkpt>
      <trkpt lat="44.49486" lon="5.62502">
        <ele>1351.75</ele>
        <time>2015-12-03T13:35:35Z</time>
      </trkpt>
      <trkpt lat="44.49471" lon="5.62504">
        <ele>1352.23</ele>
        <time>2015-12-03T13:35:50Z</time>
      </trkpt>
      <trkpt lat="44.49467" lon="5.62502">
        <ele>1352.23</ele>
        <time>2015-12-03T13:35:55Z</time>
      </trkpt>
      <trkpt lat="44.49449" lon="5.62498">
        <ele>1351.27</ele>
        <time>2015-12-03T13:36:10Z</time>
      </trkpt>
      <trkpt lat="44.49438" lon="5.62498">
        <ele>1348.39</ele>
        <time>2015-12-03T13:36:23Z</time>
      </trkpt>
      <trkpt lat="44.49434" lon="5.62494">
        <ele>1346.94</ele>
        <time>2015-12-03T13:36:41Z</time>
      </trkpt>
      <trkpt lat="44.49424" lon="5.62489">
        <ele>1345.02</ele>
        <time>2015-12-03T13:36:54Z</time>
      </trkpt>
      <trkpt lat="44.49416" lon="5.6248">
        <ele>1342.14</ele>
        <time>2015-12-03T13:37:11Z</time>
      </trkpt>
      <trkpt lat="44.49405" lon="5.6248">
        <ele>1339.25</ele>
        <time>2015-12-03T13:37:25Z</time>
      </trkpt>
      <trkpt lat="44.494" lon="5.62485">
        <ele>1337.33</ele>
        <time>2015-12-03T13:37:40Z</time>
      </trkpt>
      <trkpt lat="44.49391" lon="5.62488">
        <ele>1333.97</ele>
        <time>2015-12-03T13:37:56Z</time>
      </trkpt>
      <trkpt lat="44.49379" lon="5.62489">
        <ele>1331.08</ele>
        <time>2015-12-03T13:38:11Z</time>
      </trkpt>
      <trkpt lat="44.49367" lon="5.62493">
        <ele>1329.16</ele>
        <time>2015-12-03T13:38:27Z</time>
      </trkpt>
      <trkpt lat="44.49355" lon="5.62493">
        <ele>1326.76</ele>
        <time>2015-12-03T13:38:42Z</time>
      </trkpt>
      <trkpt lat="44.49342" lon="5.62492">
        <ele>1325.31</ele>
        <time>2015-12-03T13:38:57Z</time>
      </trkpt>
      <trkpt lat="44.49328" lon="5.62494">
        <ele>1324.35</ele>
        <time>2015-12-03T13:39:11Z</time>
      </trkpt>
      <trkpt lat="44.49311" lon="5.62492">
        <ele>1323.87</ele>
        <time>2015-12-03T13:39:26Z</time>
      </trkpt>
      <trkpt lat="44.49297" lon="5.62487">
        <ele>1322.91</ele>
        <time>2015-12-03T13:39:40Z</time>
      </trkpt>
      <trkpt lat="44.49279" lon="5.62482">
        <ele>1323.39</ele>
        <time>2015-12-03T13:39:55Z</time>
      </trkpt>
      <trkpt lat="44.49264" lon="5.62474">
        <ele>1323.39</ele>
        <time>2015-12-03T13:40:10Z</time>
      </trkpt>
      <trkpt lat="44.49245" lon="5.62465">
        <ele>1323.87</ele>
        <time>2015-12-03T13:40:28Z</time>
      </trkpt>
      <trkpt lat="44.49238" lon="5.62462">
        <ele>1323.39</ele>
        <time>2015-12-03T13:40:44Z</time>
      </trkpt>
      <trkpt lat="44.49238" lon="5.62464">
        <ele>1323.39</ele>
        <time>2015-12-03T13:40:58Z</time>
      </trkpt>
      <trkpt lat="44.49237" lon="5.62465">
        <ele>1323.39</ele>
        <time>2015-12-03T13:41:22Z</time>
      </trkpt>
      <trkpt lat="44.49237" lon="5.62464">
        <ele>1323.87</ele>
        <time>2015-12-03T13:41:45Z</time>
      </trkpt>
      <trkpt lat="44.49238" lon="5.62466">
        <ele>1323.39</ele>
        <time>2015-12-03T13:42:12Z</time>
      </trkpt>
      <trkpt lat="44.49239" lon="5.62464">
        <ele>1323.39</ele>
        <time>2015-12-03T13:42:39Z</time>
      </trkpt>
      <trkpt lat="44.49238" lon="5.62465">
        <ele>1322.91</ele>
        <time>2015-12-03T13:43:04Z</time>
      </trkpt>
      <trkpt lat="44.49235" lon="5.62463">
        <ele>1322.91</ele>
        <time>2015-12-03T13:43:24Z</time>
      </trkpt>
      <trkpt lat="44.49235" lon="5.62464">
        <ele>1323.39</ele>
        <time>2015-12-03T13:43:35Z</time>
      </trkpt>
      <trkpt lat="44.49236" lon="5.62464">
        <ele>1323.87</ele>
        <time>2015-12-03T13:43:52Z</time>
      </trkpt>
      <trkpt lat="44.49236" lon="5.62463">
        <ele>1323.39</ele>
        <time>2015-12-03T13:44:16Z</time>
      </trkpt>
      <trkpt lat="44.49236" lon="5.62464">
        <ele>1323.39</ele>
        <time>2015-12-03T13:44:38Z</time>
      </trkpt>
      <trkpt lat="44.49235" lon="5.62465">
        <ele>1322.91</ele>
        <time>2015-12-03T13:45:02Z</time>
      </trkpt>
      <trkpt lat="44.49232" lon="5.62465">
        <ele>1322.91</ele>
        <time>2015-12-03T13:45:20Z</time>
      </trkpt>
      <trkpt lat="44.49237" lon="5.62465">
        <ele>1322.43</ele>
        <time>2015-12-03T13:45:49Z</time>
      </trkpt>
      <trkpt lat="44.49237" lon="5.62463">
        <ele>1322.91</ele>
        <time>2015-12-03T13:46:03Z</time>
      </trkpt>
      <trkpt lat="44.49236" lon="5.62464">
        <ele>1322.91</ele>
        <time>2015-12-03T13:46:22Z</time>
      </trkpt>
      <trkpt lat="44.49236" lon="5.62464">
        <ele>1322.91</ele>
        <time>2015-12-03T13:46:46Z</time>
      </trkpt>
      <trkpt lat="44.49234" lon="5.62465">
        <ele>1322.43</ele>
        <time>2015-12-03T13:47:11Z</time>
      </trkpt>
      <trkpt lat="44.49235" lon="5.62464">
        <ele>1322.43</ele>
        <time>2015-12-03T13:47:35Z</time>
      </trkpt>
      <trkpt lat="44.49234" lon="5.62465">
        <ele>1322.91</ele>
        <time>2015-12-03T13:47:52Z</time>
      </trkpt>
      <trkpt lat="44.49234" lon="5.62464">
        <ele>1322.91</ele>
        <time>2015-12-03T13:48:15Z</time>
      </trkpt>
      <trkpt lat="44.49234" lon="5.62465">
        <ele>1322.43</ele>
        <time>2015-12-03T13:48:40Z</time>
      </trkpt>
      <trkpt lat="44.49236" lon="5.62464">
        <ele>1322.43</ele>
        <time>2015-12-03T13:49:12Z</time>
      </trkpt>
      <trkpt lat="44.49234" lon="5.62464">
        <ele>1322.43</ele>
        <time>2015-12-03T13:49:39Z</time>
      </trkpt>
      <trkpt lat="44.49235" lon="5.62465">
        <ele>1322.43</ele>
        <time>2015-12-03T13:49:59Z</time>
      </trkpt>
      <trkpt lat="44.49231" lon="5.62462">
        <ele>1322.43</ele>
        <time>2015-12-03T13:50:17Z</time>
      </trkpt>
      <trkpt lat="44.49229" lon="5.62461">
        <ele>1322.43</ele>
        <time>2015-12-03T13:50:20Z</time>
      </trkpt>
      <trkpt lat="44.49221" lon="5.62455">
        <ele>1322.43</ele>
        <time>2015-12-03T13:50:30Z</time>
      </trkpt>
      <trkpt lat="44.49203" lon="5.62447">
        <ele>1320.99</ele>
        <time>2015-12-03T13:50:49Z</time>
      </trkpt>
      <trkpt lat="44.49195" lon="5.62448">
        <ele>1320.51</ele>
        <time>2015-12-03T13:51:06Z</time>
      </trkpt>
      <trkpt lat="44.49189" lon="5.62448">
        <ele>1320.03</ele>
        <time>2015-12-03T13:51:17Z</time>
      </trkpt>
      <trkpt lat="44.49176" lon="5.62445">
        <ele>1320.03</ele>
        <time>2015-12-03T13:51:33Z</time>
      </trkpt>
      <trkpt lat="44.49167" lon="5.62436">
        <ele>1320.99</ele>
        <time>2015-12-03T13:51:46Z</time>
      </trkpt>
      <trkpt lat="44.49157" lon="5.62425">
        <ele>1321.95</ele>
        <time>2015-12-03T13:52:01Z</time>
      </trkpt>
      <trkpt lat="44.49145" lon="5.62425">
        <ele>1321.47</ele>
        <time>2015-12-03T13:52:15Z</time>
      </trkpt>
      <trkpt lat="44.49139" lon="5.62426">
        <ele>1320.99</ele>
        <time>2015-12-03T13:52:21Z</time>
      </trkpt>
      <trkpt lat="44.49122" lon="5.62423">
        <ele>1318.59</ele>
        <time>2015-12-03T13:52:38Z</time>
      </trkpt>
      <trkpt lat="44.49105" lon="5.62423">
        <ele>1316.66</ele>
        <time>2015-12-03T13:52:55Z</time>
      </trkpt>
      <trkpt lat="44.49091" lon="5.62424">
        <ele>1314.74</ele>
        <time>2015-12-03T13:53:11Z</time>
      </trkpt>
      <trkpt lat="44.49078" lon="5.62429">
        <ele>1313.78</ele>
        <time>2015-12-03T13:53:25Z</time>
      </trkpt>
      <trkpt lat="44.49068" lon="5.62432">
        <ele>1312.82</ele>
        <time>2015-12-03T13:53:35Z</time>
      </trkpt>
      <trkpt lat="44.49064" lon="5.62433">
        <ele>1312.82</ele>
        <time>2015-12-03T13:53:39Z</time>
      </trkpt>
      <trkpt lat="44.49052" lon="5.62436">
        <ele>1311.38</ele>
        <time>2015-12-03T13:53:54Z</time>
      </trkpt>
      <trkpt lat="44.4904" lon="5.62441">
        <ele>1309.45</ele>
        <time>2015-12-03T13:54:10Z</time>
      </trkpt>
      <trkpt lat="44.4903" lon="5.62448">
        <ele>1307.53</ele>
        <time>2015-12-03T13:54:23Z</time>
      </trkpt>
      <trkpt lat="44.49033" lon="5.62455">
        <ele>1305.61</ele>
        <time>2015-12-03T13:54:37Z</time>
      </trkpt>
      <trkpt lat="44.49038" lon="5.62456">
        <ele>1304.65</ele>
        <time>2015-12-03T13:54:45Z</time>
      </trkpt>
      <trkpt lat="44.49042" lon="5.62456">
        <ele>1303.69</ele>
        <time>2015-12-03T13:54:50Z</time>
      </trkpt>
      <trkpt lat="44.49057" lon="5.62461">
        <ele>1301.76</ele>
        <time>2015-12-03T13:55:07Z</time>
      </trkpt>
      <trkpt lat="44.49073" lon="5.62463">
        <ele>1298.88</ele>
        <time>2015-12-03T13:55:23Z</time>
      </trkpt>
      <trkpt lat="44.49088" lon="5.62468">
        <ele>1296.96</ele>
        <time>2015-12-03T13:55:38Z</time>
      </trkpt>
      <trkpt lat="44.49101" lon="5.62479">
        <ele>1293.59</ele>
        <time>2015-12-03T13:55:54Z</time>
      </trkpt>
      <trkpt lat="44.49112" lon="5.62492">
        <ele>1290.71</ele>
        <time>2015-12-03T13:56:09Z</time>
      </trkpt>
      <trkpt lat="44.49111" lon="5.62495">
        <ele>1290.71</ele>
        <time>2015-12-03T13:56:11Z</time>
      </trkpt>
      <trkpt lat="44.49107" lon="5.62498">
        <ele>1290.23</ele>
        <time>2015-12-03T13:56:17Z</time>
      </trkpt>
      <trkpt lat="44.49096" lon="5.62499">
        <ele>1287.82</ele>
        <time>2015-12-03T13:56:33Z</time>
      </trkpt>
      <trkpt lat="44.49084" lon="5.62502">
        <ele>1285.42</ele>
        <time>2015-12-03T13:56:50Z</time>
      </trkpt>
      <trkpt lat="44.49077" lon="5.62505">
        <ele>1283.98</ele>
        <time>2015-12-03T13:57:03Z</time>
      </trkpt>
      <trkpt lat="44.49067" lon="5.62507">
        <ele>1281.57</ele>
        <time>2015-12-03T13:57:18Z</time>
      </trkpt>
      <trkpt lat="44.49057" lon="5.62514">
        <ele>1280.61</ele>
        <time>2015-12-03T13:57:32Z</time>
      </trkpt>
      <trkpt lat="44.49053" lon="5.62521">
        <ele>1279.65</ele>
        <time>2015-12-03T13:57:38Z</time>
      </trkpt>
      <trkpt lat="44.49046" lon="5.62541">
        <ele>1278.69</ele>
        <time>2015-12-03T13:57:54Z</time>
      </trkpt>
      <trkpt lat="44.49052" lon="5.62557">
        <ele>1277.25</ele>
        <time>2015-12-03T13:58:07Z</time>
      </trkpt>
      <trkpt lat="44.49052" lon="5.62558">
        <ele>1276.77</ele>
        <time>2015-12-03T13:58:08Z</time>
      </trkpt>
      <trkpt lat="44.4906" lon="5.62576">
        <ele>1274.85</ele>
        <time>2015-12-03T13:58:23Z</time>
      </trkpt>
      <trkpt lat="44.4906" lon="5.62586">
        <ele>1274.36</ele>
        <time>2015-12-03T13:58:29Z</time>
      </trkpt>
      <trkpt lat="44.49058" lon="5.62593">
        <ele>1273.88</ele>
        <time>2015-12-03T13:58:34Z</time>
      </trkpt>
      <trkpt lat="44.49057" lon="5.62598">
        <ele>1272.92</ele>
        <time>2015-12-03T13:58:38Z</time>
      </trkpt>
      <trkpt lat="44.49052" lon="5.62614">
        <ele>1271.96</ele>
        <time>2015-12-03T13:58:51Z</time>
      </trkpt>
      <trkpt lat="44.49053" lon="5.62629">
        <ele>1269.56</ele>
        <time>2015-12-03T13:59:04Z</time>
      </trkpt>
      <trkpt lat="44.49053" lon="5.62642">
        <ele>1268.12</ele>
        <time>2015-12-03T13:59:16Z</time>
      </trkpt>
      <trkpt lat="44.49054" lon="5.62656">
        <ele>1266.19</ele>
        <time>2015-12-03T13:59:29Z</time>
      </trkpt>
      <trkpt lat="44.49058" lon="5.62672">
        <ele>1263.79</ele>
        <time>2015-12-03T13:59:42Z</time>
      </trkpt>
      <trkpt lat="44.49058" lon="5.62674">
        <ele>1263.31</ele>
        <time>2015-12-03T13:59:43Z</time>
      </trkpt>
      <trkpt lat="44.49063" lon="5.62688">
        <ele>1261.39</ele>
        <time>2015-12-03T13:59:56Z</time>
      </trkpt>
      <trkpt lat="44.49066" lon="5.627">
        <ele>1258.98</ele>
        <time>2015-12-03T14:00:09Z</time>
      </trkpt>
      <trkpt lat="44.49068" lon="5.62711">
        <ele>1256.58</ele>
        <time>2015-12-03T14:00:20Z</time>
      </trkpt>
      <trkpt lat="44.49069" lon="5.62713">
        <ele>1255.62</ele>
        <time>2015-12-03T14:00:24Z</time>
      </trkpt>
      <trkpt lat="44.49076" lon="5.6272">
        <ele>1253.7</ele>
        <time>2015-12-03T14:00:36Z</time>
      </trkpt>
      <trkpt lat="44.49089" lon="5.62721">
        <ele>1250.33</ele>
        <time>2015-12-03T14:00:51Z</time>
      </trkpt>
      <trkpt lat="44.491" lon="5.62714">
        <ele>1247.93</ele>
        <time>2015-12-03T14:01:04Z</time>
      </trkpt>
      <trkpt lat="44.49111" lon="5.62707">
        <ele>1245.53</ele>
        <time>2015-12-03T14:01:18Z</time>
      </trkpt>
      <trkpt lat="44.49117" lon="5.6271">
        <ele>1244.08</ele>
        <time>2015-12-03T14:01:27Z</time>
      </trkpt>
      <trkpt lat="44.49129" lon="5.6272">
        <ele>1240.24</ele>
        <time>2015-12-03T14:01:42Z</time>
      </trkpt>
      <trkpt lat="44.49139" lon="5.62733">
        <ele>1237.83</ele>
        <time>2015-12-03T14:01:57Z</time>
      </trkpt>
      <trkpt lat="44.4914" lon="5.62734">
        <ele>1237.35</ele>
        <time>2015-12-03T14:01:59Z</time>
      </trkpt>
      <trkpt lat="44.49152" lon="5.62739">
        <ele>1235.91</ele>
        <time>2015-12-03T14:02:12Z</time>
      </trkpt>
      <trkpt lat="44.49155" lon="5.6274">
        <ele>1235.43</ele>
        <time>2015-12-03T14:02:15Z</time>
      </trkpt>
      <trkpt lat="44.49157" lon="5.62744">
        <ele>1234.95</ele>
        <time>2015-12-03T14:02:18Z</time>
      </trkpt>
      <trkpt lat="44.49164" lon="5.62764">
        <ele>1233.51</ele>
        <time>2015-12-03T14:02:32Z</time>
      </trkpt>
      <trkpt lat="44.49174" lon="5.62779">
        <ele>1231.11</ele>
        <time>2015-12-03T14:02:46Z</time>
      </trkpt>
      <trkpt lat="44.49186" lon="5.62791">
        <ele>1227.74</ele>
        <time>2015-12-03T14:03:01Z</time>
      </trkpt>
      <trkpt lat="44.4919" lon="5.628">
        <ele>1226.3</ele>
        <time>2015-12-03T14:03:09Z</time>
      </trkpt>
      <trkpt lat="44.4919" lon="5.62803">
        <ele>1225.82</ele>
        <time>2015-12-03T14:03:11Z</time>
      </trkpt>
      <trkpt lat="44.4919" lon="5.62807">
        <ele>1225.34</ele>
        <time>2015-12-03T14:03:14Z</time>
      </trkpt>
      <trkpt lat="44.49188" lon="5.62812">
        <ele>1224.86</ele>
        <time>2015-12-03T14:03:18Z</time>
      </trkpt>
      <trkpt lat="44.49184" lon="5.6282">
        <ele>1223.9</ele>
        <time>2015-12-03T14:03:30Z</time>
      </trkpt>
      <trkpt lat="44.49183" lon="5.62823">
        <ele>1223.42</ele>
        <time>2015-12-03T14:03:33Z</time>
      </trkpt>
      <trkpt lat="44.49181" lon="5.62826">
        <ele>1222.93</ele>
        <time>2015-12-03T14:03:37Z</time>
      </trkpt>
      <trkpt lat="44.49173" lon="5.62848">
        <ele>1219.57</ele>
        <time>2015-12-03T14:03:53Z</time>
      </trkpt>
      <trkpt lat="44.49176" lon="5.62858">
        <ele>1218.61</ele>
        <time>2015-12-03T14:04:01Z</time>
      </trkpt>
      <trkpt lat="44.49191" lon="5.62868">
        <ele>1216.21</ele>
        <time>2015-12-03T14:04:16Z</time>
      </trkpt>
      <trkpt lat="44.49194" lon="5.6287">
        <ele>1217.17</ele>
        <time>2015-12-03T14:04:19Z</time>
      </trkpt>
      <trkpt lat="44.49212" lon="5.62876">
        <ele>1216.69</ele>
        <time>2015-12-03T14:04:36Z</time>
      </trkpt>
      <trkpt lat="44.49227" lon="5.62885">
        <ele>1216.21</ele>
        <time>2015-12-03T14:04:51Z</time>
      </trkpt>
      <trkpt lat="44.49241" lon="5.6289">
        <ele>1215.24</ele>
        <time>2015-12-03T14:05:07Z</time>
      </trkpt>
      <trkpt lat="44.4925" lon="5.62899">
        <ele>1214.28</ele>
        <time>2015-12-03T14:05:22Z</time>
      </trkpt>
      <trkpt lat="44.49258" lon="5.62907">
        <ele>1214.28</ele>
        <time>2015-12-03T14:05:36Z</time>
      </trkpt>
      <trkpt lat="44.49261" lon="5.6291">
        <ele>1214.28</ele>
        <time>2015-12-03T14:05:40Z</time>
      </trkpt>
      <trkpt lat="44.49271" lon="5.62921">
        <ele>1214.76</ele>
        <time>2015-12-03T14:05:55Z</time>
      </trkpt>
      <trkpt lat="44.4928" lon="5.62926">
        <ele>1214.76</ele>
        <time>2015-12-03T14:06:04Z</time>
      </trkpt>
      <trkpt lat="44.49289" lon="5.62935">
        <ele>1215.24</ele>
        <time>2015-12-03T14:06:18Z</time>
      </trkpt>
      <trkpt lat="44.49304" lon="5.62953">
        <ele>1216.21</ele>
        <time>2015-12-03T14:06:39Z</time>
      </trkpt>
      <trkpt lat="44.49314" lon="5.62962">
        <ele>1215.72</ele>
        <time>2015-12-03T14:06:51Z</time>
      </trkpt>
      <trkpt lat="44.49317" lon="5.62968">
        <ele>1215.72</ele>
        <time>2015-12-03T14:06:55Z</time>
      </trkpt>
      <trkpt lat="44.49322" lon="5.62977">
        <ele>1215.24</ele>
        <time>2015-12-03T14:07:13Z</time>
      </trkpt>
      <trkpt lat="44.49322" lon="5.62978">
        <ele>1214.76</ele>
        <time>2015-12-03T14:07:30Z</time>
      </trkpt>
      <trkpt lat="44.49325" lon="5.62981">
        <ele>1214.76</ele>
        <time>2015-12-03T14:07:46Z</time>
      </trkpt>
      <trkpt lat="44.49329" lon="5.62987">
        <ele>1214.28</ele>
        <time>2015-12-03T14:08:01Z</time>
      </trkpt>
      <trkpt lat="44.49336" lon="5.62998">
        <ele>1214.28</ele>
        <time>2015-12-03T14:08:15Z</time>
      </trkpt>
      <trkpt lat="44.49348" lon="5.63009">
        <ele>1213.8</ele>
        <time>2015-12-03T14:08:30Z</time>
      </trkpt>
      <trkpt lat="44.49359" lon="5.63014">
        <ele>1213.8</ele>
        <time>2015-12-03T14:08:47Z</time>
      </trkpt>
      <trkpt lat="44.4937" lon="5.63017">
        <ele>1214.28</ele>
        <time>2015-12-03T14:08:58Z</time>
      </trkpt>
      <trkpt lat="44.49383" lon="5.63021">
        <ele>1214.28</ele>
        <time>2015-12-03T14:09:09Z</time>
      </trkpt>
      <trkpt lat="44.49385" lon="5.63022">
        <ele>1214.28</ele>
        <time>2015-12-03T14:09:11Z</time>
      </trkpt>
      <trkpt lat="44.49389" lon="5.63021">
        <ele>1214.28</ele>
        <time>2015-12-03T14:09:14Z</time>
      </trkpt>
      <trkpt lat="44.49392" lon="5.63023">
        <ele>1214.76</ele>
        <time>2015-12-03T14:09:17Z</time>
      </trkpt>
      <trkpt lat="44.49403" lon="5.63035">
        <ele>1214.28</ele>
        <time>2015-12-03T14:09:31Z</time>
      </trkpt>
      <trkpt lat="44.49403" lon="5.63036">
        <ele>1214.28</ele>
        <time>2015-12-03T14:09:32Z</time>
      </trkpt>
      <trkpt lat="44.49405" lon="5.63042">
        <ele>1213.8</ele>
        <time>2015-12-03T14:09:37Z</time>
      </trkpt>
      <trkpt lat="44.49411" lon="5.63054">
        <ele>1213.8</ele>
        <time>2015-12-03T14:09:48Z</time>
      </trkpt>
      <trkpt lat="44.49415" lon="5.63059">
        <ele>1213.8</ele>
        <time>2015-12-03T14:09:54Z</time>
      </trkpt>
      <trkpt lat="44.49422" lon="5.63074">
        <ele>1212.84</ele>
        <time>2015-12-03T14:10:08Z</time>
      </trkpt>
      <trkpt lat="44.49424" lon="5.63076">
        <ele>1212.84</ele>
        <time>2015-12-03T14:10:10Z</time>
      </trkpt>
      <trkpt lat="44.49428" lon="5.63089">
        <ele>1212.36</ele>
        <time>2015-12-03T14:10:23Z</time>
      </trkpt>
      <trkpt lat="44.49429" lon="5.6309">
        <ele>1211.88</ele>
        <time>2015-12-03T14:10:24Z</time>
      </trkpt>
      <trkpt lat="44.49436" lon="5.63108">
        <ele>1210.44</ele>
        <time>2015-12-03T14:10:39Z</time>
      </trkpt>
      <trkpt lat="44.49444" lon="5.63122">
        <ele>1209.96</ele>
        <time>2015-12-03T14:10:52Z</time>
      </trkpt>
      <trkpt lat="44.4945" lon="5.63129">
        <ele>1209.48</ele>
        <time>2015-12-03T14:11:06Z</time>
      </trkpt>
      <trkpt lat="44.49454" lon="5.63133">
        <ele>1209.48</ele>
        <time>2015-12-03T14:11:12Z</time>
      </trkpt>
      <trkpt lat="44.49457" lon="5.63138">
        <ele>1209.48</ele>
        <time>2015-12-03T14:11:17Z</time>
      </trkpt>
      <trkpt lat="44.49465" lon="5.6315">
        <ele>1209</ele>
        <time>2015-12-03T14:11:31Z</time>
      </trkpt>
      <trkpt lat="44.49475" lon="5.63164">
        <ele>1208.51</ele>
        <time>2015-12-03T14:11:46Z</time>
      </trkpt>
      <trkpt lat="44.49484" lon="5.63174">
        <ele>1207.55</ele>
        <time>2015-12-03T14:11:59Z</time>
      </trkpt>
      <trkpt lat="44.49498" lon="5.63192">
        <ele>1205.63</ele>
        <time>2015-12-03T14:12:17Z</time>
      </trkpt>
      <trkpt lat="44.49505" lon="5.63213">
        <ele>1203.71</ele>
        <time>2015-12-03T14:12:33Z</time>
      </trkpt>
      <trkpt lat="44.49512" lon="5.63227">
        <ele>1201.79</ele>
        <time>2015-12-03T14:12:47Z</time>
      </trkpt>
      <trkpt lat="44.4952" lon="5.63241">
        <ele>1199.38</ele>
        <time>2015-12-03T14:13:03Z</time>
      </trkpt>
      <trkpt lat="44.49522" lon="5.63243">
        <ele>1198.9</ele>
        <time>2015-12-03T14:13:06Z</time>
      </trkpt>
      <trkpt lat="44.49526" lon="5.63248">
        <ele>1197.94</ele>
        <time>2015-12-03T14:13:11Z</time>
      </trkpt>
      <trkpt lat="44.49533" lon="5.63261">
        <ele>1195.54</ele>
        <time>2015-12-03T14:13:24Z</time>
      </trkpt>
      <trkpt lat="44.49537" lon="5.63267">
        <ele>1195.06</ele>
        <time>2015-12-03T14:13:30Z</time>
      </trkpt>
      <trkpt lat="44.49541" lon="5.63281">
        <ele>1194.09</ele>
        <time>2015-12-03T14:13:46Z</time>
      </trkpt>
      <trkpt lat="44.49543" lon="5.63297">
        <ele>1192.65</ele>
        <time>2015-12-03T14:14:00Z</time>
      </trkpt>
      <trkpt lat="44.49545" lon="5.63309">
        <ele>1192.17</ele>
        <time>2015-12-03T14:14:14Z</time>
      </trkpt>
      <trkpt lat="44.49546" lon="5.6331">
        <ele>1191.69</ele>
        <time>2015-12-03T14:14:16Z</time>
      </trkpt>
      <trkpt lat="44.49548" lon="5.63315">
        <ele>1191.21</ele>
        <time>2015-12-03T14:14:29Z</time>
      </trkpt>
      <trkpt lat="44.49552" lon="5.63324">
        <ele>1189.77</ele>
        <time>2015-12-03T14:14:39Z</time>
      </trkpt>
      <trkpt lat="44.49554" lon="5.63326">
        <ele>1190.25</ele>
        <time>2015-12-03T14:14:54Z</time>
      </trkpt>
      <trkpt lat="44.49557" lon="5.63327">
        <ele>1189.77</ele>
        <time>2015-12-03T14:15:18Z</time>
      </trkpt>
      <trkpt lat="44.49561" lon="5.63327">
        <ele>1190.25</ele>
        <time>2015-12-03T14:15:41Z</time>
      </trkpt>
      <trkpt lat="44.49562" lon="5.63327">
        <ele>1190.25</ele>
        <time>2015-12-03T14:15:53Z</time>
      </trkpt>
      <trkpt lat="44.49565" lon="5.63335">
        <ele>1188.81</ele>
        <time>2015-12-03T14:16:09Z</time>
      </trkpt>
      <trkpt lat="44.49571" lon="5.63344">
        <ele>1186.88</ele>
        <time>2015-12-03T14:16:23Z</time>
      </trkpt>
      <trkpt lat="44.49575" lon="5.63351">
        <ele>1185.44</ele>
        <time>2015-12-03T14:16:36Z</time>
      </trkpt>
      <trkpt lat="44.49578" lon="5.63357">
        <ele>1184.96</ele>
        <time>2015-12-03T14:16:44Z</time>
      </trkpt>
      <trkpt lat="44.49584" lon="5.63371">
        <ele>1183.04</ele>
        <time>2015-12-03T14:16:58Z</time>
      </trkpt>
      <trkpt lat="44.49587" lon="5.6338">
        <ele>1182.08</ele>
        <time>2015-12-03T14:17:13Z</time>
      </trkpt>
      <trkpt lat="44.49589" lon="5.63386">
        <ele>1182.08</ele>
        <time>2015-12-03T14:17:29Z</time>
      </trkpt>
      <trkpt lat="44.49593" lon="5.63397">
        <ele>1179.67</ele>
        <time>2015-12-03T14:17:43Z</time>
      </trkpt>
      <trkpt lat="44.49597" lon="5.63405">
        <ele>1178.71</ele>
        <time>2015-12-03T14:17:58Z</time>
      </trkpt>
      <trkpt lat="44.49598" lon="5.63412">
        <ele>1178.71</ele>
        <time>2015-12-03T14:18:12Z</time>
      </trkpt>
      <trkpt lat="44.49599" lon="5.63427">
        <ele>1176.31</ele>
        <time>2015-12-03T14:18:26Z</time>
      </trkpt>
      <trkpt lat="44.496" lon="5.63429">
        <ele>1176.31</ele>
        <time>2015-12-03T14:18:28Z</time>
      </trkpt>
      <trkpt lat="44.49611" lon="5.63447">
        <ele>1173.43</ele>
        <time>2015-12-03T14:18:45Z</time>
      </trkpt>
      <trkpt lat="44.49612" lon="5.63455">
        <ele>1172.47</ele>
        <time>2015-12-03T14:18:52Z</time>
      </trkpt>
      <trkpt lat="44.49613" lon="5.63476">
        <ele>1170.06</ele>
        <time>2015-12-03T14:19:09Z</time>
      </trkpt>
      <trkpt lat="44.49612" lon="5.63492">
        <ele>1167.18</ele>
        <time>2015-12-03T14:19:24Z</time>
      </trkpt>
      <trkpt lat="44.4962" lon="5.63506">
        <ele>1165.74</ele>
        <time>2015-12-03T14:19:37Z</time>
      </trkpt>
      <trkpt lat="44.49627" lon="5.63523">
        <ele>1163.33</ele>
        <time>2015-12-03T14:19:52Z</time>
      </trkpt>
      <trkpt lat="44.49634" lon="5.63541">
        <ele>1161.89</ele>
        <time>2015-12-03T14:20:08Z</time>
      </trkpt>
      <trkpt lat="44.4964" lon="5.63555">
        <ele>1160.45</ele>
        <time>2015-12-03T14:20:22Z</time>
      </trkpt>
      <trkpt lat="44.49642" lon="5.63575">
        <ele>1158.05</ele>
        <time>2015-12-03T14:20:38Z</time>
      </trkpt>
      <trkpt lat="44.49646" lon="5.63592">
        <ele>1155.64</ele>
        <time>2015-12-03T14:20:52Z</time>
      </trkpt>
      <trkpt lat="44.4965" lon="5.6361">
        <ele>1153.24</ele>
        <time>2015-12-03T14:21:06Z</time>
      </trkpt>
      <trkpt lat="44.49656" lon="5.63627">
        <ele>1151.32</ele>
        <time>2015-12-03T14:21:21Z</time>
      </trkpt>
      <trkpt lat="44.49663" lon="5.63643">
        <ele>1149.87</ele>
        <time>2015-12-03T14:21:36Z</time>
      </trkpt>
      <trkpt lat="44.49671" lon="5.63659">
        <ele>1147.47</ele>
        <time>2015-12-03T14:21:52Z</time>
      </trkpt>
      <trkpt lat="44.49674" lon="5.63662">
        <ele>1146.51</ele>
        <time>2015-12-03T14:21:56Z</time>
      </trkpt>
      <trkpt lat="44.49675" lon="5.63676">
        <ele>1145.55</ele>
        <time>2015-12-03T14:22:07Z</time>
      </trkpt>
      <trkpt lat="44.49676" lon="5.63679">
        <ele>1145.07</ele>
        <time>2015-12-03T14:22:09Z</time>
      </trkpt>
      <trkpt lat="44.49677" lon="5.63685">
        <ele>1144.59</ele>
        <time>2015-12-03T14:22:14Z</time>
      </trkpt>
      <trkpt lat="44.49681" lon="5.63693">
        <ele>1143.63</ele>
        <time>2015-12-03T14:22:21Z</time>
      </trkpt>
      <trkpt lat="44.4968" lon="5.63711">
        <ele>1141.22</ele>
        <time>2015-12-03T14:22:36Z</time>
      </trkpt>
      <trkpt lat="44.49679" lon="5.63717">
        <ele>1140.26</ele>
        <time>2015-12-03T14:22:41Z</time>
      </trkpt>
      <trkpt lat="44.49676" lon="5.63735">
        <ele>1137.86</ele>
        <time>2015-12-03T14:22:55Z</time>
      </trkpt>
      <trkpt lat="44.49674" lon="5.6375">
        <ele>1135.45</ele>
        <time>2015-12-03T14:23:08Z</time>
      </trkpt>
      <trkpt lat="44.49671" lon="5.63761">
        <ele>1134.01</ele>
        <time>2015-12-03T14:23:17Z</time>
      </trkpt>
      <trkpt lat="44.49668" lon="5.63769">
        <ele>1133.53</ele>
        <time>2015-12-03T14:23:22Z</time>
      </trkpt>
      <trkpt lat="44.49666" lon="5.63769">
        <ele>1133.05</ele>
        <time>2015-12-03T14:23:23Z</time>
      </trkpt>
      <trkpt lat="44.49665" lon="5.63773">
        <ele>1132.57</ele>
        <time>2015-12-03T14:23:27Z</time>
      </trkpt>
      <trkpt lat="44.4966" lon="5.63792">
        <ele>1130.17</ele>
        <time>2015-12-03T14:23:40Z</time>
      </trkpt>
      <trkpt lat="44.49654" lon="5.63822">
        <ele>1127.28</ele>
        <time>2015-12-03T14:23:58Z</time>
      </trkpt>
      <trkpt lat="44.49652" lon="5.63835">
        <ele>1125.36</ele>
        <time>2015-12-03T14:24:11Z</time>
      </trkpt>
      <trkpt lat="44.49649" lon="5.63846">
        <ele>1123.44</ele>
        <time>2015-12-03T14:24:22Z</time>
      </trkpt>
      <trkpt lat="44.49645" lon="5.63863">
        <ele>1120.07</ele>
        <time>2015-12-03T14:24:37Z</time>
      </trkpt>
      <trkpt lat="44.49645" lon="5.63871">
        <ele>1118.63</ele>
        <time>2015-12-03T14:24:45Z</time>
      </trkpt>
      <trkpt lat="44.49641" lon="5.63886">
        <ele>1115.75</ele>
        <time>2015-12-03T14:24:58Z</time>
      </trkpt>
      <trkpt lat="44.49634" lon="5.63904">
        <ele>1112.38</ele>
        <time>2015-12-03T14:25:13Z</time>
      </trkpt>
      <trkpt lat="44.49633" lon="5.63919">
        <ele>1109.5</ele>
        <time>2015-12-03T14:25:27Z</time>
      </trkpt>
      <trkpt lat="44.49628" lon="5.63935">
        <ele>1107.1</ele>
        <time>2015-12-03T14:25:42Z</time>
      </trkpt>
      <trkpt lat="44.49616" lon="5.63954">
        <ele>1104.69</ele>
        <time>2015-12-03T14:25:57Z</time>
      </trkpt>
      <trkpt lat="44.49608" lon="5.6397">
        <ele>1102.77</ele>
        <time>2015-12-03T14:26:12Z</time>
      </trkpt>
      <trkpt lat="44.49602" lon="5.63982">
        <ele>1101.33</ele>
        <time>2015-12-03T14:26:24Z</time>
      </trkpt>
      <trkpt lat="44.49596" lon="5.63997">
        <ele>1099.89</ele>
        <time>2015-12-03T14:26:36Z</time>
      </trkpt>
      <trkpt lat="44.49583" lon="5.64016">
        <ele>1098.44</ele>
        <time>2015-12-03T14:26:49Z</time>
      </trkpt>
      <trkpt lat="44.49576" lon="5.64032">
        <ele>1097</ele>
        <time>2015-12-03T14:27:05Z</time>
      </trkpt>
      <trkpt lat="44.49569" lon="5.64049">
        <ele>1095.08</ele>
        <time>2015-12-03T14:27:21Z</time>
      </trkpt>
      <trkpt lat="44.49565" lon="5.64058">
        <ele>1094.6</ele>
        <time>2015-12-03T14:27:35Z</time>
      </trkpt>
      <trkpt lat="44.49563" lon="5.64063">
        <ele>1094.12</ele>
        <time>2015-12-03T14:28:02Z</time>
      </trkpt>
      <trkpt lat="44.4956" lon="5.64068">
        <ele>1094.12</ele>
        <time>2015-12-03T14:28:26Z</time>
      </trkpt>
      <trkpt lat="44.49558" lon="5.64071">
        <ele>1093.64</ele>
        <time>2015-12-03T14:28:39Z</time>
      </trkpt>
      <trkpt lat="44.49557" lon="5.64076">
        <ele>1093.64</ele>
        <time>2015-12-03T14:29:07Z</time>
      </trkpt>
      <trkpt lat="44.49558" lon="5.64078">
        <ele>1093.64</ele>
        <time>2015-12-03T14:29:34Z</time>
      </trkpt>
      <trkpt lat="44.49554" lon="5.64078">
        <ele>1093.64</ele>
        <time>2015-12-03T14:29:55Z</time>
      </trkpt>
      <trkpt lat="44.49551" lon="5.64079">
        <ele>1093.16</ele>
        <time>2015-12-03T14:30:11Z</time>
      </trkpt>
      <trkpt lat="44.49544" lon="5.64091">
        <ele>1092.2</ele>
        <time>2015-12-03T14:30:26Z</time>
      </trkpt>
      <trkpt lat="44.49535" lon="5.64107">
        <ele>1090.75</ele>
        <time>2015-12-03T14:30:44Z</time>
      </trkpt>
      <trkpt lat="44.49525" lon="5.64121">
        <ele>1090.27</ele>
        <time>2015-12-03T14:31:00Z</time>
      </trkpt>
      <trkpt lat="44.49517" lon="5.64132">
        <ele>1089.31</ele>
        <time>2015-12-03T14:31:16Z</time>
      </trkpt>
      <trkpt lat="44.49507" lon="5.64148">
        <ele>1089.79</ele>
        <time>2015-12-03T14:31:36Z</time>
      </trkpt>
      <trkpt lat="44.49497" lon="5.64168">
        <ele>1088.35</ele>
        <time>2015-12-03T14:31:55Z</time>
      </trkpt>
      <trkpt lat="44.49489" lon="5.64186">
        <ele>1087.39</ele>
        <time>2015-12-03T14:32:11Z</time>
      </trkpt>
      <trkpt lat="44.49482" lon="5.64202">
        <ele>1086.91</ele>
        <time>2015-12-03T14:32:25Z</time>
      </trkpt>
      <trkpt lat="44.49477" lon="5.64219">
        <ele>1086.43</ele>
        <time>2015-12-03T14:32:42Z</time>
      </trkpt>
      <trkpt lat="44.49467" lon="5.64238">
        <ele>1085.95</ele>
        <time>2015-12-03T14:32:56Z</time>
      </trkpt>
      <trkpt lat="44.4946" lon="5.64251">
        <ele>1085.47</ele>
        <time>2015-12-03T14:33:09Z</time>
      </trkpt>
      <trkpt lat="44.49447" lon="5.64273">
        <ele>1084.5</ele>
        <time>2015-12-03T14:33:24Z</time>
      </trkpt>
      <trkpt lat="44.49442" lon="5.64293">
        <ele>1084.02</ele>
        <time>2015-12-03T14:33:38Z</time>
      </trkpt>
      <trkpt lat="44.49441" lon="5.64309">
        <ele>1083.54</ele>
        <time>2015-12-03T14:33:53Z</time>
      </trkpt>
      <trkpt lat="44.4944" lon="5.64312">
        <ele>1083.06</ele>
        <time>2015-12-03T14:33:56Z</time>
      </trkpt>
      <trkpt lat="44.49432" lon="5.6433">
        <ele>1082.1</ele>
        <time>2015-12-03T14:34:11Z</time>
      </trkpt>
      <trkpt lat="44.49424" lon="5.6434">
        <ele>1081.14</ele>
        <time>2015-12-03T14:34:23Z</time>
      </trkpt>
      <trkpt lat="44.49413" lon="5.64359">
        <ele>1080.18</ele>
        <time>2015-12-03T14:34:37Z</time>
      </trkpt>
      <trkpt lat="44.49408" lon="5.64367">
        <ele>1080.18</ele>
        <time>2015-12-03T14:34:45Z</time>
      </trkpt>
      <trkpt lat="44.49404" lon="5.64375">
        <ele>1080.18</ele>
        <time>2015-12-03T14:34:50Z</time>
      </trkpt>
      <trkpt lat="44.49397" lon="5.64399">
        <ele>1079.22</ele>
        <time>2015-12-03T14:35:07Z</time>
      </trkpt>
      <trkpt lat="44.49394" lon="5.64422">
        <ele>1077.78</ele>
        <time>2015-12-03T14:35:25Z</time>
      </trkpt>
      <trkpt lat="44.49391" lon="5.64445">
        <ele>1076.33</ele>
        <time>2015-12-03T14:35:41Z</time>
      </trkpt>
      <trkpt lat="44.49386" lon="5.64462">
        <ele>1074.89</ele>
        <time>2015-12-03T14:35:56Z</time>
      </trkpt>
      <trkpt lat="44.49378" lon="5.64487">
        <ele>1073.93</ele>
        <time>2015-12-03T14:36:13Z</time>
      </trkpt>
      <trkpt lat="44.49372" lon="5.64507">
        <ele>1073.45</ele>
        <time>2015-12-03T14:36:29Z</time>
      </trkpt>
      <trkpt lat="44.49362" lon="5.6453">
        <ele>1072.49</ele>
        <time>2015-12-03T14:36:46Z</time>
      </trkpt>
      <trkpt lat="44.49356" lon="5.64553">
        <ele>1072.01</ele>
        <time>2015-12-03T14:37:02Z</time>
      </trkpt>
      <trkpt lat="44.4935" lon="5.64579">
        <ele>1071.05</ele>
        <time>2015-12-03T14:37:20Z</time>
      </trkpt>
      <trkpt lat="44.49348" lon="5.64598">
        <ele>1071.05</ele>
        <time>2015-12-03T14:37:35Z</time>
      </trkpt>
      <trkpt lat="44.49345" lon="5.6462">
        <ele>1070.08</ele>
        <time>2015-12-03T14:37:50Z</time>
      </trkpt>
      <trkpt lat="44.49336" lon="5.64648">
        <ele>1069.12</ele>
        <time>2015-12-03T14:38:10Z</time>
      </trkpt>
      <trkpt lat="44.49326" lon="5.64671">
        <ele>1068.64</ele>
        <time>2015-12-03T14:38:28Z</time>
      </trkpt>
      <trkpt lat="44.49321" lon="5.64678">
        <ele>1068.16</ele>
        <time>2015-12-03T14:38:35Z</time>
      </trkpt>
      <trkpt lat="44.49313" lon="5.64702">
        <ele>1068.64</ele>
        <time>2015-12-03T14:38:52Z</time>
      </trkpt>
      <trkpt lat="44.49303" lon="5.64726">
        <ele>1067.68</ele>
        <time>2015-12-03T14:39:10Z</time>
      </trkpt>
      <trkpt lat="44.4929" lon="5.64738">
        <ele>1067.2</ele>
        <time>2015-12-03T14:39:26Z</time>
      </trkpt>
      <trkpt lat="44.49286" lon="5.64742">
        <ele>1067.2</ele>
        <time>2015-12-03T14:39:30Z</time>
      </trkpt>
      <trkpt lat="44.49265" lon="5.64755">
        <ele>1065.76</ele>
        <time>2015-12-03T14:39:50Z</time>
      </trkpt>
      <trkpt lat="44.49254" lon="5.64776">
        <ele>1063.36</ele>
        <time>2015-12-03T14:40:07Z</time>
      </trkpt>
      <trkpt lat="44.49245" lon="5.64802">
        <ele>1061.91</ele>
        <time>2015-12-03T14:40:24Z</time>
      </trkpt>
      <trkpt lat="44.49237" lon="5.64826">
        <ele>1059.51</ele>
        <time>2015-12-03T14:40:43Z</time>
      </trkpt>
      <trkpt lat="44.49234" lon="5.64833">
        <ele>1059.03</ele>
        <time>2015-12-03T14:40:49Z</time>
      </trkpt>
      <trkpt lat="44.49225" lon="5.64849">
        <ele>1057.59</ele>
        <time>2015-12-03T14:41:04Z</time>
      </trkpt>
      <trkpt lat="44.49217" lon="5.64862">
        <ele>1057.59</ele>
        <time>2015-12-03T14:41:15Z</time>
      </trkpt>
      <trkpt lat="44.49211" lon="5.64881">
        <ele>1056.63</ele>
        <time>2015-12-03T14:41:31Z</time>
      </trkpt>
      <trkpt lat="44.49209" lon="5.64901">
        <ele>1056.15</ele>
        <time>2015-12-03T14:41:43Z</time>
      </trkpt>
      <trkpt lat="44.49203" lon="5.64921">
        <ele>1056.15</ele>
        <time>2015-12-03T14:41:56Z</time>
      </trkpt>
      <trkpt lat="44.49196" lon="5.64951">
        <ele>1055.67</ele>
        <time>2015-12-03T14:42:15Z</time>
      </trkpt>
      <trkpt lat="44.49193" lon="5.64983">
        <ele>1055.18</ele>
        <time>2015-12-03T14:42:34Z</time>
      </trkpt>
      <trkpt lat="44.49194" lon="5.65013">
        <ele>1054.22</ele>
        <time>2015-12-03T14:42:52Z</time>
      </trkpt>
      <trkpt lat="44.49185" lon="5.65043">
        <ele>1053.26</ele>
        <time>2015-12-03T14:43:11Z</time>
      </trkpt>
      <trkpt lat="44.49179" lon="5.65071">
        <ele>1052.3</ele>
        <time>2015-12-03T14:43:29Z</time>
      </trkpt>
      <trkpt lat="44.49176" lon="5.65091">
        <ele>1052.78</ele>
        <time>2015-12-03T14:43:41Z</time>
      </trkpt>
      <trkpt lat="44.49175" lon="5.65097">
        <ele>1051.82</ele>
        <time>2015-12-03T14:43:45Z</time>
      </trkpt>
      <trkpt lat="44.49171" lon="5.65122">
        <ele>1052.3</ele>
        <time>2015-12-03T14:44:02Z</time>
      </trkpt>
      <trkpt lat="44.49164" lon="5.65145">
        <ele>1052.78</ele>
        <time>2015-12-03T14:44:17Z</time>
      </trkpt>
      <trkpt lat="44.49161" lon="5.65169">
        <ele>1053.26</ele>
        <time>2015-12-03T14:44:33Z</time>
      </trkpt>
      <trkpt lat="44.49159" lon="5.65201">
        <ele>1053.74</ele>
        <time>2015-12-03T14:44:53Z</time>
      </trkpt>
      <trkpt lat="44.49158" lon="5.65232">
        <ele>1053.74</ele>
        <time>2015-12-03T14:45:13Z</time>
      </trkpt>
      <trkpt lat="44.49157" lon="5.65261">
        <ele>1054.22</ele>
        <time>2015-12-03T14:45:31Z</time>
      </trkpt>
      <trkpt lat="44.49145" lon="5.65286">
        <ele>1055.18</ele>
        <time>2015-12-03T14:45:50Z</time>
      </trkpt>
      <trkpt lat="44.49143" lon="5.65293">
        <ele>1055.67</ele>
        <time>2015-12-03T14:45:55Z</time>
      </trkpt>
      <trkpt lat="44.49135" lon="5.65318">
        <ele>1057.11</ele>
        <time>2015-12-03T14:46:12Z</time>
      </trkpt>
      <trkpt lat="44.49126" lon="5.6534">
        <ele>1057.59</ele>
        <time>2015-12-03T14:46:29Z</time>
      </trkpt>
      <trkpt lat="44.49114" lon="5.65359">
        <ele>1057.59</ele>
        <time>2015-12-03T14:46:45Z</time>
      </trkpt>
      <trkpt lat="44.49099" lon="5.65379">
        <ele>1057.59</ele>
        <time>2015-12-03T14:47:03Z</time>
      </trkpt>
      <trkpt lat="44.49086" lon="5.65396">
        <ele>1058.55</ele>
        <time>2015-12-03T14:47:19Z</time>
      </trkpt>
      <trkpt lat="44.4907" lon="5.65414">
        <ele>1059.03</ele>
        <time>2015-12-03T14:47:37Z</time>
      </trkpt>
      <trkpt lat="44.49049" lon="5.65428">
        <ele>1059.51</ele>
        <time>2015-12-03T14:47:56Z</time>
      </trkpt>
      <trkpt lat="44.49032" lon="5.65439">
        <ele>1059.99</ele>
        <time>2015-12-03T14:48:11Z</time>
      </trkpt>
      <trkpt lat="44.49009" lon="5.65451">
        <ele>1059.51</ele>
        <time>2015-12-03T14:48:30Z</time>
      </trkpt>
      <trkpt lat="44.48988" lon="5.65462">
        <ele>1058.55</ele>
        <time>2015-12-03T14:48:49Z</time>
      </trkpt>
      <trkpt lat="44.48966" lon="5.65466">
        <ele>1056.63</ele>
        <time>2015-12-03T14:49:07Z</time>
      </trkpt>
      <trkpt lat="44.48945" lon="5.65473">
        <ele>1054.7</ele>
        <time>2015-12-03T14:49:26Z</time>
      </trkpt>
      <trkpt lat="44.48928" lon="5.6548">
        <ele>1053.26</ele>
        <time>2015-12-03T14:49:42Z</time>
      </trkpt>
      <trkpt lat="44.48905" lon="5.65495">
        <ele>1051.34</ele>
        <time>2015-12-03T14:50:04Z</time>
      </trkpt>
      <trkpt lat="44.48882" lon="5.65508">
        <ele>1048.94</ele>
        <time>2015-12-03T14:50:26Z</time>
      </trkpt>
      <trkpt lat="44.48863" lon="5.65525">
        <ele>1047.01</ele>
        <time>2015-12-03T14:50:45Z</time>
      </trkpt>
      <trkpt lat="44.48847" lon="5.65542">
        <ele>1045.57</ele>
        <time>2015-12-03T14:51:02Z</time>
      </trkpt>
      <trkpt lat="44.48834" lon="5.65559">
        <ele>1044.13</ele>
        <time>2015-12-03T14:51:17Z</time>
      </trkpt>
      <trkpt lat="44.48832" lon="5.65562">
        <ele>1043.65</ele>
        <time>2015-12-03T14:51:20Z</time>
      </trkpt>
      <trkpt lat="44.48816" lon="5.65581">
        <ele>1041.73</ele>
        <time>2015-12-03T14:51:39Z</time>
      </trkpt>
      <trkpt lat="44.48797" lon="5.65591">
        <ele>1040.28</ele>
        <time>2015-12-03T14:51:57Z</time>
      </trkpt>
      <trkpt lat="44.48778" lon="5.65599">
        <ele>1038.84</ele>
        <time>2015-12-03T14:52:13Z</time>
      </trkpt>
      <trkpt lat="44.48763" lon="5.65609">
        <ele>1036.92</ele>
        <time>2015-12-03T14:52:29Z</time>
      </trkpt>
      <trkpt lat="44.48746" lon="5.65615">
        <ele>1035.48</ele>
        <time>2015-12-03T14:52:46Z</time>
      </trkpt>
      <trkpt lat="44.48733" lon="5.6562">
        <ele>1034.52</ele>
        <time>2015-12-03T14:52:59Z</time>
      </trkpt>
      <trkpt lat="44.48717" lon="5.65625">
        <ele>1033.07</ele>
        <time>2015-12-03T14:53:15Z</time>
      </trkpt>
      <trkpt lat="44.487" lon="5.65629">
        <ele>1031.63</ele>
        <time>2015-12-03T14:53:33Z</time>
      </trkpt>
      <trkpt lat="44.48681" lon="5.65628">
        <ele>1029.71</ele>
        <time>2015-12-03T14:53:51Z</time>
      </trkpt>
      <trkpt lat="44.48663" lon="5.65628">
        <ele>1028.27</ele>
        <time>2015-12-03T14:54:08Z</time>
      </trkpt>
      <trkpt lat="44.48646" lon="5.65629">
        <ele>1027.31</ele>
        <time>2015-12-03T14:54:24Z</time>
      </trkpt>
      <trkpt lat="44.48628" lon="5.6563">
        <ele>1026.34</ele>
        <time>2015-12-03T14:54:42Z</time>
      </trkpt>
      <trkpt lat="44.48609" lon="5.65632">
        <ele>1026.34</ele>
        <time>2015-12-03T14:55:00Z</time>
      </trkpt>
      <trkpt lat="44.48597" lon="5.65644">
        <ele>1025.86</ele>
        <time>2015-12-03T14:55:14Z</time>
      </trkpt>
      <trkpt lat="44.48593" lon="5.65671">
        <ele>1025.86</ele>
        <time>2015-12-03T14:55:32Z</time>
      </trkpt>
      <trkpt lat="44.48596" lon="5.65694">
        <ele>1025.38</ele>
        <time>2015-12-03T14:55:47Z</time>
      </trkpt>
      <trkpt lat="44.48602" lon="5.6572">
        <ele>1024.9</ele>
        <time>2015-12-03T14:56:05Z</time>
      </trkpt>
      <trkpt lat="44.48608" lon="5.65747">
        <ele>1022.98</ele>
        <time>2015-12-03T14:56:22Z</time>
      </trkpt>
      <trkpt lat="44.48612" lon="5.65771">
        <ele>1022.02</ele>
        <time>2015-12-03T14:56:36Z</time>
      </trkpt>
      <trkpt lat="44.48616" lon="5.65781">
        <ele>1021.06</ele>
        <time>2015-12-03T14:56:43Z</time>
      </trkpt>
      <trkpt lat="44.48622" lon="5.65798">
        <ele>1019.62</ele>
        <time>2015-12-03T14:56:55Z</time>
      </trkpt>
      <trkpt lat="44.48622" lon="5.658">
        <ele>1019.62</ele>
        <time>2015-12-03T14:56:56Z</time>
      </trkpt>
      <trkpt lat="44.48626" lon="5.65809">
        <ele>1019.13</ele>
        <time>2015-12-03T14:57:03Z</time>
      </trkpt>
      <trkpt lat="44.48628" lon="5.65812">
        <ele>1018.65</ele>
        <time>2015-12-03T14:57:16Z</time>
      </trkpt>
      <trkpt lat="44.48632" lon="5.65816">
        <ele>1018.17</ele>
        <time>2015-12-03T14:57:30Z</time>
      </trkpt>
      <trkpt lat="44.48644" lon="5.65834">
        <ele>1018.17</ele>
        <time>2015-12-03T14:57:46Z</time>
      </trkpt>
      <trkpt lat="44.48659" lon="5.65849">
        <ele>1014.81</ele>
        <time>2015-12-03T14:58:03Z</time>
      </trkpt>
      <trkpt lat="44.48665" lon="5.65854">
        <ele>1014.33</ele>
        <time>2015-12-03T14:58:09Z</time>
      </trkpt>
      <trkpt lat="44.48681" lon="5.6587">
        <ele>1012.89</ele>
        <time>2015-12-03T14:58:27Z</time>
      </trkpt>
      <trkpt lat="44.48689" lon="5.65881">
        <ele>1011.44</ele>
        <time>2015-12-03T14:58:37Z</time>
      </trkpt>
      <trkpt lat="44.48685" lon="5.65883">
        <ele>1010.96</ele>
        <time>2015-12-03T14:58:43Z</time>
      </trkpt>
      <trkpt lat="44.48665" lon="5.65874">
        <ele>1008.08</ele>
        <time>2015-12-03T14:59:02Z</time>
      </trkpt>
      <trkpt lat="44.48656" lon="5.65872">
        <ele>1006.64</ele>
        <time>2015-12-03T14:59:13Z</time>
      </trkpt>
      <trkpt lat="44.48638" lon="5.65864">
        <ele>1003.75</ele>
        <time>2015-12-03T14:59:29Z</time>
      </trkpt>
      <trkpt lat="44.48617" lon="5.65853">
        <ele>1001.83</ele>
        <time>2015-12-03T14:59:48Z</time>
      </trkpt>
      <trkpt lat="44.48603" lon="5.65846">
        <ele>998.47</ele>
        <time>2015-12-03T15:00:01Z</time>
      </trkpt>
      <trkpt lat="44.48588" lon="5.65837">
        <ele>996.06</ele>
        <time>2015-12-03T15:00:15Z</time>
      </trkpt>
      <trkpt lat="44.48579" lon="5.65834">
        <ele>992.7</ele>
        <time>2015-12-03T15:00:24Z</time>
      </trkpt>
      <trkpt lat="44.48568" lon="5.65835">
        <ele>989.81</ele>
        <time>2015-12-03T15:00:34Z</time>
      </trkpt>
      <trkpt lat="44.4856" lon="5.65836">
        <ele>987.89</ele>
        <time>2015-12-03T15:00:41Z</time>
      </trkpt>
      <trkpt lat="44.4855" lon="5.65839">
        <ele>985.97</ele>
        <time>2015-12-03T15:00:53Z</time>
      </trkpt>
      <trkpt lat="44.48549" lon="5.6584">
        <ele>985.97</ele>
        <time>2015-12-03T15:00:55Z</time>
      </trkpt>
      <trkpt lat="44.48547" lon="5.65838">
        <ele>985.97</ele>
        <time>2015-12-03T15:00:58Z</time>
      </trkpt>
      <trkpt lat="44.48539" lon="5.65833">
        <ele>985.97</ele>
        <time>2015-12-03T15:01:12Z</time>
      </trkpt>
      <trkpt lat="44.48533" lon="5.6583">
        <ele>985.97</ele>
        <time>2015-12-03T15:01:24Z</time>
      </trkpt>
      <trkpt lat="44.48526" lon="5.65833">
        <ele>985.49</ele>
        <time>2015-12-03T15:01:41Z</time>
      </trkpt>
      <trkpt lat="44.48524" lon="5.65835">
        <ele>985.49</ele>
        <time>2015-12-03T15:01:54Z</time>
      </trkpt>
      <trkpt lat="44.48525" lon="5.65835">
        <ele>985.01</ele>
        <time>2015-12-03T15:02:06Z</time>
      </trkpt>
      <trkpt lat="44.48522" lon="5.65835">
        <ele>985.01</ele>
        <time>2015-12-03T15:02:24Z</time>
      </trkpt>
      <trkpt lat="44.48522" lon="5.6583">
        <ele>985.01</ele>
        <time>2015-12-03T15:02:56Z</time>
      </trkpt>
      <trkpt lat="44.48518" lon="5.65826">
        <ele>985.49</ele>
        <time>2015-12-03T15:03:22Z</time>
      </trkpt>
      <trkpt lat="44.48515" lon="5.65827">
        <ele>985.49</ele>
        <time>2015-12-03T15:03:47Z</time>
      </trkpt>
      <trkpt lat="44.48519" lon="5.65832">
        <ele>985.97</ele>
        <time>2015-12-03T15:04:10Z</time>
      </trkpt>
      <trkpt lat="44.48522" lon="5.65833">
        <ele>985.97</ele>
        <time>2015-12-03T15:04:35Z</time>
      </trkpt>
      <trkpt lat="44.48525" lon="5.65837">
        <ele>985.97</ele>
        <time>2015-12-03T15:05:00Z</time>
      </trkpt>
      <trkpt lat="44.48523" lon="5.6584">
        <ele>985.97</ele>
        <time>2015-12-03T15:05:24Z</time>
      </trkpt>
      <trkpt lat="44.48521" lon="5.65836">
        <ele>986.45</ele>
        <time>2015-12-03T15:05:45Z</time>
      </trkpt>
      <trkpt lat="44.48515" lon="5.65829">
        <ele>986.93</ele>
        <time>2015-12-03T15:06:20Z</time>
      </trkpt>
      <trkpt lat="44.48516" lon="5.65832">
        <ele>986.93</ele>
        <time>2015-12-03T15:06:48Z</time>
      </trkpt>
      <trkpt lat="44.48513" lon="5.65832">
        <ele>987.41</ele>
        <time>2015-12-03T15:07:24Z</time>
      </trkpt>
      <trkpt lat="44.48512" lon="5.65831">
        <ele>989.33</ele>
        <time>2015-12-03T15:07:50Z</time>
      </trkpt>
      <trkpt lat="44.48514" lon="5.65832">
        <ele>988.37</ele>
        <time>2015-12-03T15:08:18Z</time>
      </trkpt>
      <trkpt lat="44.48511" lon="5.6583">
        <ele>988.85</ele>
        <time>2015-12-03T15:08:42Z</time>
      </trkpt>
      <trkpt lat="44.48523" lon="5.65833">
        <ele>989.33</ele>
        <time>2015-12-03T15:09:12Z</time>
      </trkpt>
      <trkpt lat="44.48521" lon="5.65846">
        <ele>989.33</ele>
        <time>2015-12-03T15:09:44Z</time>
      </trkpt>
      <trkpt lat="44.48522" lon="5.65836">
        <ele>989.33</ele>
        <time>2015-12-03T15:10:10Z</time>
      </trkpt>
      <trkpt lat="44.48524" lon="5.65833">
        <ele>989.33</ele>
        <time>2015-12-03T15:10:34Z</time>
      </trkpt>
      <trkpt lat="44.48524" lon="5.65831">
        <ele>989.81</ele>
        <time>2015-12-03T15:10:59Z</time>
      </trkpt>
      <trkpt lat="44.48529" lon="5.65838">
        <ele>989.81</ele>
        <time>2015-12-03T15:11:28Z</time>
      </trkpt>
      <trkpt lat="44.48528" lon="5.65835">
        <ele>990.3</ele>
        <time>2015-12-03T15:11:53Z</time>
      </trkpt>
      <trkpt lat="44.48526" lon="5.6583">
        <ele>990.3</ele>
        <time>2015-12-03T15:12:25Z</time>
      </trkpt>
      <trkpt lat="44.48525" lon="5.6583">
        <ele>990.78</ele>
        <time>2015-12-03T15:12:57Z</time>
      </trkpt>
      <trkpt lat="44.48524" lon="5.6583">
        <ele>990.3</ele>
        <time>2015-12-03T15:13:34Z</time>
      </trkpt>
      <trkpt lat="44.48524" lon="5.65831">
        <ele>990.78</ele>
        <time>2015-12-03T15:14:01Z</time>
      </trkpt>
      <trkpt lat="44.48523" lon="5.65835">
        <ele>990.3</ele>
        <time>2015-12-03T15:14:06Z</time>
      </trkpt>
      <trkpt lat="44.48491" lon="5.65862">
        <ele>987.89</ele>
        <time>2015-12-03T15:14:17Z</time>
      </trkpt>
      <trkpt lat="44.48447" lon="5.65881">
        <ele>984.53</ele>
        <time>2015-12-03T15:14:25Z</time>
      </trkpt>
    </trkseg>
  </trk>
</gpx>